<?xml version="1.0" encoding="UTF-8" standalone="no" ?>
<gpx xmlns="http://www.topografix.com/GPX/1/1" xmlns:xsi="http://www.w3.org/2001/XMLSchema-instance" xsi:schemaLocation="http://www.topografix.com/GPX/1/1 http://www.topografix.com/GPX/1/1/gpx.xsd" version="1.1" creator="VisuGPX - https://www.visugpx.com">
  <metadata>
    <name>3eme sortie Vélo</name>
    <desc><![CDATA[Hello belle sortie pas trés longue mais la cote de Trigny ...... un peu raide pour l'instant]]></desc>
  </metadata>
  <wpt lat="49.24518" lon="4.01216">
    <ele>133</ele>
    <name><![CDATA[Romu2]]></name>
  </wpt>
  <trk>
    <name><![CDATA[Tracé 20190507-115459]]></name>
    <trkseg>
      <trkpt lat="49.24514" lon="4.01212">
        <ele>131</ele>
        <time>2019-05-07T09:54:59Z</time>
      </trkpt>
      <trkpt lat="49.24514" lon="4.01213">
        <ele>132</ele>
        <time>2019-05-07T09:55:00Z</time>
      </trkpt>
      <trkpt lat="49.24516" lon="4.01212">
        <ele>132</ele>
        <time>2019-05-07T09:55:01Z</time>
      </trkpt>
      <trkpt lat="49.24517" lon="4.01213">
        <ele>132</ele>
        <time>2019-05-07T09:55:02Z</time>
      </trkpt>
      <trkpt lat="49.24518" lon="4.01216">
        <ele>133</ele>
        <time>2019-05-07T09:55:03Z</time>
      </trkpt>
      <trkpt lat="49.24519" lon="4.01217">
        <ele>133</ele>
        <time>2019-05-07T09:55:04Z</time>
      </trkpt>
      <trkpt lat="49.24519" lon="4.01218">
        <ele>133</ele>
        <time>2019-05-07T09:55:05Z</time>
      </trkpt>
      <trkpt lat="49.24519" lon="4.01218">
        <ele>133</ele>
        <time>2019-05-07T09:55:06Z</time>
      </trkpt>
      <trkpt lat="49.24519" lon="4.01216">
        <ele>132</ele>
        <time>2019-05-07T09:55:07Z</time>
      </trkpt>
      <trkpt lat="49.24519" lon="4.01216">
        <ele>132</ele>
        <time>2019-05-07T09:55:08Z</time>
      </trkpt>
      <trkpt lat="49.24519" lon="4.01216">
        <ele>132</ele>
        <time>2019-05-07T09:55:09Z</time>
      </trkpt>
      <trkpt lat="49.24519" lon="4.01216">
        <ele>132</ele>
        <time>2019-05-07T09:55:10Z</time>
      </trkpt>
      <trkpt lat="49.24519" lon="4.01216">
        <ele>132</ele>
        <time>2019-05-07T09:55:11Z</time>
      </trkpt>
      <trkpt lat="49.24519" lon="4.01216">
        <ele>132</ele>
        <time>2019-05-07T09:55:12Z</time>
      </trkpt>
      <trkpt lat="49.24519" lon="4.01216">
        <ele>132</ele>
        <time>2019-05-07T09:55:13Z</time>
      </trkpt>
      <trkpt lat="49.24519" lon="4.01216">
        <ele>132</ele>
        <time>2019-05-07T09:55:14Z</time>
      </trkpt>
      <trkpt lat="49.24519" lon="4.01216">
        <ele>132</ele>
        <time>2019-05-07T09:55:15Z</time>
      </trkpt>
      <trkpt lat="49.24519" lon="4.01216">
        <ele>132</ele>
        <time>2019-05-07T09:55:16Z</time>
      </trkpt>
      <trkpt lat="49.24519" lon="4.01216">
        <ele>132</ele>
        <time>2019-05-07T09:55:17Z</time>
      </trkpt>
      <trkpt lat="49.24519" lon="4.01216">
        <ele>132</ele>
        <time>2019-05-07T09:55:18Z</time>
      </trkpt>
      <trkpt lat="49.24519" lon="4.01216">
        <ele>132</ele>
        <time>2019-05-07T09:55:19Z</time>
      </trkpt>
      <trkpt lat="49.24519" lon="4.01217">
        <ele>132</ele>
        <time>2019-05-07T09:55:20Z</time>
      </trkpt>
      <trkpt lat="49.24519" lon="4.01218">
        <ele>132</ele>
        <time>2019-05-07T09:55:21Z</time>
      </trkpt>
      <trkpt lat="49.2452" lon="4.01218">
        <ele>133</ele>
        <time>2019-05-07T09:55:22Z</time>
      </trkpt>
      <trkpt lat="49.24521" lon="4.01218">
        <ele>133</ele>
        <time>2019-05-07T09:55:23Z</time>
      </trkpt>
      <trkpt lat="49.24521" lon="4.01218">
        <ele>133</ele>
        <time>2019-05-07T09:55:24Z</time>
      </trkpt>
      <trkpt lat="49.24521" lon="4.01218">
        <ele>133</ele>
        <time>2019-05-07T09:55:25Z</time>
      </trkpt>
      <trkpt lat="49.24521" lon="4.01218">
        <ele>133</ele>
        <time>2019-05-07T09:55:26Z</time>
      </trkpt>
      <trkpt lat="49.24521" lon="4.01218">
        <ele>133</ele>
        <time>2019-05-07T09:55:27Z</time>
      </trkpt>
      <trkpt lat="49.24521" lon="4.01218">
        <ele>133</ele>
        <time>2019-05-07T09:55:28Z</time>
      </trkpt>
      <trkpt lat="49.24521" lon="4.01218">
        <ele>133</ele>
        <time>2019-05-07T09:55:29Z</time>
      </trkpt>
      <trkpt lat="49.24521" lon="4.01218">
        <ele>133</ele>
        <time>2019-05-07T09:55:30Z</time>
      </trkpt>
      <trkpt lat="49.24521" lon="4.01218">
        <ele>133</ele>
        <time>2019-05-07T09:55:31Z</time>
      </trkpt>
      <trkpt lat="49.24521" lon="4.01218">
        <ele>133</ele>
        <time>2019-05-07T09:55:32Z</time>
      </trkpt>
      <trkpt lat="49.24521" lon="4.01218">
        <ele>133</ele>
        <time>2019-05-07T09:55:33Z</time>
      </trkpt>
      <trkpt lat="49.24521" lon="4.01218">
        <ele>133</ele>
        <time>2019-05-07T09:55:34Z</time>
      </trkpt>
      <trkpt lat="49.24521" lon="4.01218">
        <ele>133</ele>
        <time>2019-05-07T09:55:35Z</time>
      </trkpt>
      <trkpt lat="49.24521" lon="4.01218">
        <ele>133</ele>
        <time>2019-05-07T09:55:36Z</time>
      </trkpt>
      <trkpt lat="49.24521" lon="4.01218">
        <ele>133</ele>
        <time>2019-05-07T09:55:37Z</time>
      </trkpt>
      <trkpt lat="49.24521" lon="4.01218">
        <ele>133</ele>
        <time>2019-05-07T09:55:38Z</time>
      </trkpt>
      <trkpt lat="49.24521" lon="4.01218">
        <ele>133</ele>
        <time>2019-05-07T09:55:39Z</time>
      </trkpt>
      <trkpt lat="49.24521" lon="4.01218">
        <ele>133</ele>
        <time>2019-05-07T09:55:40Z</time>
      </trkpt>
      <trkpt lat="49.24521" lon="4.01218">
        <ele>133</ele>
        <time>2019-05-07T09:55:41Z</time>
      </trkpt>
      <trkpt lat="49.24521" lon="4.01218">
        <ele>133</ele>
        <time>2019-05-07T09:55:42Z</time>
      </trkpt>
      <trkpt lat="49.24521" lon="4.01218">
        <ele>133</ele>
        <time>2019-05-07T09:55:43Z</time>
      </trkpt>
      <trkpt lat="49.24521" lon="4.01218">
        <ele>133</ele>
        <time>2019-05-07T09:55:44Z</time>
      </trkpt>
      <trkpt lat="49.24521" lon="4.01218">
        <ele>133</ele>
        <time>2019-05-07T09:55:45Z</time>
      </trkpt>
      <trkpt lat="49.24521" lon="4.01218">
        <ele>133</ele>
        <time>2019-05-07T09:55:46Z</time>
      </trkpt>
      <trkpt lat="49.24521" lon="4.01218">
        <ele>133</ele>
        <time>2019-05-07T09:55:47Z</time>
      </trkpt>
      <trkpt lat="49.24521" lon="4.01218">
        <ele>133</ele>
        <time>2019-05-07T09:55:48Z</time>
      </trkpt>
      <trkpt lat="49.24521" lon="4.01218">
        <ele>133</ele>
        <time>2019-05-07T09:55:49Z</time>
      </trkpt>
      <trkpt lat="49.24521" lon="4.01218">
        <ele>133</ele>
        <time>2019-05-07T09:55:50Z</time>
      </trkpt>
      <trkpt lat="49.24521" lon="4.01218">
        <ele>133</ele>
        <time>2019-05-07T09:55:51Z</time>
      </trkpt>
      <trkpt lat="49.24521" lon="4.01218">
        <ele>133</ele>
        <time>2019-05-07T09:55:52Z</time>
      </trkpt>
      <trkpt lat="49.24521" lon="4.01218">
        <ele>133</ele>
        <time>2019-05-07T09:55:53Z</time>
      </trkpt>
      <trkpt lat="49.24521" lon="4.01218">
        <ele>133</ele>
        <time>2019-05-07T09:55:54Z</time>
      </trkpt>
      <trkpt lat="49.24521" lon="4.01218">
        <ele>133</ele>
        <time>2019-05-07T09:55:55Z</time>
      </trkpt>
      <trkpt lat="49.2452" lon="4.01218">
        <ele>133</ele>
        <time>2019-05-07T09:55:56Z</time>
      </trkpt>
      <trkpt lat="49.2452" lon="4.01218">
        <ele>133</ele>
        <time>2019-05-07T09:55:57Z</time>
      </trkpt>
      <trkpt lat="49.2452" lon="4.01218">
        <ele>133</ele>
        <time>2019-05-07T09:55:58Z</time>
      </trkpt>
      <trkpt lat="49.2452" lon="4.01218">
        <ele>133</ele>
        <time>2019-05-07T09:55:59Z</time>
      </trkpt>
      <trkpt lat="49.2452" lon="4.01218">
        <ele>133</ele>
        <time>2019-05-07T09:56:00Z</time>
      </trkpt>
      <trkpt lat="49.2452" lon="4.01218">
        <ele>133</ele>
        <time>2019-05-07T09:56:01Z</time>
      </trkpt>
      <trkpt lat="49.2452" lon="4.01218">
        <ele>133</ele>
        <time>2019-05-07T09:56:02Z</time>
      </trkpt>
      <trkpt lat="49.2452" lon="4.01218">
        <ele>133</ele>
        <time>2019-05-07T09:56:03Z</time>
      </trkpt>
      <trkpt lat="49.2452" lon="4.01218">
        <ele>133</ele>
        <time>2019-05-07T09:56:04Z</time>
      </trkpt>
      <trkpt lat="49.2452" lon="4.01218">
        <ele>133</ele>
        <time>2019-05-07T09:56:05Z</time>
      </trkpt>
      <trkpt lat="49.2452" lon="4.01218">
        <ele>133</ele>
        <time>2019-05-07T09:56:06Z</time>
      </trkpt>
      <trkpt lat="49.2452" lon="4.01218">
        <ele>133</ele>
        <time>2019-05-07T09:56:07Z</time>
      </trkpt>
      <trkpt lat="49.2452" lon="4.01218">
        <ele>133</ele>
        <time>2019-05-07T09:56:08Z</time>
      </trkpt>
      <trkpt lat="49.2452" lon="4.01218">
        <ele>133</ele>
        <time>2019-05-07T09:56:09Z</time>
      </trkpt>
      <trkpt lat="49.2452" lon="4.01218">
        <ele>133</ele>
        <time>2019-05-07T09:56:10Z</time>
      </trkpt>
      <trkpt lat="49.2452" lon="4.01218">
        <ele>133</ele>
        <time>2019-05-07T09:56:11Z</time>
      </trkpt>
      <trkpt lat="49.2452" lon="4.01218">
        <ele>133</ele>
        <time>2019-05-07T09:56:12Z</time>
      </trkpt>
      <trkpt lat="49.2452" lon="4.01218">
        <ele>133</ele>
        <time>2019-05-07T09:56:13Z</time>
      </trkpt>
      <trkpt lat="49.2452" lon="4.01218">
        <ele>133</ele>
        <time>2019-05-07T09:56:14Z</time>
      </trkpt>
      <trkpt lat="49.2452" lon="4.01218">
        <ele>133</ele>
        <time>2019-05-07T09:56:15Z</time>
      </trkpt>
      <trkpt lat="49.2452" lon="4.01218">
        <ele>133</ele>
        <time>2019-05-07T09:56:16Z</time>
      </trkpt>
      <trkpt lat="49.24521" lon="4.01219">
        <ele>134</ele>
        <time>2019-05-07T09:56:17Z</time>
      </trkpt>
      <trkpt lat="49.24521" lon="4.0122">
        <ele>134</ele>
        <time>2019-05-07T09:56:18Z</time>
      </trkpt>
      <trkpt lat="49.24521" lon="4.01221">
        <ele>133</ele>
        <time>2019-05-07T09:56:19Z</time>
      </trkpt>
      <trkpt lat="49.24522" lon="4.01223">
        <ele>134</ele>
        <time>2019-05-07T09:56:20Z</time>
      </trkpt>
      <trkpt lat="49.24522" lon="4.01226">
        <ele>134</ele>
        <time>2019-05-07T09:56:21Z</time>
      </trkpt>
      <trkpt lat="49.24522" lon="4.01228">
        <ele>135</ele>
        <time>2019-05-07T09:56:22Z</time>
      </trkpt>
      <trkpt lat="49.24523" lon="4.01231">
        <ele>135</ele>
        <time>2019-05-07T09:56:23Z</time>
      </trkpt>
      <trkpt lat="49.24523" lon="4.01233">
        <ele>135</ele>
        <time>2019-05-07T09:56:24Z</time>
      </trkpt>
      <trkpt lat="49.24523" lon="4.01234">
        <ele>135</ele>
        <time>2019-05-07T09:56:25Z</time>
      </trkpt>
      <trkpt lat="49.24524" lon="4.01235">
        <ele>134</ele>
        <time>2019-05-07T09:56:26Z</time>
      </trkpt>
      <trkpt lat="49.24525" lon="4.01236">
        <ele>133</ele>
        <time>2019-05-07T09:56:27Z</time>
      </trkpt>
      <trkpt lat="49.24526" lon="4.01236">
        <ele>133</ele>
        <time>2019-05-07T09:56:28Z</time>
      </trkpt>
      <trkpt lat="49.24527" lon="4.01237">
        <ele>133</ele>
        <time>2019-05-07T09:56:29Z</time>
      </trkpt>
      <trkpt lat="49.24528" lon="4.01238">
        <ele>133</ele>
        <time>2019-05-07T09:56:30Z</time>
      </trkpt>
      <trkpt lat="49.24529" lon="4.01239">
        <ele>133</ele>
        <time>2019-05-07T09:56:31Z</time>
      </trkpt>
      <trkpt lat="49.24529" lon="4.01239">
        <ele>134</ele>
        <time>2019-05-07T09:56:32Z</time>
      </trkpt>
      <trkpt lat="49.2453" lon="4.0124">
        <ele>134</ele>
        <time>2019-05-07T09:56:33Z</time>
      </trkpt>
      <trkpt lat="49.24531" lon="4.0124">
        <ele>134</ele>
        <time>2019-05-07T09:56:34Z</time>
      </trkpt>
      <trkpt lat="49.24531" lon="4.0124">
        <ele>134</ele>
        <time>2019-05-07T09:56:35Z</time>
      </trkpt>
      <trkpt lat="49.24531" lon="4.01241">
        <ele>135</ele>
        <time>2019-05-07T09:56:36Z</time>
      </trkpt>
      <trkpt lat="49.24531" lon="4.01241">
        <ele>135</ele>
        <time>2019-05-07T09:56:37Z</time>
      </trkpt>
      <trkpt lat="49.2453" lon="4.01242">
        <ele>135</ele>
        <time>2019-05-07T09:56:38Z</time>
      </trkpt>
      <trkpt lat="49.2453" lon="4.01242">
        <ele>135</ele>
        <time>2019-05-07T09:56:39Z</time>
      </trkpt>
      <trkpt lat="49.2453" lon="4.01242">
        <ele>135</ele>
        <time>2019-05-07T09:56:40Z</time>
      </trkpt>
      <trkpt lat="49.2453" lon="4.01242">
        <ele>135</ele>
        <time>2019-05-07T09:56:41Z</time>
      </trkpt>
      <trkpt lat="49.2453" lon="4.01242">
        <ele>135</ele>
        <time>2019-05-07T09:56:42Z</time>
      </trkpt>
      <trkpt lat="49.2453" lon="4.01242">
        <ele>135</ele>
        <time>2019-05-07T09:56:43Z</time>
      </trkpt>
      <trkpt lat="49.2453" lon="4.01242">
        <ele>135</ele>
        <time>2019-05-07T09:56:44Z</time>
      </trkpt>
      <trkpt lat="49.2453" lon="4.01242">
        <ele>135</ele>
        <time>2019-05-07T09:56:45Z</time>
      </trkpt>
      <trkpt lat="49.2453" lon="4.01242">
        <ele>135</ele>
        <time>2019-05-07T09:56:46Z</time>
      </trkpt>
      <trkpt lat="49.2453" lon="4.01242">
        <ele>135</ele>
        <time>2019-05-07T09:56:47Z</time>
      </trkpt>
      <trkpt lat="49.2453" lon="4.01242">
        <ele>135</ele>
        <time>2019-05-07T09:56:48Z</time>
      </trkpt>
      <trkpt lat="49.2453" lon="4.01242">
        <ele>135</ele>
        <time>2019-05-07T09:56:49Z</time>
      </trkpt>
      <trkpt lat="49.2453" lon="4.01242">
        <ele>135</ele>
        <time>2019-05-07T09:56:50Z</time>
      </trkpt>
      <trkpt lat="49.2453" lon="4.01242">
        <ele>135</ele>
        <time>2019-05-07T09:56:51Z</time>
      </trkpt>
      <trkpt lat="49.2453" lon="4.01242">
        <ele>135</ele>
        <time>2019-05-07T09:56:52Z</time>
      </trkpt>
      <trkpt lat="49.2453" lon="4.01242">
        <ele>135</ele>
        <time>2019-05-07T09:56:53Z</time>
      </trkpt>
      <trkpt lat="49.2453" lon="4.01242">
        <ele>135</ele>
        <time>2019-05-07T09:56:54Z</time>
      </trkpt>
      <trkpt lat="49.2453" lon="4.01242">
        <ele>135</ele>
        <time>2019-05-07T09:56:55Z</time>
      </trkpt>
      <trkpt lat="49.2453" lon="4.01242">
        <ele>135</ele>
        <time>2019-05-07T09:56:56Z</time>
      </trkpt>
      <trkpt lat="49.2453" lon="4.01242">
        <ele>135</ele>
        <time>2019-05-07T09:56:57Z</time>
      </trkpt>
      <trkpt lat="49.2453" lon="4.01242">
        <ele>135</ele>
        <time>2019-05-07T09:56:58Z</time>
      </trkpt>
      <trkpt lat="49.2453" lon="4.01242">
        <ele>135</ele>
        <time>2019-05-07T09:56:59Z</time>
      </trkpt>
      <trkpt lat="49.2453" lon="4.01242">
        <ele>135</ele>
        <time>2019-05-07T09:57:00Z</time>
      </trkpt>
      <trkpt lat="49.2453" lon="4.01242">
        <ele>135</ele>
        <time>2019-05-07T09:57:01Z</time>
      </trkpt>
      <trkpt lat="49.2453" lon="4.01242">
        <ele>135</ele>
        <time>2019-05-07T09:57:02Z</time>
      </trkpt>
      <trkpt lat="49.2453" lon="4.01242">
        <ele>135</ele>
        <time>2019-05-07T09:57:03Z</time>
      </trkpt>
      <trkpt lat="49.2453" lon="4.01242">
        <ele>135</ele>
        <time>2019-05-07T09:57:05Z</time>
      </trkpt>
      <trkpt lat="49.2453" lon="4.01242">
        <ele>135</ele>
        <time>2019-05-07T09:57:06Z</time>
      </trkpt>
      <trkpt lat="49.2453" lon="4.01242">
        <ele>135</ele>
        <time>2019-05-07T09:57:07Z</time>
      </trkpt>
      <trkpt lat="49.2453" lon="4.01242">
        <ele>135</ele>
        <time>2019-05-07T09:57:08Z</time>
      </trkpt>
      <trkpt lat="49.2453" lon="4.01242">
        <ele>135</ele>
        <time>2019-05-07T09:57:09Z</time>
      </trkpt>
      <trkpt lat="49.2453" lon="4.01242">
        <ele>135</ele>
        <time>2019-05-07T09:57:10Z</time>
      </trkpt>
      <trkpt lat="49.2453" lon="4.01242">
        <ele>135</ele>
        <time>2019-05-07T09:57:11Z</time>
      </trkpt>
      <trkpt lat="49.2453" lon="4.01242">
        <ele>135</ele>
        <time>2019-05-07T09:57:12Z</time>
      </trkpt>
      <trkpt lat="49.2453" lon="4.01242">
        <ele>135</ele>
        <time>2019-05-07T09:57:13Z</time>
      </trkpt>
      <trkpt lat="49.2453" lon="4.01242">
        <ele>135</ele>
        <time>2019-05-07T09:57:14Z</time>
      </trkpt>
      <trkpt lat="49.2453" lon="4.01242">
        <ele>135</ele>
        <time>2019-05-07T09:57:15Z</time>
      </trkpt>
      <trkpt lat="49.2453" lon="4.01242">
        <ele>135</ele>
        <time>2019-05-07T09:57:16Z</time>
      </trkpt>
      <trkpt lat="49.2453" lon="4.01242">
        <ele>135</ele>
        <time>2019-05-07T09:57:17Z</time>
      </trkpt>
      <trkpt lat="49.2453" lon="4.01242">
        <ele>135</ele>
        <time>2019-05-07T09:57:18Z</time>
      </trkpt>
      <trkpt lat="49.2453" lon="4.01242">
        <ele>135</ele>
        <time>2019-05-07T09:57:19Z</time>
      </trkpt>
      <trkpt lat="49.2453" lon="4.01242">
        <ele>135</ele>
        <time>2019-05-07T09:57:20Z</time>
      </trkpt>
      <trkpt lat="49.2453" lon="4.01242">
        <ele>135</ele>
        <time>2019-05-07T09:57:21Z</time>
      </trkpt>
      <trkpt lat="49.2453" lon="4.01242">
        <ele>135</ele>
        <time>2019-05-07T09:57:22Z</time>
      </trkpt>
      <trkpt lat="49.2453" lon="4.01242">
        <ele>135</ele>
        <time>2019-05-07T09:57:23Z</time>
      </trkpt>
      <trkpt lat="49.2453" lon="4.01242">
        <ele>135</ele>
        <time>2019-05-07T09:57:24Z</time>
      </trkpt>
      <trkpt lat="49.2453" lon="4.01242">
        <ele>135</ele>
        <time>2019-05-07T09:57:26Z</time>
      </trkpt>
      <trkpt lat="49.2453" lon="4.01242">
        <ele>135</ele>
        <time>2019-05-07T09:57:27Z</time>
      </trkpt>
      <trkpt lat="49.2453" lon="4.01242">
        <ele>135</ele>
        <time>2019-05-07T09:57:28Z</time>
      </trkpt>
      <trkpt lat="49.2453" lon="4.01242">
        <ele>135</ele>
        <time>2019-05-07T09:57:29Z</time>
      </trkpt>
      <trkpt lat="49.2453" lon="4.01242">
        <ele>135</ele>
        <time>2019-05-07T09:57:30Z</time>
      </trkpt>
      <trkpt lat="49.2453" lon="4.01242">
        <ele>135</ele>
        <time>2019-05-07T09:57:31Z</time>
      </trkpt>
      <trkpt lat="49.2453" lon="4.01242">
        <ele>135</ele>
        <time>2019-05-07T09:57:33Z</time>
      </trkpt>
      <trkpt lat="49.2453" lon="4.01242">
        <ele>135</ele>
        <time>2019-05-07T09:57:34Z</time>
      </trkpt>
      <trkpt lat="49.24532" lon="4.01253">
        <ele>148</ele>
        <time>2019-05-07T09:57:36Z</time>
      </trkpt>
      <trkpt lat="49.24534" lon="4.01256">
        <ele>144</ele>
        <time>2019-05-07T09:58:55Z</time>
      </trkpt>
      <trkpt lat="49.24532" lon="4.01251">
        <ele>144</ele>
        <time>2019-05-07T09:58:58Z</time>
      </trkpt>
      <trkpt lat="49.24529" lon="4.01248">
        <ele>144</ele>
        <time>2019-05-07T09:59:01Z</time>
      </trkpt>
      <trkpt lat="49.24529" lon="4.01248">
        <ele>144</ele>
        <time>2019-05-07T09:59:04Z</time>
      </trkpt>
      <trkpt lat="49.24528" lon="4.01245">
        <ele>144</ele>
        <time>2019-05-07T09:59:43Z</time>
      </trkpt>
      <trkpt lat="49.24528" lon="4.01244">
        <ele>142</ele>
        <time>2019-05-07T09:59:46Z</time>
      </trkpt>
      <trkpt lat="49.24527" lon="4.01244">
        <ele>141</ele>
        <time>2019-05-07T09:59:49Z</time>
      </trkpt>
      <trkpt lat="49.24527" lon="4.01244">
        <ele>141</ele>
        <time>2019-05-07T10:00:31Z</time>
      </trkpt>
      <trkpt lat="49.24527" lon="4.01245">
        <ele>139</ele>
        <time>2019-05-07T10:00:34Z</time>
      </trkpt>
      <trkpt lat="49.24527" lon="4.01243">
        <ele>139</ele>
        <time>2019-05-07T10:00:37Z</time>
      </trkpt>
      <trkpt lat="49.24527" lon="4.01243">
        <ele>139</ele>
        <time>2019-05-07T10:02:17Z</time>
      </trkpt>
      <trkpt lat="49.24526" lon="4.01241">
        <ele>137</ele>
        <time>2019-05-07T10:02:20Z</time>
      </trkpt>
      <trkpt lat="49.24526" lon="4.01241">
        <ele>138</ele>
        <time>2019-05-07T10:02:23Z</time>
      </trkpt>
      <trkpt lat="49.24526" lon="4.01241">
        <ele>138</ele>
        <time>2019-05-07T10:03:11Z</time>
      </trkpt>
      <trkpt lat="49.24526" lon="4.0124">
        <ele>139</ele>
        <time>2019-05-07T10:03:14Z</time>
      </trkpt>
      <trkpt lat="49.24505" lon="4.01234">
        <ele>136</ele>
        <time>2019-05-07T10:03:23Z</time>
      </trkpt>
      <trkpt lat="49.24485" lon="4.01221">
        <ele>135</ele>
        <time>2019-05-07T10:03:29Z</time>
      </trkpt>
      <trkpt lat="49.24461" lon="4.01208">
        <ele>134</ele>
        <time>2019-05-07T10:03:35Z</time>
      </trkpt>
      <trkpt lat="49.24436" lon="4.01194">
        <ele>134</ele>
        <time>2019-05-07T10:03:41Z</time>
      </trkpt>
      <trkpt lat="49.24408" lon="4.01183">
        <ele>135</ele>
        <time>2019-05-07T10:03:47Z</time>
      </trkpt>
      <trkpt lat="49.24381" lon="4.01169">
        <ele>135</ele>
        <time>2019-05-07T10:03:53Z</time>
      </trkpt>
      <trkpt lat="49.24355" lon="4.01157">
        <ele>135</ele>
        <time>2019-05-07T10:03:59Z</time>
      </trkpt>
      <trkpt lat="49.24325" lon="4.01142">
        <ele>136</ele>
        <time>2019-05-07T10:04:05Z</time>
      </trkpt>
      <trkpt lat="49.24298" lon="4.01129">
        <ele>136</ele>
        <time>2019-05-07T10:04:11Z</time>
      </trkpt>
      <trkpt lat="49.24273" lon="4.01115">
        <ele>138</ele>
        <time>2019-05-07T10:04:17Z</time>
      </trkpt>
      <trkpt lat="49.24249" lon="4.01102">
        <ele>138</ele>
        <time>2019-05-07T10:04:23Z</time>
      </trkpt>
      <trkpt lat="49.24226" lon="4.01089">
        <ele>139</ele>
        <time>2019-05-07T10:04:29Z</time>
      </trkpt>
      <trkpt lat="49.24202" lon="4.01078">
        <ele>140</ele>
        <time>2019-05-07T10:04:35Z</time>
      </trkpt>
      <trkpt lat="49.24179" lon="4.01067">
        <ele>141</ele>
        <time>2019-05-07T10:04:41Z</time>
      </trkpt>
      <trkpt lat="49.24155" lon="4.01053">
        <ele>141</ele>
        <time>2019-05-07T10:04:47Z</time>
      </trkpt>
      <trkpt lat="49.24129" lon="4.0104">
        <ele>141</ele>
        <time>2019-05-07T10:04:53Z</time>
      </trkpt>
      <trkpt lat="49.24106" lon="4.01029">
        <ele>142</ele>
        <time>2019-05-07T10:04:59Z</time>
      </trkpt>
      <trkpt lat="49.24101" lon="4.00988">
        <ele>145</ele>
        <time>2019-05-07T10:05:08Z</time>
      </trkpt>
      <trkpt lat="49.24114" lon="4.00959">
        <ele>146</ele>
        <time>2019-05-07T10:05:14Z</time>
      </trkpt>
      <trkpt lat="49.24124" lon="4.0093">
        <ele>147</ele>
        <time>2019-05-07T10:05:20Z</time>
      </trkpt>
      <trkpt lat="49.24136" lon="4.00899">
        <ele>148</ele>
        <time>2019-05-07T10:05:26Z</time>
      </trkpt>
      <trkpt lat="49.24149" lon="4.00869">
        <ele>149</ele>
        <time>2019-05-07T10:05:32Z</time>
      </trkpt>
      <trkpt lat="49.24163" lon="4.00836">
        <ele>150</ele>
        <time>2019-05-07T10:05:38Z</time>
      </trkpt>
      <trkpt lat="49.24177" lon="4.008">
        <ele>150</ele>
        <time>2019-05-07T10:05:44Z</time>
      </trkpt>
      <trkpt lat="49.24191" lon="4.00765">
        <ele>149</ele>
        <time>2019-05-07T10:05:50Z</time>
      </trkpt>
      <trkpt lat="49.24203" lon="4.00732">
        <ele>149</ele>
        <time>2019-05-07T10:05:56Z</time>
      </trkpt>
      <trkpt lat="49.24226" lon="4.00735">
        <ele>149</ele>
        <time>2019-05-07T10:06:05Z</time>
      </trkpt>
      <trkpt lat="49.24249" lon="4.00763">
        <ele>149</ele>
        <time>2019-05-07T10:06:11Z</time>
      </trkpt>
      <trkpt lat="49.24271" lon="4.00793">
        <ele>149</ele>
        <time>2019-05-07T10:06:17Z</time>
      </trkpt>
      <trkpt lat="49.24291" lon="4.00793">
        <ele>149</ele>
        <time>2019-05-07T10:06:23Z</time>
      </trkpt>
      <trkpt lat="49.24305" lon="4.00772">
        <ele>149</ele>
        <time>2019-05-07T10:06:26Z</time>
      </trkpt>
      <trkpt lat="49.2432" lon="4.0075">
        <ele>147</ele>
        <time>2019-05-07T10:06:29Z</time>
      </trkpt>
      <trkpt lat="49.24337" lon="4.00727">
        <ele>145</ele>
        <time>2019-05-07T10:06:32Z</time>
      </trkpt>
      <trkpt lat="49.24352" lon="4.00703">
        <ele>144</ele>
        <time>2019-05-07T10:06:35Z</time>
      </trkpt>
      <trkpt lat="49.24368" lon="4.0068">
        <ele>143</ele>
        <time>2019-05-07T10:06:38Z</time>
      </trkpt>
      <trkpt lat="49.24385" lon="4.00657">
        <ele>143</ele>
        <time>2019-05-07T10:06:41Z</time>
      </trkpt>
      <trkpt lat="49.24401" lon="4.00636">
        <ele>142</ele>
        <time>2019-05-07T10:06:44Z</time>
      </trkpt>
      <trkpt lat="49.24417" lon="4.00612">
        <ele>141</ele>
        <time>2019-05-07T10:06:47Z</time>
      </trkpt>
      <trkpt lat="49.24432" lon="4.00586">
        <ele>140</ele>
        <time>2019-05-07T10:06:50Z</time>
      </trkpt>
      <trkpt lat="49.24446" lon="4.00561">
        <ele>139</ele>
        <time>2019-05-07T10:06:53Z</time>
      </trkpt>
      <trkpt lat="49.2446" lon="4.00535">
        <ele>139</ele>
        <time>2019-05-07T10:06:56Z</time>
      </trkpt>
      <trkpt lat="49.24477" lon="4.0051">
        <ele>139</ele>
        <time>2019-05-07T10:07:02Z</time>
      </trkpt>
      <trkpt lat="49.24493" lon="4.00492">
        <ele>137</ele>
        <time>2019-05-07T10:07:11Z</time>
      </trkpt>
      <trkpt lat="49.2448" lon="4.00463">
        <ele>137</ele>
        <time>2019-05-07T10:07:20Z</time>
      </trkpt>
      <trkpt lat="49.2447" lon="4.00432">
        <ele>139</ele>
        <time>2019-05-07T10:07:26Z</time>
      </trkpt>
      <trkpt lat="49.24456" lon="4.00394">
        <ele>139</ele>
        <time>2019-05-07T10:07:32Z</time>
      </trkpt>
      <trkpt lat="49.24442" lon="4.00348">
        <ele>139</ele>
        <time>2019-05-07T10:07:38Z</time>
      </trkpt>
      <trkpt lat="49.24434" lon="4.00324">
        <ele>138</ele>
        <time>2019-05-07T10:07:41Z</time>
      </trkpt>
      <trkpt lat="49.24424" lon="4.00296">
        <ele>137</ele>
        <time>2019-05-07T10:07:44Z</time>
      </trkpt>
      <trkpt lat="49.24414" lon="4.00267">
        <ele>136</ele>
        <time>2019-05-07T10:07:47Z</time>
      </trkpt>
      <trkpt lat="49.24404" lon="4.00235">
        <ele>135</ele>
        <time>2019-05-07T10:07:50Z</time>
      </trkpt>
      <trkpt lat="49.24391" lon="4.00202">
        <ele>133</ele>
        <time>2019-05-07T10:07:53Z</time>
      </trkpt>
      <trkpt lat="49.24377" lon="4.00165">
        <ele>131</ele>
        <time>2019-05-07T10:07:56Z</time>
      </trkpt>
      <trkpt lat="49.24363" lon="4.00128">
        <ele>131</ele>
        <time>2019-05-07T10:07:59Z</time>
      </trkpt>
      <trkpt lat="49.2435" lon="4.0009">
        <ele>130</ele>
        <time>2019-05-07T10:08:02Z</time>
      </trkpt>
      <trkpt lat="49.24334" lon="4.00055">
        <ele>129</ele>
        <time>2019-05-07T10:08:05Z</time>
      </trkpt>
      <trkpt lat="49.24317" lon="4.00019">
        <ele>129</ele>
        <time>2019-05-07T10:08:08Z</time>
      </trkpt>
      <trkpt lat="49.24298" lon="3.99987">
        <ele>127</ele>
        <time>2019-05-07T10:08:11Z</time>
      </trkpt>
      <trkpt lat="49.2428" lon="3.99958">
        <ele>126</ele>
        <time>2019-05-07T10:08:14Z</time>
      </trkpt>
      <trkpt lat="49.24262" lon="3.99933">
        <ele>125</ele>
        <time>2019-05-07T10:08:17Z</time>
      </trkpt>
      <trkpt lat="49.24247" lon="3.9991">
        <ele>125</ele>
        <time>2019-05-07T10:08:20Z</time>
      </trkpt>
      <trkpt lat="49.24219" lon="3.99873">
        <ele>125</ele>
        <time>2019-05-07T10:08:26Z</time>
      </trkpt>
      <trkpt lat="49.24203" lon="3.99858">
        <ele>124</ele>
        <time>2019-05-07T10:08:29Z</time>
      </trkpt>
      <trkpt lat="49.24187" lon="3.99844">
        <ele>123</ele>
        <time>2019-05-07T10:08:32Z</time>
      </trkpt>
      <trkpt lat="49.24157" lon="3.99819">
        <ele>123</ele>
        <time>2019-05-07T10:08:38Z</time>
      </trkpt>
      <trkpt lat="49.24129" lon="3.99794">
        <ele>124</ele>
        <time>2019-05-07T10:08:44Z</time>
      </trkpt>
      <trkpt lat="49.24103" lon="3.9977">
        <ele>125</ele>
        <time>2019-05-07T10:08:50Z</time>
      </trkpt>
      <trkpt lat="49.24078" lon="3.99747">
        <ele>126</ele>
        <time>2019-05-07T10:08:56Z</time>
      </trkpt>
      <trkpt lat="49.24054" lon="3.99725">
        <ele>126</ele>
        <time>2019-05-07T10:09:02Z</time>
      </trkpt>
      <trkpt lat="49.2403" lon="3.99705">
        <ele>127</ele>
        <time>2019-05-07T10:09:08Z</time>
      </trkpt>
      <trkpt lat="49.24005" lon="3.99688">
        <ele>126</ele>
        <time>2019-05-07T10:09:14Z</time>
      </trkpt>
      <trkpt lat="49.23979" lon="3.99672">
        <ele>126</ele>
        <time>2019-05-07T10:09:20Z</time>
      </trkpt>
      <trkpt lat="49.23956" lon="3.99656">
        <ele>127</ele>
        <time>2019-05-07T10:09:26Z</time>
      </trkpt>
      <trkpt lat="49.23945" lon="3.99626">
        <ele>128</ele>
        <time>2019-05-07T10:09:32Z</time>
      </trkpt>
      <trkpt lat="49.23935" lon="3.99594">
        <ele>130</ele>
        <time>2019-05-07T10:09:38Z</time>
      </trkpt>
      <trkpt lat="49.23939" lon="3.99554">
        <ele>128</ele>
        <time>2019-05-07T10:09:44Z</time>
      </trkpt>
      <trkpt lat="49.23958" lon="3.9951">
        <ele>128</ele>
        <time>2019-05-07T10:09:50Z</time>
      </trkpt>
      <trkpt lat="49.23977" lon="3.99467">
        <ele>128</ele>
        <time>2019-05-07T10:09:56Z</time>
      </trkpt>
      <trkpt lat="49.23995" lon="3.99429">
        <ele>128</ele>
        <time>2019-05-07T10:10:02Z</time>
      </trkpt>
      <trkpt lat="49.24011" lon="3.99393">
        <ele>129</ele>
        <time>2019-05-07T10:10:08Z</time>
      </trkpt>
      <trkpt lat="49.24028" lon="3.99359">
        <ele>129</ele>
        <time>2019-05-07T10:10:14Z</time>
      </trkpt>
      <trkpt lat="49.24043" lon="3.99325">
        <ele>131</ele>
        <time>2019-05-07T10:10:20Z</time>
      </trkpt>
      <trkpt lat="49.24058" lon="3.99292">
        <ele>132</ele>
        <time>2019-05-07T10:10:26Z</time>
      </trkpt>
      <trkpt lat="49.24073" lon="3.9926">
        <ele>133</ele>
        <time>2019-05-07T10:10:32Z</time>
      </trkpt>
      <trkpt lat="49.24086" lon="3.9923">
        <ele>134</ele>
        <time>2019-05-07T10:10:38Z</time>
      </trkpt>
      <trkpt lat="49.24099" lon="3.99203">
        <ele>135</ele>
        <time>2019-05-07T10:10:44Z</time>
      </trkpt>
      <trkpt lat="49.24115" lon="3.99185">
        <ele>136</ele>
        <time>2019-05-07T10:10:50Z</time>
      </trkpt>
      <trkpt lat="49.24132" lon="3.99194">
        <ele>137</ele>
        <time>2019-05-07T10:10:56Z</time>
      </trkpt>
      <trkpt lat="49.24146" lon="3.99213">
        <ele>138</ele>
        <time>2019-05-07T10:11:02Z</time>
      </trkpt>
      <trkpt lat="49.24165" lon="3.99233">
        <ele>137</ele>
        <time>2019-05-07T10:11:11Z</time>
      </trkpt>
      <trkpt lat="49.24194" lon="3.99232">
        <ele>137</ele>
        <time>2019-05-07T10:11:17Z</time>
      </trkpt>
      <trkpt lat="49.24205" lon="3.99184">
        <ele>138</ele>
        <time>2019-05-07T10:11:23Z</time>
      </trkpt>
      <trkpt lat="49.24225" lon="3.99141">
        <ele>138</ele>
        <time>2019-05-07T10:11:29Z</time>
      </trkpt>
      <trkpt lat="49.24241" lon="3.99094">
        <ele>140</ele>
        <time>2019-05-07T10:11:35Z</time>
      </trkpt>
      <trkpt lat="49.24257" lon="3.99059">
        <ele>141</ele>
        <time>2019-05-07T10:11:41Z</time>
      </trkpt>
      <trkpt lat="49.24265" lon="3.99031">
        <ele>142</ele>
        <time>2019-05-07T10:11:47Z</time>
      </trkpt>
      <trkpt lat="49.24277" lon="3.98996">
        <ele>141</ele>
        <time>2019-05-07T10:11:53Z</time>
      </trkpt>
      <trkpt lat="49.24292" lon="3.98959">
        <ele>141</ele>
        <time>2019-05-07T10:11:59Z</time>
      </trkpt>
      <trkpt lat="49.24309" lon="3.98926">
        <ele>142</ele>
        <time>2019-05-07T10:12:05Z</time>
      </trkpt>
      <trkpt lat="49.24329" lon="3.98888">
        <ele>143</ele>
        <time>2019-05-07T10:12:11Z</time>
      </trkpt>
      <trkpt lat="49.2435" lon="3.98849">
        <ele>143</ele>
        <time>2019-05-07T10:12:17Z</time>
      </trkpt>
      <trkpt lat="49.24371" lon="3.98807">
        <ele>143</ele>
        <time>2019-05-07T10:12:23Z</time>
      </trkpt>
      <trkpt lat="49.24383" lon="3.98785">
        <ele>143</ele>
        <time>2019-05-07T10:12:26Z</time>
      </trkpt>
      <trkpt lat="49.24396" lon="3.9876">
        <ele>143</ele>
        <time>2019-05-07T10:12:29Z</time>
      </trkpt>
      <trkpt lat="49.2441" lon="3.98734">
        <ele>142</ele>
        <time>2019-05-07T10:12:32Z</time>
      </trkpt>
      <trkpt lat="49.24423" lon="3.9871">
        <ele>143</ele>
        <time>2019-05-07T10:12:35Z</time>
      </trkpt>
      <trkpt lat="49.24436" lon="3.98684">
        <ele>142</ele>
        <time>2019-05-07T10:12:38Z</time>
      </trkpt>
      <trkpt lat="49.2445" lon="3.98658">
        <ele>142</ele>
        <time>2019-05-07T10:12:41Z</time>
      </trkpt>
      <trkpt lat="49.24463" lon="3.98631">
        <ele>142</ele>
        <time>2019-05-07T10:12:44Z</time>
      </trkpt>
      <trkpt lat="49.24476" lon="3.98606">
        <ele>142</ele>
        <time>2019-05-07T10:12:47Z</time>
      </trkpt>
      <trkpt lat="49.24489" lon="3.98579">
        <ele>142</ele>
        <time>2019-05-07T10:12:50Z</time>
      </trkpt>
      <trkpt lat="49.24501" lon="3.98557">
        <ele>142</ele>
        <time>2019-05-07T10:12:53Z</time>
      </trkpt>
      <trkpt lat="49.24513" lon="3.98534">
        <ele>141</ele>
        <time>2019-05-07T10:12:56Z</time>
      </trkpt>
      <trkpt lat="49.24524" lon="3.98512">
        <ele>142</ele>
        <time>2019-05-07T10:12:59Z</time>
      </trkpt>
      <trkpt lat="49.24544" lon="3.98474">
        <ele>142</ele>
        <time>2019-05-07T10:13:05Z</time>
      </trkpt>
      <trkpt lat="49.24558" lon="3.98449">
        <ele>142</ele>
        <time>2019-05-07T10:13:11Z</time>
      </trkpt>
      <trkpt lat="49.2458" lon="3.98438">
        <ele>141</ele>
        <time>2019-05-07T10:13:17Z</time>
      </trkpt>
      <trkpt lat="49.24595" lon="3.98405">
        <ele>142</ele>
        <time>2019-05-07T10:13:23Z</time>
      </trkpt>
      <trkpt lat="49.246" lon="3.98354">
        <ele>142</ele>
        <time>2019-05-07T10:13:29Z</time>
      </trkpt>
      <trkpt lat="49.24606" lon="3.98326">
        <ele>142</ele>
        <time>2019-05-07T10:13:32Z</time>
      </trkpt>
      <trkpt lat="49.24613" lon="3.98299">
        <ele>141</ele>
        <time>2019-05-07T10:13:35Z</time>
      </trkpt>
      <trkpt lat="49.2463" lon="3.98252">
        <ele>140</ele>
        <time>2019-05-07T10:13:41Z</time>
      </trkpt>
      <trkpt lat="49.24643" lon="3.98212">
        <ele>139</ele>
        <time>2019-05-07T10:13:47Z</time>
      </trkpt>
      <trkpt lat="49.24659" lon="3.98163">
        <ele>138</ele>
        <time>2019-05-07T10:13:53Z</time>
      </trkpt>
      <trkpt lat="49.2467" lon="3.98134">
        <ele>138</ele>
        <time>2019-05-07T10:13:56Z</time>
      </trkpt>
      <trkpt lat="49.2468" lon="3.98105">
        <ele>138</ele>
        <time>2019-05-07T10:13:59Z</time>
      </trkpt>
      <trkpt lat="49.24689" lon="3.98076">
        <ele>138</ele>
        <time>2019-05-07T10:14:02Z</time>
      </trkpt>
      <trkpt lat="49.24704" lon="3.98031">
        <ele>138</ele>
        <time>2019-05-07T10:14:08Z</time>
      </trkpt>
      <trkpt lat="49.24712" lon="3.98006">
        <ele>138</ele>
        <time>2019-05-07T10:14:11Z</time>
      </trkpt>
      <trkpt lat="49.24719" lon="3.97977">
        <ele>140</ele>
        <time>2019-05-07T10:14:14Z</time>
      </trkpt>
      <trkpt lat="49.24729" lon="3.97951">
        <ele>140</ele>
        <time>2019-05-07T10:14:17Z</time>
      </trkpt>
      <trkpt lat="49.24739" lon="3.97926">
        <ele>141</ele>
        <time>2019-05-07T10:14:20Z</time>
      </trkpt>
      <trkpt lat="49.24746" lon="3.979">
        <ele>141</ele>
        <time>2019-05-07T10:14:23Z</time>
      </trkpt>
      <trkpt lat="49.24762" lon="3.97866">
        <ele>140</ele>
        <time>2019-05-07T10:14:32Z</time>
      </trkpt>
      <trkpt lat="49.24756" lon="3.97828">
        <ele>139</ele>
        <time>2019-05-07T10:14:38Z</time>
      </trkpt>
      <trkpt lat="49.24727" lon="3.9785">
        <ele>138</ele>
        <time>2019-05-07T10:14:44Z</time>
      </trkpt>
      <trkpt lat="49.2471" lon="3.97861">
        <ele>138</ele>
        <time>2019-05-07T10:14:47Z</time>
      </trkpt>
      <trkpt lat="49.24691" lon="3.97873">
        <ele>137</ele>
        <time>2019-05-07T10:14:50Z</time>
      </trkpt>
      <trkpt lat="49.24672" lon="3.97886">
        <ele>137</ele>
        <time>2019-05-07T10:14:53Z</time>
      </trkpt>
      <trkpt lat="49.24653" lon="3.97899">
        <ele>136</ele>
        <time>2019-05-07T10:14:56Z</time>
      </trkpt>
      <trkpt lat="49.24634" lon="3.97916">
        <ele>136</ele>
        <time>2019-05-07T10:14:59Z</time>
      </trkpt>
      <trkpt lat="49.24618" lon="3.97931">
        <ele>136</ele>
        <time>2019-05-07T10:15:02Z</time>
      </trkpt>
      <trkpt lat="49.24588" lon="3.97939">
        <ele>136</ele>
        <time>2019-05-07T10:15:08Z</time>
      </trkpt>
      <trkpt lat="49.2457" lon="3.97897">
        <ele>135</ele>
        <time>2019-05-07T10:15:14Z</time>
      </trkpt>
      <trkpt lat="49.24567" lon="3.97866">
        <ele>135</ele>
        <time>2019-05-07T10:15:17Z</time>
      </trkpt>
      <trkpt lat="49.24569" lon="3.97831">
        <ele>136</ele>
        <time>2019-05-07T10:15:20Z</time>
      </trkpt>
      <trkpt lat="49.24569" lon="3.97795">
        <ele>136</ele>
        <time>2019-05-07T10:15:23Z</time>
      </trkpt>
      <trkpt lat="49.24569" lon="3.97758">
        <ele>135</ele>
        <time>2019-05-07T10:15:26Z</time>
      </trkpt>
      <trkpt lat="49.24569" lon="3.97721">
        <ele>135</ele>
        <time>2019-05-07T10:15:29Z</time>
      </trkpt>
      <trkpt lat="49.24567" lon="3.97684">
        <ele>134</ele>
        <time>2019-05-07T10:15:32Z</time>
      </trkpt>
      <trkpt lat="49.24562" lon="3.97648">
        <ele>133</ele>
        <time>2019-05-07T10:15:35Z</time>
      </trkpt>
      <trkpt lat="49.24555" lon="3.97611">
        <ele>133</ele>
        <time>2019-05-07T10:15:38Z</time>
      </trkpt>
      <trkpt lat="49.24546" lon="3.97575">
        <ele>132</ele>
        <time>2019-05-07T10:15:41Z</time>
      </trkpt>
      <trkpt lat="49.24538" lon="3.97538">
        <ele>132</ele>
        <time>2019-05-07T10:15:44Z</time>
      </trkpt>
      <trkpt lat="49.2453" lon="3.97501">
        <ele>132</ele>
        <time>2019-05-07T10:15:47Z</time>
      </trkpt>
      <trkpt lat="49.24522" lon="3.97464">
        <ele>132</ele>
        <time>2019-05-07T10:15:50Z</time>
      </trkpt>
      <trkpt lat="49.24514" lon="3.97428">
        <ele>131</ele>
        <time>2019-05-07T10:15:53Z</time>
      </trkpt>
      <trkpt lat="49.24505" lon="3.97389">
        <ele>131</ele>
        <time>2019-05-07T10:15:56Z</time>
      </trkpt>
      <trkpt lat="49.24496" lon="3.97351">
        <ele>131</ele>
        <time>2019-05-07T10:15:59Z</time>
      </trkpt>
      <trkpt lat="49.24487" lon="3.97312">
        <ele>131</ele>
        <time>2019-05-07T10:16:02Z</time>
      </trkpt>
      <trkpt lat="49.24475" lon="3.97274">
        <ele>130</ele>
        <time>2019-05-07T10:16:05Z</time>
      </trkpt>
      <trkpt lat="49.24462" lon="3.97238">
        <ele>129</ele>
        <time>2019-05-07T10:16:08Z</time>
      </trkpt>
      <trkpt lat="49.24447" lon="3.97204">
        <ele>129</ele>
        <time>2019-05-07T10:16:11Z</time>
      </trkpt>
      <trkpt lat="49.24434" lon="3.97169">
        <ele>129</ele>
        <time>2019-05-07T10:16:14Z</time>
      </trkpt>
      <trkpt lat="49.2442" lon="3.97136">
        <ele>128</ele>
        <time>2019-05-07T10:16:17Z</time>
      </trkpt>
      <trkpt lat="49.24408" lon="3.97103">
        <ele>128</ele>
        <time>2019-05-07T10:16:20Z</time>
      </trkpt>
      <trkpt lat="49.24397" lon="3.97072">
        <ele>128</ele>
        <time>2019-05-07T10:16:23Z</time>
      </trkpt>
      <trkpt lat="49.24388" lon="3.97043">
        <ele>129</ele>
        <time>2019-05-07T10:16:26Z</time>
      </trkpt>
      <trkpt lat="49.2438" lon="3.97015">
        <ele>129</ele>
        <time>2019-05-07T10:16:29Z</time>
      </trkpt>
      <trkpt lat="49.24372" lon="3.96988">
        <ele>128</ele>
        <time>2019-05-07T10:16:32Z</time>
      </trkpt>
      <trkpt lat="49.24364" lon="3.96959">
        <ele>128</ele>
        <time>2019-05-07T10:16:35Z</time>
      </trkpt>
      <trkpt lat="49.24355" lon="3.96931">
        <ele>129</ele>
        <time>2019-05-07T10:16:38Z</time>
      </trkpt>
      <trkpt lat="49.24341" lon="3.96907">
        <ele>128</ele>
        <time>2019-05-07T10:16:41Z</time>
      </trkpt>
      <trkpt lat="49.24327" lon="3.96889">
        <ele>128</ele>
        <time>2019-05-07T10:16:44Z</time>
      </trkpt>
      <trkpt lat="49.24296" lon="3.96865">
        <ele>129</ele>
        <time>2019-05-07T10:16:50Z</time>
      </trkpt>
      <trkpt lat="49.24263" lon="3.9686">
        <ele>130</ele>
        <time>2019-05-07T10:16:56Z</time>
      </trkpt>
      <trkpt lat="49.24233" lon="3.96871">
        <ele>130</ele>
        <time>2019-05-07T10:17:02Z</time>
      </trkpt>
      <trkpt lat="49.24206" lon="3.96887">
        <ele>130</ele>
        <time>2019-05-07T10:17:08Z</time>
      </trkpt>
      <trkpt lat="49.2418" lon="3.96898">
        <ele>131</ele>
        <time>2019-05-07T10:17:14Z</time>
      </trkpt>
      <trkpt lat="49.24153" lon="3.96905">
        <ele>132</ele>
        <time>2019-05-07T10:17:20Z</time>
      </trkpt>
      <trkpt lat="49.24126" lon="3.96902">
        <ele>134</ele>
        <time>2019-05-07T10:17:26Z</time>
      </trkpt>
      <trkpt lat="49.24101" lon="3.9689">
        <ele>136</ele>
        <time>2019-05-07T10:17:32Z</time>
      </trkpt>
      <trkpt lat="49.24077" lon="3.96869">
        <ele>137</ele>
        <time>2019-05-07T10:17:38Z</time>
      </trkpt>
      <trkpt lat="49.24057" lon="3.96842">
        <ele>137</ele>
        <time>2019-05-07T10:17:44Z</time>
      </trkpt>
      <trkpt lat="49.24043" lon="3.96812">
        <ele>138</ele>
        <time>2019-05-07T10:17:50Z</time>
      </trkpt>
      <trkpt lat="49.24033" lon="3.96782">
        <ele>138</ele>
        <time>2019-05-07T10:17:56Z</time>
      </trkpt>
      <trkpt lat="49.24027" lon="3.9675">
        <ele>138</ele>
        <time>2019-05-07T10:18:02Z</time>
      </trkpt>
      <trkpt lat="49.24018" lon="3.9671">
        <ele>139</ele>
        <time>2019-05-07T10:18:08Z</time>
      </trkpt>
      <trkpt lat="49.23999" lon="3.96662">
        <ele>137</ele>
        <time>2019-05-07T10:18:14Z</time>
      </trkpt>
      <trkpt lat="49.23985" lon="3.96635">
        <ele>137</ele>
        <time>2019-05-07T10:18:17Z</time>
      </trkpt>
      <trkpt lat="49.23968" lon="3.96607">
        <ele>135</ele>
        <time>2019-05-07T10:18:20Z</time>
      </trkpt>
      <trkpt lat="49.2395" lon="3.96577">
        <ele>134</ele>
        <time>2019-05-07T10:18:23Z</time>
      </trkpt>
      <trkpt lat="49.23933" lon="3.96547">
        <ele>134</ele>
        <time>2019-05-07T10:18:26Z</time>
      </trkpt>
      <trkpt lat="49.23916" lon="3.96517">
        <ele>133</ele>
        <time>2019-05-07T10:18:29Z</time>
      </trkpt>
      <trkpt lat="49.239" lon="3.9649">
        <ele>133</ele>
        <time>2019-05-07T10:18:32Z</time>
      </trkpt>
      <trkpt lat="49.23885" lon="3.96465">
        <ele>133</ele>
        <time>2019-05-07T10:18:35Z</time>
      </trkpt>
      <trkpt lat="49.23871" lon="3.96441">
        <ele>133</ele>
        <time>2019-05-07T10:18:38Z</time>
      </trkpt>
      <trkpt lat="49.23858" lon="3.96418">
        <ele>133</ele>
        <time>2019-05-07T10:18:41Z</time>
      </trkpt>
      <trkpt lat="49.23844" lon="3.96396">
        <ele>133</ele>
        <time>2019-05-07T10:18:44Z</time>
      </trkpt>
      <trkpt lat="49.23831" lon="3.96374">
        <ele>133</ele>
        <time>2019-05-07T10:18:47Z</time>
      </trkpt>
      <trkpt lat="49.23819" lon="3.96353">
        <ele>133</ele>
        <time>2019-05-07T10:18:50Z</time>
      </trkpt>
      <trkpt lat="49.23807" lon="3.96331">
        <ele>133</ele>
        <time>2019-05-07T10:18:53Z</time>
      </trkpt>
      <trkpt lat="49.23788" lon="3.9629">
        <ele>134</ele>
        <time>2019-05-07T10:18:59Z</time>
      </trkpt>
      <trkpt lat="49.23773" lon="3.96257">
        <ele>135</ele>
        <time>2019-05-07T10:19:05Z</time>
      </trkpt>
      <trkpt lat="49.23762" lon="3.96234">
        <ele>135</ele>
        <time>2019-05-07T10:19:11Z</time>
      </trkpt>
      <trkpt lat="49.23752" lon="3.96212">
        <ele>134</ele>
        <time>2019-05-07T10:19:20Z</time>
      </trkpt>
      <trkpt lat="49.2374" lon="3.96191">
        <ele>134</ele>
        <time>2019-05-07T10:19:26Z</time>
      </trkpt>
      <trkpt lat="49.23722" lon="3.96164">
        <ele>133</ele>
        <time>2019-05-07T10:19:32Z</time>
      </trkpt>
      <trkpt lat="49.23706" lon="3.96132">
        <ele>133</ele>
        <time>2019-05-07T10:19:38Z</time>
      </trkpt>
      <trkpt lat="49.23694" lon="3.96107">
        <ele>134</ele>
        <time>2019-05-07T10:19:44Z</time>
      </trkpt>
      <trkpt lat="49.23678" lon="3.96077">
        <ele>134</ele>
        <time>2019-05-07T10:19:53Z</time>
      </trkpt>
      <trkpt lat="49.23661" lon="3.9605">
        <ele>134</ele>
        <time>2019-05-07T10:19:59Z</time>
      </trkpt>
      <trkpt lat="49.23639" lon="3.96019">
        <ele>134</ele>
        <time>2019-05-07T10:20:05Z</time>
      </trkpt>
      <trkpt lat="49.23617" lon="3.95981">
        <ele>134</ele>
        <time>2019-05-07T10:20:11Z</time>
      </trkpt>
      <trkpt lat="49.23599" lon="3.95945">
        <ele>134</ele>
        <time>2019-05-07T10:20:17Z</time>
      </trkpt>
      <trkpt lat="49.23583" lon="3.95913">
        <ele>134</ele>
        <time>2019-05-07T10:20:23Z</time>
      </trkpt>
      <trkpt lat="49.23569" lon="3.95893">
        <ele>134</ele>
        <time>2019-05-07T10:20:29Z</time>
      </trkpt>
      <trkpt lat="49.23597" lon="3.9587">
        <ele>134</ele>
        <time>2019-05-07T10:20:38Z</time>
      </trkpt>
      <trkpt lat="49.23625" lon="3.95845">
        <ele>134</ele>
        <time>2019-05-07T10:20:44Z</time>
      </trkpt>
      <trkpt lat="49.23652" lon="3.95825">
        <ele>136</ele>
        <time>2019-05-07T10:20:50Z</time>
      </trkpt>
      <trkpt lat="49.23678" lon="3.95807">
        <ele>137</ele>
        <time>2019-05-07T10:20:56Z</time>
      </trkpt>
      <trkpt lat="49.23699" lon="3.95797">
        <ele>137</ele>
        <time>2019-05-07T10:21:02Z</time>
      </trkpt>
      <trkpt lat="49.23727" lon="3.95779">
        <ele>138</ele>
        <time>2019-05-07T10:21:08Z</time>
      </trkpt>
      <trkpt lat="49.23753" lon="3.95765">
        <ele>140</ele>
        <time>2019-05-07T10:21:14Z</time>
      </trkpt>
      <trkpt lat="49.23779" lon="3.95745">
        <ele>140</ele>
        <time>2019-05-07T10:21:20Z</time>
      </trkpt>
      <trkpt lat="49.23799" lon="3.95709">
        <ele>141</ele>
        <time>2019-05-07T10:21:26Z</time>
      </trkpt>
      <trkpt lat="49.23816" lon="3.95673">
        <ele>140</ele>
        <time>2019-05-07T10:21:32Z</time>
      </trkpt>
      <trkpt lat="49.23834" lon="3.95634">
        <ele>140</ele>
        <time>2019-05-07T10:21:38Z</time>
      </trkpt>
      <trkpt lat="49.23849" lon="3.95592">
        <ele>141</ele>
        <time>2019-05-07T10:21:44Z</time>
      </trkpt>
      <trkpt lat="49.23863" lon="3.95549">
        <ele>141</ele>
        <time>2019-05-07T10:21:50Z</time>
      </trkpt>
      <trkpt lat="49.23876" lon="3.95507">
        <ele>141</ele>
        <time>2019-05-07T10:21:56Z</time>
      </trkpt>
      <trkpt lat="49.23887" lon="3.95469">
        <ele>141</ele>
        <time>2019-05-07T10:22:02Z</time>
      </trkpt>
      <trkpt lat="49.2389" lon="3.95429">
        <ele>142</ele>
        <time>2019-05-07T10:22:08Z</time>
      </trkpt>
      <trkpt lat="49.2389" lon="3.95385">
        <ele>143</ele>
        <time>2019-05-07T10:22:14Z</time>
      </trkpt>
      <trkpt lat="49.23888" lon="3.95341">
        <ele>144</ele>
        <time>2019-05-07T10:22:20Z</time>
      </trkpt>
      <trkpt lat="49.23887" lon="3.953">
        <ele>144</ele>
        <time>2019-05-07T10:22:26Z</time>
      </trkpt>
      <trkpt lat="49.23886" lon="3.95259">
        <ele>145</ele>
        <time>2019-05-07T10:22:32Z</time>
      </trkpt>
      <trkpt lat="49.23884" lon="3.95214">
        <ele>146</ele>
        <time>2019-05-07T10:22:39Z</time>
      </trkpt>
      <trkpt lat="49.23883" lon="3.95173">
        <ele>147</ele>
        <time>2019-05-07T10:22:45Z</time>
      </trkpt>
      <trkpt lat="49.23881" lon="3.95131">
        <ele>148</ele>
        <time>2019-05-07T10:22:51Z</time>
      </trkpt>
      <trkpt lat="49.2388" lon="3.95088">
        <ele>148</ele>
        <time>2019-05-07T10:22:57Z</time>
      </trkpt>
      <trkpt lat="49.23879" lon="3.95041">
        <ele>148</ele>
        <time>2019-05-07T10:23:03Z</time>
      </trkpt>
      <trkpt lat="49.23878" lon="3.94991">
        <ele>147</ele>
        <time>2019-05-07T10:23:09Z</time>
      </trkpt>
      <trkpt lat="49.23876" lon="3.94937">
        <ele>147</ele>
        <time>2019-05-07T10:23:15Z</time>
      </trkpt>
      <trkpt lat="49.23874" lon="3.94883">
        <ele>148</ele>
        <time>2019-05-07T10:23:21Z</time>
      </trkpt>
      <trkpt lat="49.23873" lon="3.94855">
        <ele>148</ele>
        <time>2019-05-07T10:23:24Z</time>
      </trkpt>
      <trkpt lat="49.23872" lon="3.94803">
        <ele>148</ele>
        <time>2019-05-07T10:23:30Z</time>
      </trkpt>
      <trkpt lat="49.23871" lon="3.94752">
        <ele>148</ele>
        <time>2019-05-07T10:23:36Z</time>
      </trkpt>
      <trkpt lat="49.23872" lon="3.94704">
        <ele>149</ele>
        <time>2019-05-07T10:23:42Z</time>
      </trkpt>
      <trkpt lat="49.23871" lon="3.94657">
        <ele>150</ele>
        <time>2019-05-07T10:23:48Z</time>
      </trkpt>
      <trkpt lat="49.23871" lon="3.94613">
        <ele>151</ele>
        <time>2019-05-07T10:23:54Z</time>
      </trkpt>
      <trkpt lat="49.23871" lon="3.94569">
        <ele>152</ele>
        <time>2019-05-07T10:24:00Z</time>
      </trkpt>
      <trkpt lat="49.2387" lon="3.94525">
        <ele>153</ele>
        <time>2019-05-07T10:24:06Z</time>
      </trkpt>
      <trkpt lat="49.23869" lon="3.94481">
        <ele>152</ele>
        <time>2019-05-07T10:24:12Z</time>
      </trkpt>
      <trkpt lat="49.23867" lon="3.94435">
        <ele>153</ele>
        <time>2019-05-07T10:24:18Z</time>
      </trkpt>
      <trkpt lat="49.23863" lon="3.94392">
        <ele>154</ele>
        <time>2019-05-07T10:24:24Z</time>
      </trkpt>
      <trkpt lat="49.23856" lon="3.94352">
        <ele>155</ele>
        <time>2019-05-07T10:24:30Z</time>
      </trkpt>
      <trkpt lat="49.23848" lon="3.94314">
        <ele>156</ele>
        <time>2019-05-07T10:24:36Z</time>
      </trkpt>
      <trkpt lat="49.23839" lon="3.94281">
        <ele>156</ele>
        <time>2019-05-07T10:24:42Z</time>
      </trkpt>
      <trkpt lat="49.23831" lon="3.94246">
        <ele>156</ele>
        <time>2019-05-07T10:24:48Z</time>
      </trkpt>
      <trkpt lat="49.23823" lon="3.9421">
        <ele>157</ele>
        <time>2019-05-07T10:24:54Z</time>
      </trkpt>
      <trkpt lat="49.23815" lon="3.94176">
        <ele>157</ele>
        <time>2019-05-07T10:25:00Z</time>
      </trkpt>
      <trkpt lat="49.23807" lon="3.94141">
        <ele>159</ele>
        <time>2019-05-07T10:25:06Z</time>
      </trkpt>
      <trkpt lat="49.238" lon="3.94108">
        <ele>159</ele>
        <time>2019-05-07T10:25:12Z</time>
      </trkpt>
      <trkpt lat="49.23793" lon="3.94076">
        <ele>160</ele>
        <time>2019-05-07T10:25:18Z</time>
      </trkpt>
      <trkpt lat="49.23786" lon="3.94042">
        <ele>159</ele>
        <time>2019-05-07T10:25:24Z</time>
      </trkpt>
      <trkpt lat="49.2378" lon="3.94002">
        <ele>159</ele>
        <time>2019-05-07T10:25:30Z</time>
      </trkpt>
      <trkpt lat="49.23775" lon="3.93956">
        <ele>158</ele>
        <time>2019-05-07T10:25:36Z</time>
      </trkpt>
      <trkpt lat="49.23772" lon="3.93903">
        <ele>158</ele>
        <time>2019-05-07T10:25:42Z</time>
      </trkpt>
      <trkpt lat="49.23767" lon="3.93855">
        <ele>158</ele>
        <time>2019-05-07T10:25:48Z</time>
      </trkpt>
      <trkpt lat="49.23752" lon="3.93809">
        <ele>158</ele>
        <time>2019-05-07T10:25:54Z</time>
      </trkpt>
      <trkpt lat="49.23734" lon="3.93771">
        <ele>158</ele>
        <time>2019-05-07T10:26:00Z</time>
      </trkpt>
      <trkpt lat="49.23714" lon="3.93735">
        <ele>158</ele>
        <time>2019-05-07T10:26:06Z</time>
      </trkpt>
      <trkpt lat="49.23693" lon="3.93695">
        <ele>158</ele>
        <time>2019-05-07T10:26:12Z</time>
      </trkpt>
      <trkpt lat="49.23682" lon="3.93671">
        <ele>157</ele>
        <time>2019-05-07T10:26:15Z</time>
      </trkpt>
      <trkpt lat="49.23675" lon="3.93641">
        <ele>156</ele>
        <time>2019-05-07T10:26:18Z</time>
      </trkpt>
      <trkpt lat="49.2367" lon="3.93604">
        <ele>154</ele>
        <time>2019-05-07T10:26:21Z</time>
      </trkpt>
      <trkpt lat="49.23667" lon="3.93563">
        <ele>152</ele>
        <time>2019-05-07T10:26:24Z</time>
      </trkpt>
      <trkpt lat="49.23664" lon="3.93517">
        <ele>150</ele>
        <time>2019-05-07T10:26:27Z</time>
      </trkpt>
      <trkpt lat="49.23657" lon="3.93467">
        <ele>148</ele>
        <time>2019-05-07T10:26:30Z</time>
      </trkpt>
      <trkpt lat="49.23648" lon="3.93419">
        <ele>148</ele>
        <time>2019-05-07T10:26:33Z</time>
      </trkpt>
      <trkpt lat="49.23637" lon="3.93374">
        <ele>148</ele>
        <time>2019-05-07T10:26:36Z</time>
      </trkpt>
      <trkpt lat="49.23625" lon="3.93331">
        <ele>148</ele>
        <time>2019-05-07T10:26:39Z</time>
      </trkpt>
      <trkpt lat="49.23614" lon="3.93287">
        <ele>147</ele>
        <time>2019-05-07T10:26:42Z</time>
      </trkpt>
      <trkpt lat="49.23603" lon="3.93245">
        <ele>148</ele>
        <time>2019-05-07T10:26:45Z</time>
      </trkpt>
      <trkpt lat="49.23593" lon="3.93204">
        <ele>148</ele>
        <time>2019-05-07T10:26:48Z</time>
      </trkpt>
      <trkpt lat="49.23584" lon="3.93164">
        <ele>149</ele>
        <time>2019-05-07T10:26:51Z</time>
      </trkpt>
      <trkpt lat="49.23577" lon="3.93123">
        <ele>149</ele>
        <time>2019-05-07T10:26:54Z</time>
      </trkpt>
      <trkpt lat="49.2357" lon="3.93084">
        <ele>150</ele>
        <time>2019-05-07T10:26:57Z</time>
      </trkpt>
      <trkpt lat="49.23563" lon="3.93047">
        <ele>150</ele>
        <time>2019-05-07T10:27:00Z</time>
      </trkpt>
      <trkpt lat="49.23556" lon="3.93012">
        <ele>150</ele>
        <time>2019-05-07T10:27:03Z</time>
      </trkpt>
      <trkpt lat="49.2355" lon="3.92977">
        <ele>151</ele>
        <time>2019-05-07T10:27:06Z</time>
      </trkpt>
      <trkpt lat="49.23544" lon="3.92945">
        <ele>151</ele>
        <time>2019-05-07T10:27:09Z</time>
      </trkpt>
      <trkpt lat="49.23538" lon="3.92915">
        <ele>151</ele>
        <time>2019-05-07T10:27:12Z</time>
      </trkpt>
      <trkpt lat="49.23532" lon="3.92885">
        <ele>151</ele>
        <time>2019-05-07T10:27:15Z</time>
      </trkpt>
      <trkpt lat="49.23527" lon="3.92855">
        <ele>152</ele>
        <time>2019-05-07T10:27:18Z</time>
      </trkpt>
      <trkpt lat="49.23522" lon="3.92826">
        <ele>152</ele>
        <time>2019-05-07T10:27:21Z</time>
      </trkpt>
      <trkpt lat="49.23519" lon="3.92795">
        <ele>152</ele>
        <time>2019-05-07T10:27:24Z</time>
      </trkpt>
      <trkpt lat="49.2352" lon="3.92765">
        <ele>152</ele>
        <time>2019-05-07T10:27:27Z</time>
      </trkpt>
      <trkpt lat="49.23524" lon="3.92735">
        <ele>152</ele>
        <time>2019-05-07T10:27:30Z</time>
      </trkpt>
      <trkpt lat="49.23532" lon="3.9271">
        <ele>151</ele>
        <time>2019-05-07T10:27:33Z</time>
      </trkpt>
      <trkpt lat="49.23547" lon="3.92661">
        <ele>152</ele>
        <time>2019-05-07T10:27:39Z</time>
      </trkpt>
      <trkpt lat="49.23558" lon="3.92608">
        <ele>152</ele>
        <time>2019-05-07T10:27:45Z</time>
      </trkpt>
      <trkpt lat="49.23559" lon="3.9258">
        <ele>152</ele>
        <time>2019-05-07T10:27:48Z</time>
      </trkpt>
      <trkpt lat="49.23558" lon="3.92552">
        <ele>152</ele>
        <time>2019-05-07T10:27:51Z</time>
      </trkpt>
      <trkpt lat="49.23556" lon="3.925">
        <ele>152</ele>
        <time>2019-05-07T10:27:57Z</time>
      </trkpt>
      <trkpt lat="49.23551" lon="3.9245">
        <ele>152</ele>
        <time>2019-05-07T10:28:03Z</time>
      </trkpt>
      <trkpt lat="49.23546" lon="3.92403">
        <ele>153</ele>
        <time>2019-05-07T10:28:09Z</time>
      </trkpt>
      <trkpt lat="49.23541" lon="3.92356">
        <ele>153</ele>
        <time>2019-05-07T10:28:15Z</time>
      </trkpt>
      <trkpt lat="49.23536" lon="3.92312">
        <ele>154</ele>
        <time>2019-05-07T10:28:21Z</time>
      </trkpt>
      <trkpt lat="49.23533" lon="3.92268">
        <ele>155</ele>
        <time>2019-05-07T10:28:27Z</time>
      </trkpt>
      <trkpt lat="49.23532" lon="3.92228">
        <ele>156</ele>
        <time>2019-05-07T10:28:33Z</time>
      </trkpt>
      <trkpt lat="49.23531" lon="3.92189">
        <ele>157</ele>
        <time>2019-05-07T10:28:39Z</time>
      </trkpt>
      <trkpt lat="49.23531" lon="3.92152">
        <ele>157</ele>
        <time>2019-05-07T10:28:45Z</time>
      </trkpt>
      <trkpt lat="49.2353" lon="3.92116">
        <ele>158</ele>
        <time>2019-05-07T10:28:51Z</time>
      </trkpt>
      <trkpt lat="49.23531" lon="3.9208">
        <ele>160</ele>
        <time>2019-05-07T10:28:57Z</time>
      </trkpt>
      <trkpt lat="49.23535" lon="3.92046">
        <ele>160</ele>
        <time>2019-05-07T10:29:03Z</time>
      </trkpt>
      <trkpt lat="49.23542" lon="3.9201">
        <ele>161</ele>
        <time>2019-05-07T10:29:09Z</time>
      </trkpt>
      <trkpt lat="49.23552" lon="3.91972">
        <ele>160</ele>
        <time>2019-05-07T10:29:15Z</time>
      </trkpt>
      <trkpt lat="49.23556" lon="3.91932">
        <ele>159</ele>
        <time>2019-05-07T10:29:21Z</time>
      </trkpt>
      <trkpt lat="49.23546" lon="3.9189">
        <ele>159</ele>
        <time>2019-05-07T10:29:27Z</time>
      </trkpt>
      <trkpt lat="49.23533" lon="3.91849">
        <ele>159</ele>
        <time>2019-05-07T10:29:33Z</time>
      </trkpt>
      <trkpt lat="49.23521" lon="3.91809">
        <ele>160</ele>
        <time>2019-05-07T10:29:39Z</time>
      </trkpt>
      <trkpt lat="49.23509" lon="3.91771">
        <ele>160</ele>
        <time>2019-05-07T10:29:45Z</time>
      </trkpt>
      <trkpt lat="49.23498" lon="3.91732">
        <ele>161</ele>
        <time>2019-05-07T10:29:51Z</time>
      </trkpt>
      <trkpt lat="49.23486" lon="3.91693">
        <ele>161</ele>
        <time>2019-05-07T10:29:57Z</time>
      </trkpt>
      <trkpt lat="49.23475" lon="3.91652">
        <ele>161</ele>
        <time>2019-05-07T10:30:03Z</time>
      </trkpt>
      <trkpt lat="49.23469" lon="3.91612">
        <ele>162</ele>
        <time>2019-05-07T10:30:09Z</time>
      </trkpt>
      <trkpt lat="49.23471" lon="3.91575">
        <ele>164</ele>
        <time>2019-05-07T10:30:15Z</time>
      </trkpt>
      <trkpt lat="49.23472" lon="3.91537">
        <ele>164</ele>
        <time>2019-05-07T10:30:21Z</time>
      </trkpt>
      <trkpt lat="49.23471" lon="3.915">
        <ele>165</ele>
        <time>2019-05-07T10:30:27Z</time>
      </trkpt>
      <trkpt lat="49.23475" lon="3.91472">
        <ele>165</ele>
        <time>2019-05-07T10:30:33Z</time>
      </trkpt>
      <trkpt lat="49.23497" lon="3.91457">
        <ele>166</ele>
        <time>2019-05-07T10:30:39Z</time>
      </trkpt>
      <trkpt lat="49.23521" lon="3.91443">
        <ele>168</ele>
        <time>2019-05-07T10:30:45Z</time>
      </trkpt>
      <trkpt lat="49.23544" lon="3.9142">
        <ele>168</ele>
        <time>2019-05-07T10:30:51Z</time>
      </trkpt>
      <trkpt lat="49.23565" lon="3.9139">
        <ele>168</ele>
        <time>2019-05-07T10:30:57Z</time>
      </trkpt>
      <trkpt lat="49.23586" lon="3.91357">
        <ele>170</ele>
        <time>2019-05-07T10:31:03Z</time>
      </trkpt>
      <trkpt lat="49.23607" lon="3.91331">
        <ele>171</ele>
        <time>2019-05-07T10:31:09Z</time>
      </trkpt>
      <trkpt lat="49.23637" lon="3.91324">
        <ele>169</ele>
        <time>2019-05-07T10:31:15Z</time>
      </trkpt>
      <trkpt lat="49.23669" lon="3.91327">
        <ele>167</ele>
        <time>2019-05-07T10:31:21Z</time>
      </trkpt>
      <trkpt lat="49.23687" lon="3.91328">
        <ele>166</ele>
        <time>2019-05-07T10:31:24Z</time>
      </trkpt>
      <trkpt lat="49.23705" lon="3.91328">
        <ele>165</ele>
        <time>2019-05-07T10:31:27Z</time>
      </trkpt>
      <trkpt lat="49.23724" lon="3.91329">
        <ele>164</ele>
        <time>2019-05-07T10:31:30Z</time>
      </trkpt>
      <trkpt lat="49.23743" lon="3.9133">
        <ele>164</ele>
        <time>2019-05-07T10:31:33Z</time>
      </trkpt>
      <trkpt lat="49.23764" lon="3.91331">
        <ele>163</ele>
        <time>2019-05-07T10:31:36Z</time>
      </trkpt>
      <trkpt lat="49.23785" lon="3.91332">
        <ele>162</ele>
        <time>2019-05-07T10:31:39Z</time>
      </trkpt>
      <trkpt lat="49.23807" lon="3.91333">
        <ele>161</ele>
        <time>2019-05-07T10:31:42Z</time>
      </trkpt>
      <trkpt lat="49.23831" lon="3.91331">
        <ele>161</ele>
        <time>2019-05-07T10:31:45Z</time>
      </trkpt>
      <trkpt lat="49.23856" lon="3.91333">
        <ele>159</ele>
        <time>2019-05-07T10:31:48Z</time>
      </trkpt>
      <trkpt lat="49.23881" lon="3.91333">
        <ele>158</ele>
        <time>2019-05-07T10:31:51Z</time>
      </trkpt>
      <trkpt lat="49.23908" lon="3.91333">
        <ele>157</ele>
        <time>2019-05-07T10:31:54Z</time>
      </trkpt>
      <trkpt lat="49.23936" lon="3.91335">
        <ele>155</ele>
        <time>2019-05-07T10:31:57Z</time>
      </trkpt>
      <trkpt lat="49.23966" lon="3.91336">
        <ele>154</ele>
        <time>2019-05-07T10:32:00Z</time>
      </trkpt>
      <trkpt lat="49.23999" lon="3.91346">
        <ele>154</ele>
        <time>2019-05-07T10:32:03Z</time>
      </trkpt>
      <trkpt lat="49.24029" lon="3.91362">
        <ele>156</ele>
        <time>2019-05-07T10:32:06Z</time>
      </trkpt>
      <trkpt lat="49.24057" lon="3.91377">
        <ele>157</ele>
        <time>2019-05-07T10:32:09Z</time>
      </trkpt>
      <trkpt lat="49.24085" lon="3.91385">
        <ele>157</ele>
        <time>2019-05-07T10:32:12Z</time>
      </trkpt>
      <trkpt lat="49.24111" lon="3.91382">
        <ele>158</ele>
        <time>2019-05-07T10:32:15Z</time>
      </trkpt>
      <trkpt lat="49.24135" lon="3.9137">
        <ele>157</ele>
        <time>2019-05-07T10:32:18Z</time>
      </trkpt>
      <trkpt lat="49.24158" lon="3.91358">
        <ele>156</ele>
        <time>2019-05-07T10:32:21Z</time>
      </trkpt>
      <trkpt lat="49.2418" lon="3.91346">
        <ele>156</ele>
        <time>2019-05-07T10:32:24Z</time>
      </trkpt>
      <trkpt lat="49.24206" lon="3.91334">
        <ele>154</ele>
        <time>2019-05-07T10:32:27Z</time>
      </trkpt>
      <trkpt lat="49.24233" lon="3.91317">
        <ele>152</ele>
        <time>2019-05-07T10:32:30Z</time>
      </trkpt>
      <trkpt lat="49.24259" lon="3.91296">
        <ele>151</ele>
        <time>2019-05-07T10:32:33Z</time>
      </trkpt>
      <trkpt lat="49.24285" lon="3.91278">
        <ele>150</ele>
        <time>2019-05-07T10:32:36Z</time>
      </trkpt>
      <trkpt lat="49.24309" lon="3.9126">
        <ele>150</ele>
        <time>2019-05-07T10:32:39Z</time>
      </trkpt>
      <trkpt lat="49.24331" lon="3.91241">
        <ele>150</ele>
        <time>2019-05-07T10:32:42Z</time>
      </trkpt>
      <trkpt lat="49.24358" lon="3.91214">
        <ele>148</ele>
        <time>2019-05-07T10:32:48Z</time>
      </trkpt>
      <trkpt lat="49.2438" lon="3.91184">
        <ele>147</ele>
        <time>2019-05-07T10:32:54Z</time>
      </trkpt>
      <trkpt lat="49.24405" lon="3.91188">
        <ele>146</ele>
        <time>2019-05-07T10:33:00Z</time>
      </trkpt>
      <trkpt lat="49.24413" lon="3.91238">
        <ele>145</ele>
        <time>2019-05-07T10:33:06Z</time>
      </trkpt>
      <trkpt lat="49.24418" lon="3.91267">
        <ele>145</ele>
        <time>2019-05-07T10:33:09Z</time>
      </trkpt>
      <trkpt lat="49.24425" lon="3.91299">
        <ele>144</ele>
        <time>2019-05-07T10:33:12Z</time>
      </trkpt>
      <trkpt lat="49.24435" lon="3.9133">
        <ele>143</ele>
        <time>2019-05-07T10:33:15Z</time>
      </trkpt>
      <trkpt lat="49.24446" lon="3.91358">
        <ele>143</ele>
        <time>2019-05-07T10:33:18Z</time>
      </trkpt>
      <trkpt lat="49.24457" lon="3.91384">
        <ele>143</ele>
        <time>2019-05-07T10:33:21Z</time>
      </trkpt>
      <trkpt lat="49.24468" lon="3.91409">
        <ele>142</ele>
        <time>2019-05-07T10:33:24Z</time>
      </trkpt>
      <trkpt lat="49.24478" lon="3.91432">
        <ele>141</ele>
        <time>2019-05-07T10:33:27Z</time>
      </trkpt>
      <trkpt lat="49.2449" lon="3.91457">
        <ele>141</ele>
        <time>2019-05-07T10:33:30Z</time>
      </trkpt>
      <trkpt lat="49.24502" lon="3.91481">
        <ele>141</ele>
        <time>2019-05-07T10:33:33Z</time>
      </trkpt>
      <trkpt lat="49.24514" lon="3.91503">
        <ele>140</ele>
        <time>2019-05-07T10:33:36Z</time>
      </trkpt>
      <trkpt lat="49.24527" lon="3.91524">
        <ele>140</ele>
        <time>2019-05-07T10:33:39Z</time>
      </trkpt>
      <trkpt lat="49.2454" lon="3.91544">
        <ele>140</ele>
        <time>2019-05-07T10:33:42Z</time>
      </trkpt>
      <trkpt lat="49.24552" lon="3.91565">
        <ele>140</ele>
        <time>2019-05-07T10:33:45Z</time>
      </trkpt>
      <trkpt lat="49.24565" lon="3.91586">
        <ele>140</ele>
        <time>2019-05-07T10:33:48Z</time>
      </trkpt>
      <trkpt lat="49.24578" lon="3.91607">
        <ele>140</ele>
        <time>2019-05-07T10:33:51Z</time>
      </trkpt>
      <trkpt lat="49.24591" lon="3.91627">
        <ele>140</ele>
        <time>2019-05-07T10:33:54Z</time>
      </trkpt>
      <trkpt lat="49.24604" lon="3.91647">
        <ele>139</ele>
        <time>2019-05-07T10:33:57Z</time>
      </trkpt>
      <trkpt lat="49.24625" lon="3.91683">
        <ele>138</ele>
        <time>2019-05-07T10:34:03Z</time>
      </trkpt>
      <trkpt lat="49.24644" lon="3.91718">
        <ele>138</ele>
        <time>2019-05-07T10:34:09Z</time>
      </trkpt>
      <trkpt lat="49.24658" lon="3.91738">
        <ele>138</ele>
        <time>2019-05-07T10:34:12Z</time>
      </trkpt>
      <trkpt lat="49.2467" lon="3.91763">
        <ele>138</ele>
        <time>2019-05-07T10:34:15Z</time>
      </trkpt>
      <trkpt lat="49.24682" lon="3.91788">
        <ele>138</ele>
        <time>2019-05-07T10:34:18Z</time>
      </trkpt>
      <trkpt lat="49.24695" lon="3.91811">
        <ele>138</ele>
        <time>2019-05-07T10:34:21Z</time>
      </trkpt>
      <trkpt lat="49.24707" lon="3.91834">
        <ele>138</ele>
        <time>2019-05-07T10:34:24Z</time>
      </trkpt>
      <trkpt lat="49.24719" lon="3.91856">
        <ele>138</ele>
        <time>2019-05-07T10:34:27Z</time>
      </trkpt>
      <trkpt lat="49.24731" lon="3.91877">
        <ele>137</ele>
        <time>2019-05-07T10:34:30Z</time>
      </trkpt>
      <trkpt lat="49.24753" lon="3.9192">
        <ele>137</ele>
        <time>2019-05-07T10:34:36Z</time>
      </trkpt>
      <trkpt lat="49.24773" lon="3.91963">
        <ele>137</ele>
        <time>2019-05-07T10:34:42Z</time>
      </trkpt>
      <trkpt lat="49.24791" lon="3.92004">
        <ele>137</ele>
        <time>2019-05-07T10:34:48Z</time>
      </trkpt>
      <trkpt lat="49.24813" lon="3.92048">
        <ele>137</ele>
        <time>2019-05-07T10:34:54Z</time>
      </trkpt>
      <trkpt lat="49.24833" lon="3.92092">
        <ele>137</ele>
        <time>2019-05-07T10:35:00Z</time>
      </trkpt>
      <trkpt lat="49.24852" lon="3.92133">
        <ele>137</ele>
        <time>2019-05-07T10:35:06Z</time>
      </trkpt>
      <trkpt lat="49.24869" lon="3.92176">
        <ele>138</ele>
        <time>2019-05-07T10:35:12Z</time>
      </trkpt>
      <trkpt lat="49.2489" lon="3.9222">
        <ele>138</ele>
        <time>2019-05-07T10:35:18Z</time>
      </trkpt>
      <trkpt lat="49.24901" lon="3.92242">
        <ele>138</ele>
        <time>2019-05-07T10:35:21Z</time>
      </trkpt>
      <trkpt lat="49.24924" lon="3.92282">
        <ele>138</ele>
        <time>2019-05-07T10:35:27Z</time>
      </trkpt>
      <trkpt lat="49.24952" lon="3.92315">
        <ele>138</ele>
        <time>2019-05-07T10:35:33Z</time>
      </trkpt>
      <trkpt lat="49.24983" lon="3.92341">
        <ele>139</ele>
        <time>2019-05-07T10:35:39Z</time>
      </trkpt>
      <trkpt lat="49.25001" lon="3.92352">
        <ele>139</ele>
        <time>2019-05-07T10:35:42Z</time>
      </trkpt>
      <trkpt lat="49.25021" lon="3.92362">
        <ele>138</ele>
        <time>2019-05-07T10:35:45Z</time>
      </trkpt>
      <trkpt lat="49.25043" lon="3.92368">
        <ele>138</ele>
        <time>2019-05-07T10:35:48Z</time>
      </trkpt>
      <trkpt lat="49.25064" lon="3.9237">
        <ele>138</ele>
        <time>2019-05-07T10:35:51Z</time>
      </trkpt>
      <trkpt lat="49.25085" lon="3.9237">
        <ele>138</ele>
        <time>2019-05-07T10:35:54Z</time>
      </trkpt>
      <trkpt lat="49.25106" lon="3.92369">
        <ele>137</ele>
        <time>2019-05-07T10:35:57Z</time>
      </trkpt>
      <trkpt lat="49.25128" lon="3.92368">
        <ele>137</ele>
        <time>2019-05-07T10:36:00Z</time>
      </trkpt>
      <trkpt lat="49.2515" lon="3.92374">
        <ele>137</ele>
        <time>2019-05-07T10:36:03Z</time>
      </trkpt>
      <trkpt lat="49.25167" lon="3.92386">
        <ele>137</ele>
        <time>2019-05-07T10:36:06Z</time>
      </trkpt>
      <trkpt lat="49.25187" lon="3.92382">
        <ele>137</ele>
        <time>2019-05-07T10:36:09Z</time>
      </trkpt>
      <trkpt lat="49.25194" lon="3.92351">
        <ele>136</ele>
        <time>2019-05-07T10:36:12Z</time>
      </trkpt>
      <trkpt lat="49.25193" lon="3.92312">
        <ele>135</ele>
        <time>2019-05-07T10:36:15Z</time>
      </trkpt>
      <trkpt lat="49.25198" lon="3.92271">
        <ele>135</ele>
        <time>2019-05-07T10:36:18Z</time>
      </trkpt>
      <trkpt lat="49.252" lon="3.92231">
        <ele>134</ele>
        <time>2019-05-07T10:36:21Z</time>
      </trkpt>
      <trkpt lat="49.25201" lon="3.92193">
        <ele>134</ele>
        <time>2019-05-07T10:36:24Z</time>
      </trkpt>
      <trkpt lat="49.25202" lon="3.92156">
        <ele>133</ele>
        <time>2019-05-07T10:36:27Z</time>
      </trkpt>
      <trkpt lat="49.25206" lon="3.92122">
        <ele>133</ele>
        <time>2019-05-07T10:36:30Z</time>
      </trkpt>
      <trkpt lat="49.25209" lon="3.9209">
        <ele>133</ele>
        <time>2019-05-07T10:36:33Z</time>
      </trkpt>
      <trkpt lat="49.25213" lon="3.92058">
        <ele>133</ele>
        <time>2019-05-07T10:36:36Z</time>
      </trkpt>
      <trkpt lat="49.25218" lon="3.92026">
        <ele>133</ele>
        <time>2019-05-07T10:36:39Z</time>
      </trkpt>
      <trkpt lat="49.25224" lon="3.91996">
        <ele>133</ele>
        <time>2019-05-07T10:36:42Z</time>
      </trkpt>
      <trkpt lat="49.25231" lon="3.91967">
        <ele>133</ele>
        <time>2019-05-07T10:36:45Z</time>
      </trkpt>
      <trkpt lat="49.25238" lon="3.91938">
        <ele>132</ele>
        <time>2019-05-07T10:36:48Z</time>
      </trkpt>
      <trkpt lat="49.25245" lon="3.91909">
        <ele>132</ele>
        <time>2019-05-07T10:36:51Z</time>
      </trkpt>
      <trkpt lat="49.25253" lon="3.91883">
        <ele>132</ele>
        <time>2019-05-07T10:36:54Z</time>
      </trkpt>
      <trkpt lat="49.25261" lon="3.91856">
        <ele>132</ele>
        <time>2019-05-07T10:36:57Z</time>
      </trkpt>
      <trkpt lat="49.25271" lon="3.9183">
        <ele>132</ele>
        <time>2019-05-07T10:37:00Z</time>
      </trkpt>
      <trkpt lat="49.25281" lon="3.91804">
        <ele>132</ele>
        <time>2019-05-07T10:37:03Z</time>
      </trkpt>
      <trkpt lat="49.25291" lon="3.91778">
        <ele>132</ele>
        <time>2019-05-07T10:37:06Z</time>
      </trkpt>
      <trkpt lat="49.25303" lon="3.91753">
        <ele>132</ele>
        <time>2019-05-07T10:37:09Z</time>
      </trkpt>
      <trkpt lat="49.25315" lon="3.91729">
        <ele>132</ele>
        <time>2019-05-07T10:37:12Z</time>
      </trkpt>
      <trkpt lat="49.25328" lon="3.91705">
        <ele>133</ele>
        <time>2019-05-07T10:37:15Z</time>
      </trkpt>
      <trkpt lat="49.25341" lon="3.91682">
        <ele>133</ele>
        <time>2019-05-07T10:37:18Z</time>
      </trkpt>
      <trkpt lat="49.25355" lon="3.91661">
        <ele>133</ele>
        <time>2019-05-07T10:37:21Z</time>
      </trkpt>
      <trkpt lat="49.25367" lon="3.9164">
        <ele>133</ele>
        <time>2019-05-07T10:37:24Z</time>
      </trkpt>
      <trkpt lat="49.2538" lon="3.91619">
        <ele>133</ele>
        <time>2019-05-07T10:37:27Z</time>
      </trkpt>
      <trkpt lat="49.25392" lon="3.91597">
        <ele>133</ele>
        <time>2019-05-07T10:37:30Z</time>
      </trkpt>
      <trkpt lat="49.25405" lon="3.91576">
        <ele>134</ele>
        <time>2019-05-07T10:37:33Z</time>
      </trkpt>
      <trkpt lat="49.25418" lon="3.91554">
        <ele>134</ele>
        <time>2019-05-07T10:37:36Z</time>
      </trkpt>
      <trkpt lat="49.2543" lon="3.91533">
        <ele>133</ele>
        <time>2019-05-07T10:37:39Z</time>
      </trkpt>
      <trkpt lat="49.25444" lon="3.91511">
        <ele>133</ele>
        <time>2019-05-07T10:37:42Z</time>
      </trkpt>
      <trkpt lat="49.25458" lon="3.9149">
        <ele>133</ele>
        <time>2019-05-07T10:37:45Z</time>
      </trkpt>
      <trkpt lat="49.25476" lon="3.91462">
        <ele>133</ele>
        <time>2019-05-07T10:37:49Z</time>
      </trkpt>
      <trkpt lat="49.25489" lon="3.91441">
        <ele>132</ele>
        <time>2019-05-07T10:37:52Z</time>
      </trkpt>
      <trkpt lat="49.25502" lon="3.91418">
        <ele>132</ele>
        <time>2019-05-07T10:37:55Z</time>
      </trkpt>
      <trkpt lat="49.25515" lon="3.91397">
        <ele>133</ele>
        <time>2019-05-07T10:37:58Z</time>
      </trkpt>
      <trkpt lat="49.25528" lon="3.91376">
        <ele>133</ele>
        <time>2019-05-07T10:38:01Z</time>
      </trkpt>
      <trkpt lat="49.2554" lon="3.91355">
        <ele>133</ele>
        <time>2019-05-07T10:38:04Z</time>
      </trkpt>
      <trkpt lat="49.25553" lon="3.91333">
        <ele>133</ele>
        <time>2019-05-07T10:38:07Z</time>
      </trkpt>
      <trkpt lat="49.25565" lon="3.91313">
        <ele>133</ele>
        <time>2019-05-07T10:38:10Z</time>
      </trkpt>
      <trkpt lat="49.25578" lon="3.91292">
        <ele>133</ele>
        <time>2019-05-07T10:38:13Z</time>
      </trkpt>
      <trkpt lat="49.2559" lon="3.91271">
        <ele>133</ele>
        <time>2019-05-07T10:38:16Z</time>
      </trkpt>
      <trkpt lat="49.25603" lon="3.91251">
        <ele>133</ele>
        <time>2019-05-07T10:38:19Z</time>
      </trkpt>
      <trkpt lat="49.25616" lon="3.9123">
        <ele>133</ele>
        <time>2019-05-07T10:38:22Z</time>
      </trkpt>
      <trkpt lat="49.2563" lon="3.91209">
        <ele>133</ele>
        <time>2019-05-07T10:38:25Z</time>
      </trkpt>
      <trkpt lat="49.25643" lon="3.91187">
        <ele>132</ele>
        <time>2019-05-07T10:38:28Z</time>
      </trkpt>
      <trkpt lat="49.25657" lon="3.91165">
        <ele>133</ele>
        <time>2019-05-07T10:38:31Z</time>
      </trkpt>
      <trkpt lat="49.2567" lon="3.91142">
        <ele>132</ele>
        <time>2019-05-07T10:38:34Z</time>
      </trkpt>
      <trkpt lat="49.25683" lon="3.91121">
        <ele>132</ele>
        <time>2019-05-07T10:38:37Z</time>
      </trkpt>
      <trkpt lat="49.25697" lon="3.91099">
        <ele>132</ele>
        <time>2019-05-07T10:38:40Z</time>
      </trkpt>
      <trkpt lat="49.2571" lon="3.91077">
        <ele>132</ele>
        <time>2019-05-07T10:38:43Z</time>
      </trkpt>
      <trkpt lat="49.25723" lon="3.91056">
        <ele>132</ele>
        <time>2019-05-07T10:38:46Z</time>
      </trkpt>
      <trkpt lat="49.25739" lon="3.91039">
        <ele>132</ele>
        <time>2019-05-07T10:38:49Z</time>
      </trkpt>
      <trkpt lat="49.25757" lon="3.91029">
        <ele>132</ele>
        <time>2019-05-07T10:38:52Z</time>
      </trkpt>
      <trkpt lat="49.25778" lon="3.91024">
        <ele>131</ele>
        <time>2019-05-07T10:38:55Z</time>
      </trkpt>
      <trkpt lat="49.25801" lon="3.91026">
        <ele>131</ele>
        <time>2019-05-07T10:38:58Z</time>
      </trkpt>
      <trkpt lat="49.25825" lon="3.91033">
        <ele>131</ele>
        <time>2019-05-07T10:39:01Z</time>
      </trkpt>
      <trkpt lat="49.25847" lon="3.91043">
        <ele>131</ele>
        <time>2019-05-07T10:39:04Z</time>
      </trkpt>
      <trkpt lat="49.25867" lon="3.91058">
        <ele>131</ele>
        <time>2019-05-07T10:39:07Z</time>
      </trkpt>
      <trkpt lat="49.25887" lon="3.91078">
        <ele>131</ele>
        <time>2019-05-07T10:39:10Z</time>
      </trkpt>
      <trkpt lat="49.25906" lon="3.91103">
        <ele>131</ele>
        <time>2019-05-07T10:39:13Z</time>
      </trkpt>
      <trkpt lat="49.25923" lon="3.91129">
        <ele>131</ele>
        <time>2019-05-07T10:39:16Z</time>
      </trkpt>
      <trkpt lat="49.25939" lon="3.91153">
        <ele>131</ele>
        <time>2019-05-07T10:39:19Z</time>
      </trkpt>
      <trkpt lat="49.25954" lon="3.91176">
        <ele>131</ele>
        <time>2019-05-07T10:39:22Z</time>
      </trkpt>
      <trkpt lat="49.25969" lon="3.91198">
        <ele>131</ele>
        <time>2019-05-07T10:39:25Z</time>
      </trkpt>
      <trkpt lat="49.25983" lon="3.9122">
        <ele>131</ele>
        <time>2019-05-07T10:39:28Z</time>
      </trkpt>
      <trkpt lat="49.25997" lon="3.91242">
        <ele>131</ele>
        <time>2019-05-07T10:39:31Z</time>
      </trkpt>
      <trkpt lat="49.26011" lon="3.91262">
        <ele>131</ele>
        <time>2019-05-07T10:39:34Z</time>
      </trkpt>
      <trkpt lat="49.26024" lon="3.91282">
        <ele>130</ele>
        <time>2019-05-07T10:39:37Z</time>
      </trkpt>
      <trkpt lat="49.26037" lon="3.91302">
        <ele>131</ele>
        <time>2019-05-07T10:39:40Z</time>
      </trkpt>
      <trkpt lat="49.2605" lon="3.91322">
        <ele>131</ele>
        <time>2019-05-07T10:39:43Z</time>
      </trkpt>
      <trkpt lat="49.26063" lon="3.91342">
        <ele>131</ele>
        <time>2019-05-07T10:39:46Z</time>
      </trkpt>
      <trkpt lat="49.26076" lon="3.91362">
        <ele>131</ele>
        <time>2019-05-07T10:39:49Z</time>
      </trkpt>
      <trkpt lat="49.26102" lon="3.914">
        <ele>132</ele>
        <time>2019-05-07T10:39:55Z</time>
      </trkpt>
      <trkpt lat="49.26125" lon="3.91436">
        <ele>133</ele>
        <time>2019-05-07T10:40:01Z</time>
      </trkpt>
      <trkpt lat="49.26147" lon="3.91468">
        <ele>133</ele>
        <time>2019-05-07T10:40:07Z</time>
      </trkpt>
      <trkpt lat="49.26168" lon="3.91497">
        <ele>135</ele>
        <time>2019-05-07T10:40:13Z</time>
      </trkpt>
      <trkpt lat="49.26186" lon="3.91525">
        <ele>135</ele>
        <time>2019-05-07T10:40:19Z</time>
      </trkpt>
      <trkpt lat="49.26204" lon="3.91554">
        <ele>136</ele>
        <time>2019-05-07T10:40:25Z</time>
      </trkpt>
      <trkpt lat="49.26223" lon="3.91582">
        <ele>137</ele>
        <time>2019-05-07T10:40:31Z</time>
      </trkpt>
      <trkpt lat="49.26241" lon="3.91609">
        <ele>139</ele>
        <time>2019-05-07T10:40:37Z</time>
      </trkpt>
      <trkpt lat="49.26258" lon="3.91634">
        <ele>141</ele>
        <time>2019-05-07T10:40:43Z</time>
      </trkpt>
      <trkpt lat="49.26275" lon="3.9166">
        <ele>142</ele>
        <time>2019-05-07T10:40:49Z</time>
      </trkpt>
      <trkpt lat="49.26292" lon="3.91685">
        <ele>142</ele>
        <time>2019-05-07T10:40:55Z</time>
      </trkpt>
      <trkpt lat="49.26307" lon="3.91708">
        <ele>144</ele>
        <time>2019-05-07T10:41:01Z</time>
      </trkpt>
      <trkpt lat="49.26322" lon="3.9173">
        <ele>144</ele>
        <time>2019-05-07T10:41:07Z</time>
      </trkpt>
      <trkpt lat="49.26335" lon="3.91751">
        <ele>145</ele>
        <time>2019-05-07T10:41:13Z</time>
      </trkpt>
      <trkpt lat="49.26349" lon="3.91771">
        <ele>146</ele>
        <time>2019-05-07T10:41:19Z</time>
      </trkpt>
      <trkpt lat="49.26363" lon="3.91789">
        <ele>147</ele>
        <time>2019-05-07T10:41:25Z</time>
      </trkpt>
      <trkpt lat="49.26378" lon="3.91806">
        <ele>148</ele>
        <time>2019-05-07T10:41:31Z</time>
      </trkpt>
      <trkpt lat="49.26398" lon="3.91824">
        <ele>149</ele>
        <time>2019-05-07T10:41:40Z</time>
      </trkpt>
      <trkpt lat="49.26415" lon="3.91835">
        <ele>150</ele>
        <time>2019-05-07T10:41:49Z</time>
      </trkpt>
      <trkpt lat="49.26434" lon="3.91843">
        <ele>149</ele>
        <time>2019-05-07T10:41:58Z</time>
      </trkpt>
      <trkpt lat="49.26454" lon="3.91854">
        <ele>151</ele>
        <time>2019-05-07T10:42:07Z</time>
      </trkpt>
      <trkpt lat="49.26473" lon="3.9186">
        <ele>151</ele>
        <time>2019-05-07T10:42:16Z</time>
      </trkpt>
      <trkpt lat="49.26492" lon="3.91871">
        <ele>151</ele>
        <time>2019-05-07T10:42:25Z</time>
      </trkpt>
      <trkpt lat="49.2651" lon="3.91878">
        <ele>151</ele>
        <time>2019-05-07T10:42:35Z</time>
      </trkpt>
      <trkpt lat="49.26531" lon="3.9189">
        <ele>152</ele>
        <time>2019-05-07T10:42:47Z</time>
      </trkpt>
      <trkpt lat="49.26552" lon="3.91901">
        <ele>152</ele>
        <time>2019-05-07T10:42:56Z</time>
      </trkpt>
      <trkpt lat="49.26569" lon="3.91911">
        <ele>152</ele>
        <time>2019-05-07T10:43:02Z</time>
      </trkpt>
      <trkpt lat="49.26592" lon="3.91925">
        <ele>153</ele>
        <time>2019-05-07T10:43:08Z</time>
      </trkpt>
      <trkpt lat="49.2662" lon="3.91943">
        <ele>151</ele>
        <time>2019-05-07T10:43:14Z</time>
      </trkpt>
      <trkpt lat="49.26652" lon="3.9197">
        <ele>150</ele>
        <time>2019-05-07T10:43:20Z</time>
      </trkpt>
      <trkpt lat="49.26682" lon="3.92003">
        <ele>149</ele>
        <time>2019-05-07T10:43:26Z</time>
      </trkpt>
      <trkpt lat="49.26692" lon="3.92026">
        <ele>148</ele>
        <time>2019-05-07T10:43:29Z</time>
      </trkpt>
      <trkpt lat="49.26727" lon="3.92024">
        <ele>146</ele>
        <time>2019-05-07T10:43:35Z</time>
      </trkpt>
      <trkpt lat="49.26746" lon="3.92027">
        <ele>146</ele>
        <time>2019-05-07T10:43:38Z</time>
      </trkpt>
      <trkpt lat="49.26765" lon="3.92032">
        <ele>146</ele>
        <time>2019-05-07T10:43:41Z</time>
      </trkpt>
      <trkpt lat="49.26784" lon="3.92038">
        <ele>145</ele>
        <time>2019-05-07T10:43:44Z</time>
      </trkpt>
      <trkpt lat="49.26802" lon="3.92044">
        <ele>145</ele>
        <time>2019-05-07T10:43:47Z</time>
      </trkpt>
      <trkpt lat="49.26824" lon="3.9205">
        <ele>145</ele>
        <time>2019-05-07T10:43:50Z</time>
      </trkpt>
      <trkpt lat="49.26844" lon="3.92059">
        <ele>144</ele>
        <time>2019-05-07T10:43:53Z</time>
      </trkpt>
      <trkpt lat="49.26865" lon="3.92065">
        <ele>143</ele>
        <time>2019-05-07T10:43:56Z</time>
      </trkpt>
      <trkpt lat="49.26886" lon="3.92072">
        <ele>142</ele>
        <time>2019-05-07T10:43:59Z</time>
      </trkpt>
      <trkpt lat="49.26908" lon="3.9208">
        <ele>141</ele>
        <time>2019-05-07T10:44:02Z</time>
      </trkpt>
      <trkpt lat="49.2693" lon="3.92088">
        <ele>140</ele>
        <time>2019-05-07T10:44:05Z</time>
      </trkpt>
      <trkpt lat="49.26953" lon="3.92096">
        <ele>139</ele>
        <time>2019-05-07T10:44:08Z</time>
      </trkpt>
      <trkpt lat="49.26976" lon="3.92104">
        <ele>138</ele>
        <time>2019-05-07T10:44:11Z</time>
      </trkpt>
      <trkpt lat="49.27" lon="3.92112">
        <ele>138</ele>
        <time>2019-05-07T10:44:14Z</time>
      </trkpt>
      <trkpt lat="49.27024" lon="3.92115">
        <ele>137</ele>
        <time>2019-05-07T10:44:17Z</time>
      </trkpt>
      <trkpt lat="49.2705" lon="3.92116">
        <ele>136</ele>
        <time>2019-05-07T10:44:20Z</time>
      </trkpt>
      <trkpt lat="49.27075" lon="3.92114">
        <ele>136</ele>
        <time>2019-05-07T10:44:23Z</time>
      </trkpt>
      <trkpt lat="49.271" lon="3.92109">
        <ele>135</ele>
        <time>2019-05-07T10:44:26Z</time>
      </trkpt>
      <trkpt lat="49.27126" lon="3.92102">
        <ele>134</ele>
        <time>2019-05-07T10:44:29Z</time>
      </trkpt>
      <trkpt lat="49.27151" lon="3.92096">
        <ele>132</ele>
        <time>2019-05-07T10:44:32Z</time>
      </trkpt>
      <trkpt lat="49.27175" lon="3.92096">
        <ele>131</ele>
        <time>2019-05-07T10:44:35Z</time>
      </trkpt>
      <trkpt lat="49.272" lon="3.921">
        <ele>130</ele>
        <time>2019-05-07T10:44:38Z</time>
      </trkpt>
      <trkpt lat="49.27221" lon="3.92104">
        <ele>129</ele>
        <time>2019-05-07T10:44:41Z</time>
      </trkpt>
      <trkpt lat="49.27242" lon="3.92108">
        <ele>128</ele>
        <time>2019-05-07T10:44:44Z</time>
      </trkpt>
      <trkpt lat="49.27265" lon="3.92112">
        <ele>127</ele>
        <time>2019-05-07T10:44:47Z</time>
      </trkpt>
      <trkpt lat="49.27291" lon="3.92117">
        <ele>126</ele>
        <time>2019-05-07T10:44:50Z</time>
      </trkpt>
      <trkpt lat="49.27319" lon="3.92124">
        <ele>124</ele>
        <time>2019-05-07T10:44:53Z</time>
      </trkpt>
      <trkpt lat="49.27347" lon="3.9213">
        <ele>123</ele>
        <time>2019-05-07T10:44:56Z</time>
      </trkpt>
      <trkpt lat="49.27374" lon="3.92135">
        <ele>122</ele>
        <time>2019-05-07T10:44:59Z</time>
      </trkpt>
      <trkpt lat="49.27396" lon="3.92142">
        <ele>121</ele>
        <time>2019-05-07T10:45:02Z</time>
      </trkpt>
      <trkpt lat="49.27419" lon="3.92148">
        <ele>121</ele>
        <time>2019-05-07T10:45:05Z</time>
      </trkpt>
      <trkpt lat="49.27441" lon="3.92152">
        <ele>120</ele>
        <time>2019-05-07T10:45:08Z</time>
      </trkpt>
      <trkpt lat="49.27464" lon="3.92153">
        <ele>120</ele>
        <time>2019-05-07T10:45:11Z</time>
      </trkpt>
      <trkpt lat="49.27489" lon="3.9215">
        <ele>121</ele>
        <time>2019-05-07T10:45:14Z</time>
      </trkpt>
      <trkpt lat="49.27513" lon="3.92144">
        <ele>121</ele>
        <time>2019-05-07T10:45:17Z</time>
      </trkpt>
      <trkpt lat="49.27534" lon="3.92137">
        <ele>121</ele>
        <time>2019-05-07T10:45:20Z</time>
      </trkpt>
      <trkpt lat="49.27555" lon="3.92131">
        <ele>120</ele>
        <time>2019-05-07T10:45:23Z</time>
      </trkpt>
      <trkpt lat="49.27576" lon="3.92126">
        <ele>120</ele>
        <time>2019-05-07T10:45:26Z</time>
      </trkpt>
      <trkpt lat="49.27596" lon="3.9212">
        <ele>120</ele>
        <time>2019-05-07T10:45:29Z</time>
      </trkpt>
      <trkpt lat="49.27615" lon="3.92116">
        <ele>121</ele>
        <time>2019-05-07T10:45:32Z</time>
      </trkpt>
      <trkpt lat="49.27648" lon="3.92108">
        <ele>121</ele>
        <time>2019-05-07T10:45:38Z</time>
      </trkpt>
      <trkpt lat="49.27683" lon="3.92102">
        <ele>121</ele>
        <time>2019-05-07T10:45:44Z</time>
      </trkpt>
      <trkpt lat="49.27701" lon="3.92104">
        <ele>121</ele>
        <time>2019-05-07T10:45:47Z</time>
      </trkpt>
      <trkpt lat="49.27719" lon="3.92111">
        <ele>120</ele>
        <time>2019-05-07T10:45:50Z</time>
      </trkpt>
      <trkpt lat="49.27737" lon="3.92124">
        <ele>120</ele>
        <time>2019-05-07T10:45:53Z</time>
      </trkpt>
      <trkpt lat="49.27753" lon="3.92141">
        <ele>120</ele>
        <time>2019-05-07T10:45:56Z</time>
      </trkpt>
      <trkpt lat="49.27779" lon="3.92169">
        <ele>120</ele>
        <time>2019-05-07T10:46:02Z</time>
      </trkpt>
      <trkpt lat="49.27805" lon="3.92194">
        <ele>120</ele>
        <time>2019-05-07T10:46:08Z</time>
      </trkpt>
      <trkpt lat="49.27829" lon="3.92216">
        <ele>120</ele>
        <time>2019-05-07T10:46:14Z</time>
      </trkpt>
      <trkpt lat="49.27849" lon="3.92239">
        <ele>120</ele>
        <time>2019-05-07T10:46:20Z</time>
      </trkpt>
      <trkpt lat="49.27872" lon="3.92259">
        <ele>121</ele>
        <time>2019-05-07T10:46:26Z</time>
      </trkpt>
      <trkpt lat="49.27897" lon="3.92266">
        <ele>122</ele>
        <time>2019-05-07T10:46:32Z</time>
      </trkpt>
      <trkpt lat="49.27923" lon="3.92262">
        <ele>121</ele>
        <time>2019-05-07T10:46:38Z</time>
      </trkpt>
      <trkpt lat="49.27947" lon="3.9225">
        <ele>121</ele>
        <time>2019-05-07T10:46:44Z</time>
      </trkpt>
      <trkpt lat="49.27973" lon="3.92238">
        <ele>121</ele>
        <time>2019-05-07T10:46:50Z</time>
      </trkpt>
      <trkpt lat="49.27998" lon="3.92224">
        <ele>121</ele>
        <time>2019-05-07T10:46:56Z</time>
      </trkpt>
      <trkpt lat="49.28023" lon="3.92211">
        <ele>121</ele>
        <time>2019-05-07T10:47:02Z</time>
      </trkpt>
      <trkpt lat="49.28045" lon="3.92198">
        <ele>121</ele>
        <time>2019-05-07T10:47:08Z</time>
      </trkpt>
      <trkpt lat="49.28065" lon="3.92188">
        <ele>122</ele>
        <time>2019-05-07T10:47:14Z</time>
      </trkpt>
      <trkpt lat="49.28087" lon="3.92176">
        <ele>123</ele>
        <time>2019-05-07T10:47:20Z</time>
      </trkpt>
      <trkpt lat="49.2811" lon="3.92166">
        <ele>124</ele>
        <time>2019-05-07T10:47:26Z</time>
      </trkpt>
      <trkpt lat="49.28135" lon="3.92153">
        <ele>124</ele>
        <time>2019-05-07T10:47:32Z</time>
      </trkpt>
      <trkpt lat="49.2816" lon="3.92139">
        <ele>125</ele>
        <time>2019-05-07T10:47:38Z</time>
      </trkpt>
      <trkpt lat="49.28183" lon="3.92127">
        <ele>125</ele>
        <time>2019-05-07T10:47:44Z</time>
      </trkpt>
      <trkpt lat="49.28205" lon="3.92116">
        <ele>126</ele>
        <time>2019-05-07T10:47:50Z</time>
      </trkpt>
      <trkpt lat="49.28224" lon="3.92105">
        <ele>127</ele>
        <time>2019-05-07T10:47:56Z</time>
      </trkpt>
      <trkpt lat="49.28244" lon="3.92095">
        <ele>127</ele>
        <time>2019-05-07T10:48:02Z</time>
      </trkpt>
      <trkpt lat="49.28265" lon="3.92085">
        <ele>128</ele>
        <time>2019-05-07T10:48:08Z</time>
      </trkpt>
      <trkpt lat="49.28285" lon="3.92074">
        <ele>128</ele>
        <time>2019-05-07T10:48:14Z</time>
      </trkpt>
      <trkpt lat="49.28307" lon="3.92063">
        <ele>130</ele>
        <time>2019-05-07T10:48:20Z</time>
      </trkpt>
      <trkpt lat="49.28326" lon="3.92053">
        <ele>130</ele>
        <time>2019-05-07T10:48:26Z</time>
      </trkpt>
      <trkpt lat="49.28344" lon="3.92044">
        <ele>131</ele>
        <time>2019-05-07T10:48:32Z</time>
      </trkpt>
      <trkpt lat="49.28361" lon="3.92035">
        <ele>131</ele>
        <time>2019-05-07T10:48:38Z</time>
      </trkpt>
      <trkpt lat="49.28379" lon="3.92026">
        <ele>131</ele>
        <time>2019-05-07T10:48:44Z</time>
      </trkpt>
      <trkpt lat="49.28403" lon="3.92013">
        <ele>132</ele>
        <time>2019-05-07T10:48:53Z</time>
      </trkpt>
      <trkpt lat="49.28423" lon="3.92005">
        <ele>132</ele>
        <time>2019-05-07T10:48:59Z</time>
      </trkpt>
      <trkpt lat="49.28446" lon="3.91991">
        <ele>133</ele>
        <time>2019-05-07T10:49:05Z</time>
      </trkpt>
      <trkpt lat="49.28477" lon="3.91973">
        <ele>133</ele>
        <time>2019-05-07T10:49:11Z</time>
      </trkpt>
      <trkpt lat="49.28496" lon="3.91963">
        <ele>132</ele>
        <time>2019-05-07T10:49:14Z</time>
      </trkpt>
      <trkpt lat="49.28518" lon="3.91954">
        <ele>132</ele>
        <time>2019-05-07T10:49:17Z</time>
      </trkpt>
      <trkpt lat="49.28542" lon="3.91942">
        <ele>131</ele>
        <time>2019-05-07T10:49:20Z</time>
      </trkpt>
      <trkpt lat="49.28566" lon="3.91929">
        <ele>131</ele>
        <time>2019-05-07T10:49:23Z</time>
      </trkpt>
      <trkpt lat="49.28591" lon="3.91916">
        <ele>131</ele>
        <time>2019-05-07T10:49:26Z</time>
      </trkpt>
      <trkpt lat="49.28615" lon="3.91904">
        <ele>131</ele>
        <time>2019-05-07T10:49:29Z</time>
      </trkpt>
      <trkpt lat="49.28638" lon="3.91892">
        <ele>131</ele>
        <time>2019-05-07T10:49:32Z</time>
      </trkpt>
      <trkpt lat="49.28658" lon="3.91882">
        <ele>133</ele>
        <time>2019-05-07T10:49:35Z</time>
      </trkpt>
      <trkpt lat="49.28675" lon="3.91873">
        <ele>134</ele>
        <time>2019-05-07T10:49:38Z</time>
      </trkpt>
      <trkpt lat="49.28704" lon="3.91858">
        <ele>135</ele>
        <time>2019-05-07T10:49:44Z</time>
      </trkpt>
      <trkpt lat="49.28732" lon="3.91846">
        <ele>135</ele>
        <time>2019-05-07T10:49:50Z</time>
      </trkpt>
      <trkpt lat="49.28759" lon="3.91843">
        <ele>137</ele>
        <time>2019-05-07T10:49:56Z</time>
      </trkpt>
      <trkpt lat="49.28778" lon="3.91843">
        <ele>138</ele>
        <time>2019-05-07T10:50:05Z</time>
      </trkpt>
      <trkpt lat="49.28801" lon="3.91841">
        <ele>139</ele>
        <time>2019-05-07T10:50:14Z</time>
      </trkpt>
      <trkpt lat="49.28822" lon="3.91841">
        <ele>139</ele>
        <time>2019-05-07T10:50:23Z</time>
      </trkpt>
      <trkpt lat="49.28841" lon="3.91838">
        <ele>141</ele>
        <time>2019-05-07T10:50:32Z</time>
      </trkpt>
      <trkpt lat="49.28861" lon="3.91821">
        <ele>141</ele>
        <time>2019-05-07T10:50:38Z</time>
      </trkpt>
      <trkpt lat="49.28885" lon="3.91793">
        <ele>140</ele>
        <time>2019-05-07T10:50:44Z</time>
      </trkpt>
      <trkpt lat="49.28902" lon="3.91771">
        <ele>140</ele>
        <time>2019-05-07T10:50:50Z</time>
      </trkpt>
      <trkpt lat="49.28919" lon="3.91745">
        <ele>140</ele>
        <time>2019-05-07T10:50:56Z</time>
      </trkpt>
      <trkpt lat="49.28915" lon="3.91704">
        <ele>142</ele>
        <time>2019-05-07T10:51:02Z</time>
      </trkpt>
      <trkpt lat="49.28917" lon="3.91662">
        <ele>142</ele>
        <time>2019-05-07T10:51:08Z</time>
      </trkpt>
      <trkpt lat="49.28918" lon="3.91621">
        <ele>144</ele>
        <time>2019-05-07T10:51:14Z</time>
      </trkpt>
      <trkpt lat="49.28921" lon="3.91581">
        <ele>144</ele>
        <time>2019-05-07T10:51:20Z</time>
      </trkpt>
      <trkpt lat="49.2894" lon="3.91553">
        <ele>145</ele>
        <time>2019-05-07T10:51:26Z</time>
      </trkpt>
      <trkpt lat="49.28965" lon="3.91536">
        <ele>145</ele>
        <time>2019-05-07T10:51:32Z</time>
      </trkpt>
      <trkpt lat="49.2899" lon="3.91518">
        <ele>145</ele>
        <time>2019-05-07T10:51:38Z</time>
      </trkpt>
      <trkpt lat="49.29014" lon="3.915">
        <ele>144</ele>
        <time>2019-05-07T10:51:44Z</time>
      </trkpt>
      <trkpt lat="49.29043" lon="3.91481">
        <ele>143</ele>
        <time>2019-05-07T10:51:50Z</time>
      </trkpt>
      <trkpt lat="49.29059" lon="3.91468">
        <ele>143</ele>
        <time>2019-05-07T10:51:53Z</time>
      </trkpt>
      <trkpt lat="49.29077" lon="3.91455">
        <ele>142</ele>
        <time>2019-05-07T10:51:56Z</time>
      </trkpt>
      <trkpt lat="49.29095" lon="3.91443">
        <ele>142</ele>
        <time>2019-05-07T10:51:59Z</time>
      </trkpt>
      <trkpt lat="49.29112" lon="3.9143">
        <ele>142</ele>
        <time>2019-05-07T10:52:02Z</time>
      </trkpt>
      <trkpt lat="49.29131" lon="3.91416">
        <ele>142</ele>
        <time>2019-05-07T10:52:05Z</time>
      </trkpt>
      <trkpt lat="49.2915" lon="3.91402">
        <ele>141</ele>
        <time>2019-05-07T10:52:08Z</time>
      </trkpt>
      <trkpt lat="49.29168" lon="3.91387">
        <ele>141</ele>
        <time>2019-05-07T10:52:11Z</time>
      </trkpt>
      <trkpt lat="49.29185" lon="3.91366">
        <ele>140</ele>
        <time>2019-05-07T10:52:14Z</time>
      </trkpt>
      <trkpt lat="49.29203" lon="3.9134">
        <ele>139</ele>
        <time>2019-05-07T10:52:17Z</time>
      </trkpt>
      <trkpt lat="49.29221" lon="3.91311">
        <ele>138</ele>
        <time>2019-05-07T10:52:20Z</time>
      </trkpt>
      <trkpt lat="49.29241" lon="3.91278">
        <ele>138</ele>
        <time>2019-05-07T10:52:23Z</time>
      </trkpt>
      <trkpt lat="49.29264" lon="3.91243">
        <ele>136</ele>
        <time>2019-05-07T10:52:26Z</time>
      </trkpt>
      <trkpt lat="49.2929" lon="3.91211">
        <ele>133</ele>
        <time>2019-05-07T10:52:29Z</time>
      </trkpt>
      <trkpt lat="49.29319" lon="3.91184">
        <ele>132</ele>
        <time>2019-05-07T10:52:32Z</time>
      </trkpt>
      <trkpt lat="49.29351" lon="3.91164">
        <ele>132</ele>
        <time>2019-05-07T10:52:35Z</time>
      </trkpt>
      <trkpt lat="49.2938" lon="3.91146">
        <ele>132</ele>
        <time>2019-05-07T10:52:38Z</time>
      </trkpt>
      <trkpt lat="49.29406" lon="3.91129">
        <ele>133</ele>
        <time>2019-05-07T10:52:41Z</time>
      </trkpt>
      <trkpt lat="49.29429" lon="3.91115">
        <ele>134</ele>
        <time>2019-05-07T10:52:44Z</time>
      </trkpt>
      <trkpt lat="49.2945" lon="3.91102">
        <ele>134</ele>
        <time>2019-05-07T10:52:47Z</time>
      </trkpt>
      <trkpt lat="49.29471" lon="3.91089">
        <ele>133</ele>
        <time>2019-05-07T10:52:50Z</time>
      </trkpt>
      <trkpt lat="49.29493" lon="3.91075">
        <ele>132</ele>
        <time>2019-05-07T10:52:53Z</time>
      </trkpt>
      <trkpt lat="49.29515" lon="3.9106">
        <ele>131</ele>
        <time>2019-05-07T10:52:56Z</time>
      </trkpt>
      <trkpt lat="49.29537" lon="3.91048">
        <ele>130</ele>
        <time>2019-05-07T10:52:59Z</time>
      </trkpt>
      <trkpt lat="49.29559" lon="3.91034">
        <ele>130</ele>
        <time>2019-05-07T10:53:02Z</time>
      </trkpt>
      <trkpt lat="49.29582" lon="3.9102">
        <ele>130</ele>
        <time>2019-05-07T10:53:05Z</time>
      </trkpt>
      <trkpt lat="49.29604" lon="3.91008">
        <ele>130</ele>
        <time>2019-05-07T10:53:08Z</time>
      </trkpt>
      <trkpt lat="49.29625" lon="3.90995">
        <ele>131</ele>
        <time>2019-05-07T10:53:11Z</time>
      </trkpt>
      <trkpt lat="49.29645" lon="3.90982">
        <ele>131</ele>
        <time>2019-05-07T10:53:14Z</time>
      </trkpt>
      <trkpt lat="49.29664" lon="3.9097">
        <ele>131</ele>
        <time>2019-05-07T10:53:17Z</time>
      </trkpt>
      <trkpt lat="49.29681" lon="3.90958">
        <ele>131</ele>
        <time>2019-05-07T10:53:20Z</time>
      </trkpt>
      <trkpt lat="49.29698" lon="3.90946">
        <ele>132</ele>
        <time>2019-05-07T10:53:23Z</time>
      </trkpt>
      <trkpt lat="49.29731" lon="3.90926">
        <ele>133</ele>
        <time>2019-05-07T10:53:29Z</time>
      </trkpt>
      <trkpt lat="49.29762" lon="3.90906">
        <ele>133</ele>
        <time>2019-05-07T10:53:35Z</time>
      </trkpt>
      <trkpt lat="49.29794" lon="3.90887">
        <ele>135</ele>
        <time>2019-05-07T10:53:41Z</time>
      </trkpt>
      <trkpt lat="49.29823" lon="3.90869">
        <ele>136</ele>
        <time>2019-05-07T10:53:47Z</time>
      </trkpt>
      <trkpt lat="49.29849" lon="3.90853">
        <ele>137</ele>
        <time>2019-05-07T10:53:53Z</time>
      </trkpt>
      <trkpt lat="49.29872" lon="3.90831">
        <ele>137</ele>
        <time>2019-05-07T10:53:59Z</time>
      </trkpt>
      <trkpt lat="49.29891" lon="3.90807">
        <ele>138</ele>
        <time>2019-05-07T10:54:05Z</time>
      </trkpt>
      <trkpt lat="49.29907" lon="3.90782">
        <ele>138</ele>
        <time>2019-05-07T10:54:11Z</time>
      </trkpt>
      <trkpt lat="49.29921" lon="3.90762">
        <ele>139</ele>
        <time>2019-05-07T10:54:17Z</time>
      </trkpt>
      <trkpt lat="49.29937" lon="3.90738">
        <ele>140</ele>
        <time>2019-05-07T10:54:24Z</time>
      </trkpt>
      <trkpt lat="49.29951" lon="3.90717">
        <ele>141</ele>
        <time>2019-05-07T10:54:30Z</time>
      </trkpt>
      <trkpt lat="49.29964" lon="3.90697">
        <ele>142</ele>
        <time>2019-05-07T10:54:36Z</time>
      </trkpt>
      <trkpt lat="49.29977" lon="3.90675">
        <ele>143</ele>
        <time>2019-05-07T10:54:42Z</time>
      </trkpt>
      <trkpt lat="49.29991" lon="3.90654">
        <ele>144</ele>
        <time>2019-05-07T10:54:48Z</time>
      </trkpt>
      <trkpt lat="49.30005" lon="3.90635">
        <ele>146</ele>
        <time>2019-05-07T10:54:54Z</time>
      </trkpt>
      <trkpt lat="49.30018" lon="3.90615">
        <ele>149</ele>
        <time>2019-05-07T10:55:00Z</time>
      </trkpt>
      <trkpt lat="49.30031" lon="3.90595">
        <ele>151</ele>
        <time>2019-05-07T10:55:06Z</time>
      </trkpt>
      <trkpt lat="49.30045" lon="3.9057">
        <ele>155</ele>
        <time>2019-05-07T10:55:15Z</time>
      </trkpt>
      <trkpt lat="49.30063" lon="3.90546">
        <ele>158</ele>
        <time>2019-05-07T10:55:24Z</time>
      </trkpt>
      <trkpt lat="49.30079" lon="3.90528">
        <ele>163</ele>
        <time>2019-05-07T10:55:33Z</time>
      </trkpt>
      <trkpt lat="49.30096" lon="3.90514">
        <ele>166</ele>
        <time>2019-05-07T10:55:42Z</time>
      </trkpt>
      <trkpt lat="49.30117" lon="3.90498">
        <ele>164</ele>
        <time>2019-05-07T10:55:54Z</time>
      </trkpt>
      <trkpt lat="49.30137" lon="3.90485">
        <ele>162</ele>
        <time>2019-05-07T10:56:06Z</time>
      </trkpt>
      <trkpt lat="49.30155" lon="3.90471">
        <ele>158</ele>
        <time>2019-05-07T10:56:12Z</time>
      </trkpt>
      <trkpt lat="49.30173" lon="3.90457">
        <ele>158</ele>
        <time>2019-05-07T10:56:18Z</time>
      </trkpt>
      <trkpt lat="49.30192" lon="3.90442">
        <ele>156</ele>
        <time>2019-05-07T10:56:24Z</time>
      </trkpt>
      <trkpt lat="49.30214" lon="3.90427">
        <ele>154</ele>
        <time>2019-05-07T10:56:30Z</time>
      </trkpt>
      <trkpt lat="49.30234" lon="3.90403">
        <ele>152</ele>
        <time>2019-05-07T10:56:37Z</time>
      </trkpt>
      <trkpt lat="49.30245" lon="3.90374">
        <ele>151</ele>
        <time>2019-05-07T10:56:43Z</time>
      </trkpt>
      <trkpt lat="49.30249" lon="3.9034">
        <ele>151</ele>
        <time>2019-05-07T10:56:49Z</time>
      </trkpt>
      <trkpt lat="49.3025" lon="3.90307">
        <ele>151</ele>
        <time>2019-05-07T10:56:55Z</time>
      </trkpt>
      <trkpt lat="49.3025" lon="3.90275">
        <ele>151</ele>
        <time>2019-05-07T10:57:01Z</time>
      </trkpt>
      <trkpt lat="49.30251" lon="3.9024">
        <ele>152</ele>
        <time>2019-05-07T10:57:07Z</time>
      </trkpt>
      <trkpt lat="49.3025" lon="3.90205">
        <ele>153</ele>
        <time>2019-05-07T10:57:13Z</time>
      </trkpt>
      <trkpt lat="49.3025" lon="3.90173">
        <ele>153</ele>
        <time>2019-05-07T10:57:19Z</time>
      </trkpt>
      <trkpt lat="49.3025" lon="3.90139">
        <ele>154</ele>
        <time>2019-05-07T10:57:25Z</time>
      </trkpt>
      <trkpt lat="49.30251" lon="3.90107">
        <ele>154</ele>
        <time>2019-05-07T10:57:31Z</time>
      </trkpt>
      <trkpt lat="49.3025" lon="3.90073">
        <ele>154</ele>
        <time>2019-05-07T10:57:37Z</time>
      </trkpt>
      <trkpt lat="49.30251" lon="3.90037">
        <ele>155</ele>
        <time>2019-05-07T10:57:43Z</time>
      </trkpt>
      <trkpt lat="49.30249" lon="3.90009">
        <ele>155</ele>
        <time>2019-05-07T10:57:49Z</time>
      </trkpt>
      <trkpt lat="49.3025" lon="3.89981">
        <ele>156</ele>
        <time>2019-05-07T10:57:55Z</time>
      </trkpt>
      <trkpt lat="49.3025" lon="3.89951">
        <ele>156</ele>
        <time>2019-05-07T10:58:01Z</time>
      </trkpt>
      <trkpt lat="49.3025" lon="3.89922">
        <ele>156</ele>
        <time>2019-05-07T10:58:07Z</time>
      </trkpt>
      <trkpt lat="49.30249" lon="3.89892">
        <ele>156</ele>
        <time>2019-05-07T10:58:13Z</time>
      </trkpt>
      <trkpt lat="49.3025" lon="3.89863">
        <ele>156</ele>
        <time>2019-05-07T10:58:19Z</time>
      </trkpt>
      <trkpt lat="49.30251" lon="3.89822">
        <ele>158</ele>
        <time>2019-05-07T10:58:28Z</time>
      </trkpt>
      <trkpt lat="49.3025" lon="3.89793">
        <ele>158</ele>
        <time>2019-05-07T10:58:34Z</time>
      </trkpt>
      <trkpt lat="49.30251" lon="3.89764">
        <ele>159</ele>
        <time>2019-05-07T10:58:40Z</time>
      </trkpt>
      <trkpt lat="49.30251" lon="3.8973">
        <ele>160</ele>
        <time>2019-05-07T10:58:47Z</time>
      </trkpt>
      <trkpt lat="49.30256" lon="3.89695">
        <ele>162</ele>
        <time>2019-05-07T10:58:54Z</time>
      </trkpt>
      <trkpt lat="49.30264" lon="3.89667">
        <ele>163</ele>
        <time>2019-05-07T10:59:00Z</time>
      </trkpt>
      <trkpt lat="49.30272" lon="3.89643">
        <ele>165</ele>
        <time>2019-05-07T10:59:06Z</time>
      </trkpt>
      <trkpt lat="49.30276" lon="3.89606">
        <ele>167</ele>
        <time>2019-05-07T10:59:15Z</time>
      </trkpt>
      <trkpt lat="49.30273" lon="3.89571">
        <ele>168</ele>
        <time>2019-05-07T10:59:24Z</time>
      </trkpt>
      <trkpt lat="49.30273" lon="3.89543">
        <ele>172</ele>
        <time>2019-05-07T10:59:33Z</time>
      </trkpt>
      <trkpt lat="49.30252" lon="3.89533">
        <ele>170</ele>
        <time>2019-05-07T10:59:51Z</time>
      </trkpt>
      <trkpt lat="49.30248" lon="3.89543">
        <ele>172</ele>
        <time>2019-05-07T11:00:00Z</time>
      </trkpt>
      <trkpt lat="49.30248" lon="3.89543">
        <ele>172</ele>
        <time>2019-05-07T11:00:03Z</time>
      </trkpt>
      <trkpt lat="49.30248" lon="3.89543">
        <ele>172</ele>
        <time>2019-05-07T11:00:18Z</time>
      </trkpt>
      <trkpt lat="49.30248" lon="3.89542">
        <ele>172</ele>
        <time>2019-05-07T11:00:21Z</time>
      </trkpt>
      <trkpt lat="49.30272" lon="3.89544">
        <ele>171</ele>
        <time>2019-05-07T11:00:30Z</time>
      </trkpt>
      <trkpt lat="49.30292" lon="3.89521">
        <ele>174</ele>
        <time>2019-05-07T11:00:36Z</time>
      </trkpt>
      <trkpt lat="49.30318" lon="3.8953">
        <ele>176</ele>
        <time>2019-05-07T11:00:45Z</time>
      </trkpt>
      <trkpt lat="49.30334" lon="3.89546">
        <ele>176</ele>
        <time>2019-05-07T11:00:51Z</time>
      </trkpt>
      <trkpt lat="49.30354" lon="3.89564">
        <ele>176</ele>
        <time>2019-05-07T11:01:00Z</time>
      </trkpt>
      <trkpt lat="49.30373" lon="3.89581">
        <ele>178</ele>
        <time>2019-05-07T11:01:09Z</time>
      </trkpt>
      <trkpt lat="49.30386" lon="3.89599">
        <ele>179</ele>
        <time>2019-05-07T11:01:15Z</time>
      </trkpt>
      <trkpt lat="49.30406" lon="3.89614">
        <ele>181</ele>
        <time>2019-05-07T11:01:24Z</time>
      </trkpt>
      <trkpt lat="49.30425" lon="3.89626">
        <ele>182</ele>
        <time>2019-05-07T11:01:33Z</time>
      </trkpt>
      <trkpt lat="49.30445" lon="3.89642">
        <ele>184</ele>
        <time>2019-05-07T11:01:42Z</time>
      </trkpt>
      <trkpt lat="49.30463" lon="3.89655">
        <ele>186</ele>
        <time>2019-05-07T11:01:51Z</time>
      </trkpt>
      <trkpt lat="49.30482" lon="3.89673">
        <ele>188</ele>
        <time>2019-05-07T11:02:00Z</time>
      </trkpt>
      <trkpt lat="49.30498" lon="3.89688">
        <ele>187</ele>
        <time>2019-05-07T11:02:09Z</time>
      </trkpt>
      <trkpt lat="49.30507" lon="3.89698">
        <ele>188</ele>
        <time>2019-05-07T11:02:18Z</time>
      </trkpt>
      <trkpt lat="49.30509" lon="3.897">
        <ele>188</ele>
        <time>2019-05-07T11:02:21Z</time>
      </trkpt>
      <trkpt lat="49.30508" lon="3.89707">
        <ele>189</ele>
        <time>2019-05-07T11:02:25Z</time>
      </trkpt>
      <trkpt lat="49.30513" lon="3.89726">
        <ele>189</ele>
        <time>2019-05-07T11:02:35Z</time>
      </trkpt>
      <trkpt lat="49.30514" lon="3.89732">
        <ele>190</ele>
        <time>2019-05-07T11:02:38Z</time>
      </trkpt>
      <trkpt lat="49.30514" lon="3.89737">
        <ele>189</ele>
        <time>2019-05-07T11:02:41Z</time>
      </trkpt>
      <trkpt lat="49.3051" lon="3.89708">
        <ele>188</ele>
        <time>2019-05-07T11:02:53Z</time>
      </trkpt>
      <trkpt lat="49.3051" lon="3.89672">
        <ele>188</ele>
        <time>2019-05-07T11:03:02Z</time>
      </trkpt>
      <trkpt lat="49.30528" lon="3.89662">
        <ele>189</ele>
        <time>2019-05-07T11:03:08Z</time>
      </trkpt>
      <trkpt lat="49.30554" lon="3.89652">
        <ele>190</ele>
        <time>2019-05-07T11:03:17Z</time>
      </trkpt>
      <trkpt lat="49.30574" lon="3.89646">
        <ele>191</ele>
        <time>2019-05-07T11:03:23Z</time>
      </trkpt>
      <trkpt lat="49.30593" lon="3.89643">
        <ele>191</ele>
        <time>2019-05-07T11:03:29Z</time>
      </trkpt>
      <trkpt lat="49.30619" lon="3.8964">
        <ele>190</ele>
        <time>2019-05-07T11:03:38Z</time>
      </trkpt>
      <trkpt lat="49.30641" lon="3.89637">
        <ele>190</ele>
        <time>2019-05-07T11:03:47Z</time>
      </trkpt>
      <trkpt lat="49.30663" lon="3.89632">
        <ele>191</ele>
        <time>2019-05-07T11:03:56Z</time>
      </trkpt>
      <trkpt lat="49.30686" lon="3.89628">
        <ele>195</ele>
        <time>2019-05-07T11:04:05Z</time>
      </trkpt>
      <trkpt lat="49.30706" lon="3.89624">
        <ele>196</ele>
        <time>2019-05-07T11:04:14Z</time>
      </trkpt>
      <trkpt lat="49.30726" lon="3.89617">
        <ele>200</ele>
        <time>2019-05-07T11:04:23Z</time>
      </trkpt>
      <trkpt lat="49.30748" lon="3.89616">
        <ele>201</ele>
        <time>2019-05-07T11:04:32Z</time>
      </trkpt>
      <trkpt lat="49.30768" lon="3.89611">
        <ele>205</ele>
        <time>2019-05-07T11:04:41Z</time>
      </trkpt>
      <trkpt lat="49.30788" lon="3.8961">
        <ele>205</ele>
        <time>2019-05-07T11:04:50Z</time>
      </trkpt>
      <trkpt lat="49.30806" lon="3.89606">
        <ele>205</ele>
        <time>2019-05-07T11:04:59Z</time>
      </trkpt>
      <trkpt lat="49.30825" lon="3.89603">
        <ele>205</ele>
        <time>2019-05-07T11:05:08Z</time>
      </trkpt>
      <trkpt lat="49.30843" lon="3.89599">
        <ele>208</ele>
        <time>2019-05-07T11:05:17Z</time>
      </trkpt>
      <trkpt lat="49.30863" lon="3.89594">
        <ele>210</ele>
        <time>2019-05-07T11:05:27Z</time>
      </trkpt>
      <trkpt lat="49.30882" lon="3.89591">
        <ele>211</ele>
        <time>2019-05-07T11:05:36Z</time>
      </trkpt>
      <trkpt lat="49.30905" lon="3.89587">
        <ele>214</ele>
        <time>2019-05-07T11:05:48Z</time>
      </trkpt>
      <trkpt lat="49.30923" lon="3.89584">
        <ele>217</ele>
        <time>2019-05-07T11:05:57Z</time>
      </trkpt>
      <trkpt lat="49.30942" lon="3.8958">
        <ele>217</ele>
        <time>2019-05-07T11:06:06Z</time>
      </trkpt>
      <trkpt lat="49.30966" lon="3.89574">
        <ele>222</ele>
        <time>2019-05-07T11:06:18Z</time>
      </trkpt>
      <trkpt lat="49.30984" lon="3.89572">
        <ele>224</ele>
        <time>2019-05-07T11:06:27Z</time>
      </trkpt>
      <trkpt lat="49.31005" lon="3.89569">
        <ele>225</ele>
        <time>2019-05-07T11:06:36Z</time>
      </trkpt>
      <trkpt lat="49.31032" lon="3.89565">
        <ele>226</ele>
        <time>2019-05-07T11:06:45Z</time>
      </trkpt>
      <trkpt lat="49.31059" lon="3.89559">
        <ele>227</ele>
        <time>2019-05-07T11:06:54Z</time>
      </trkpt>
      <trkpt lat="49.31077" lon="3.89556">
        <ele>228</ele>
        <time>2019-05-07T11:07:00Z</time>
      </trkpt>
      <trkpt lat="49.31104" lon="3.89555">
        <ele>229</ele>
        <time>2019-05-07T11:07:09Z</time>
      </trkpt>
      <trkpt lat="49.31127" lon="3.89562">
        <ele>230</ele>
        <time>2019-05-07T11:07:18Z</time>
      </trkpt>
      <trkpt lat="49.31148" lon="3.89576">
        <ele>231</ele>
        <time>2019-05-07T11:07:27Z</time>
      </trkpt>
      <trkpt lat="49.31164" lon="3.89591">
        <ele>231</ele>
        <time>2019-05-07T11:07:33Z</time>
      </trkpt>
      <trkpt lat="49.31183" lon="3.89617">
        <ele>233</ele>
        <time>2019-05-07T11:07:42Z</time>
      </trkpt>
      <trkpt lat="49.31196" lon="3.89636">
        <ele>234</ele>
        <time>2019-05-07T11:07:48Z</time>
      </trkpt>
      <trkpt lat="49.3121" lon="3.8966">
        <ele>235</ele>
        <time>2019-05-07T11:07:54Z</time>
      </trkpt>
      <trkpt lat="49.31224" lon="3.89681">
        <ele>236</ele>
        <time>2019-05-07T11:08:00Z</time>
      </trkpt>
      <trkpt lat="49.31238" lon="3.89706">
        <ele>237</ele>
        <time>2019-05-07T11:08:06Z</time>
      </trkpt>
      <trkpt lat="49.31255" lon="3.8973">
        <ele>237</ele>
        <time>2019-05-07T11:08:12Z</time>
      </trkpt>
      <trkpt lat="49.31273" lon="3.8975">
        <ele>238</ele>
        <time>2019-05-07T11:08:18Z</time>
      </trkpt>
      <trkpt lat="49.3129" lon="3.89767">
        <ele>238</ele>
        <time>2019-05-07T11:08:24Z</time>
      </trkpt>
      <trkpt lat="49.31306" lon="3.89783">
        <ele>238</ele>
        <time>2019-05-07T11:08:30Z</time>
      </trkpt>
      <trkpt lat="49.31321" lon="3.89799">
        <ele>239</ele>
        <time>2019-05-07T11:08:36Z</time>
      </trkpt>
      <trkpt lat="49.3134" lon="3.89817">
        <ele>239</ele>
        <time>2019-05-07T11:08:42Z</time>
      </trkpt>
      <trkpt lat="49.31359" lon="3.89835">
        <ele>240</ele>
        <time>2019-05-07T11:08:48Z</time>
      </trkpt>
      <trkpt lat="49.31376" lon="3.89852">
        <ele>241</ele>
        <time>2019-05-07T11:08:57Z</time>
      </trkpt>
      <trkpt lat="49.31383" lon="3.8986">
        <ele>241</ele>
        <time>2019-05-07T11:09:03Z</time>
      </trkpt>
      <trkpt lat="49.31383" lon="3.8986">
        <ele>242</ele>
        <time>2019-05-07T11:09:06Z</time>
      </trkpt>
      <trkpt lat="49.31383" lon="3.8986">
        <ele>242</ele>
        <time>2019-05-07T11:14:33Z</time>
      </trkpt>
      <trkpt lat="49.31383" lon="3.8986">
        <ele>243</ele>
        <time>2019-05-07T11:14:36Z</time>
      </trkpt>
      <trkpt lat="49.3137" lon="3.89841">
        <ele>245</ele>
        <time>2019-05-07T11:14:57Z</time>
      </trkpt>
      <trkpt lat="49.31354" lon="3.89824">
        <ele>247</ele>
        <time>2019-05-07T11:15:09Z</time>
      </trkpt>
      <trkpt lat="49.31339" lon="3.89809">
        <ele>248</ele>
        <time>2019-05-07T11:15:15Z</time>
      </trkpt>
      <trkpt lat="49.31319" lon="3.89788">
        <ele>243</ele>
        <time>2019-05-07T11:15:21Z</time>
      </trkpt>
      <trkpt lat="49.31297" lon="3.89765">
        <ele>241</ele>
        <time>2019-05-07T11:15:27Z</time>
      </trkpt>
      <trkpt lat="49.3127" lon="3.89739">
        <ele>238</ele>
        <time>2019-05-07T11:15:33Z</time>
      </trkpt>
      <trkpt lat="49.31244" lon="3.8971">
        <ele>237</ele>
        <time>2019-05-07T11:15:39Z</time>
      </trkpt>
      <trkpt lat="49.31219" lon="3.89673">
        <ele>238</ele>
        <time>2019-05-07T11:15:45Z</time>
      </trkpt>
      <trkpt lat="49.31195" lon="3.89633">
        <ele>237</ele>
        <time>2019-05-07T11:15:51Z</time>
      </trkpt>
      <trkpt lat="49.31168" lon="3.89592">
        <ele>237</ele>
        <time>2019-05-07T11:15:57Z</time>
      </trkpt>
      <trkpt lat="49.31153" lon="3.89573">
        <ele>236</ele>
        <time>2019-05-07T11:16:00Z</time>
      </trkpt>
      <trkpt lat="49.31136" lon="3.8956">
        <ele>234</ele>
        <time>2019-05-07T11:16:03Z</time>
      </trkpt>
      <trkpt lat="49.31116" lon="3.89552">
        <ele>233</ele>
        <time>2019-05-07T11:16:06Z</time>
      </trkpt>
      <trkpt lat="49.31095" lon="3.8955">
        <ele>231</ele>
        <time>2019-05-07T11:16:09Z</time>
      </trkpt>
      <trkpt lat="49.31073" lon="3.89553">
        <ele>230</ele>
        <time>2019-05-07T11:16:12Z</time>
      </trkpt>
      <trkpt lat="49.31048" lon="3.89556">
        <ele>228</ele>
        <time>2019-05-07T11:16:15Z</time>
      </trkpt>
      <trkpt lat="49.3102" lon="3.89561">
        <ele>227</ele>
        <time>2019-05-07T11:16:18Z</time>
      </trkpt>
      <trkpt lat="49.30991" lon="3.89567">
        <ele>226</ele>
        <time>2019-05-07T11:16:21Z</time>
      </trkpt>
      <trkpt lat="49.30961" lon="3.89573">
        <ele>225</ele>
        <time>2019-05-07T11:16:24Z</time>
      </trkpt>
      <trkpt lat="49.3093" lon="3.89578">
        <ele>223</ele>
        <time>2019-05-07T11:16:27Z</time>
      </trkpt>
      <trkpt lat="49.30901" lon="3.89584">
        <ele>221</ele>
        <time>2019-05-07T11:16:30Z</time>
      </trkpt>
      <trkpt lat="49.30874" lon="3.89588">
        <ele>219</ele>
        <time>2019-05-07T11:16:33Z</time>
      </trkpt>
      <trkpt lat="49.30849" lon="3.89591">
        <ele>216</ele>
        <time>2019-05-07T11:16:36Z</time>
      </trkpt>
      <trkpt lat="49.30825" lon="3.89595">
        <ele>213</ele>
        <time>2019-05-07T11:16:39Z</time>
      </trkpt>
      <trkpt lat="49.30802" lon="3.896">
        <ele>211</ele>
        <time>2019-05-07T11:16:42Z</time>
      </trkpt>
      <trkpt lat="49.30782" lon="3.89604">
        <ele>210</ele>
        <time>2019-05-07T11:16:45Z</time>
      </trkpt>
      <trkpt lat="49.3075" lon="3.89609">
        <ele>208</ele>
        <time>2019-05-07T11:16:51Z</time>
      </trkpt>
      <trkpt lat="49.3073" lon="3.89614">
        <ele>207</ele>
        <time>2019-05-07T11:16:54Z</time>
      </trkpt>
      <trkpt lat="49.30706" lon="3.89618">
        <ele>206</ele>
        <time>2019-05-07T11:16:57Z</time>
      </trkpt>
      <trkpt lat="49.30681" lon="3.89623">
        <ele>204</ele>
        <time>2019-05-07T11:17:00Z</time>
      </trkpt>
      <trkpt lat="49.30657" lon="3.89627">
        <ele>202</ele>
        <time>2019-05-07T11:17:03Z</time>
      </trkpt>
      <trkpt lat="49.30632" lon="3.89632">
        <ele>201</ele>
        <time>2019-05-07T11:17:06Z</time>
      </trkpt>
      <trkpt lat="49.30606" lon="3.89637">
        <ele>199</ele>
        <time>2019-05-07T11:17:09Z</time>
      </trkpt>
      <trkpt lat="49.30578" lon="3.89642">
        <ele>197</ele>
        <time>2019-05-07T11:17:12Z</time>
      </trkpt>
      <trkpt lat="49.3055" lon="3.8965">
        <ele>197</ele>
        <time>2019-05-07T11:17:15Z</time>
      </trkpt>
      <trkpt lat="49.30524" lon="3.89659">
        <ele>196</ele>
        <time>2019-05-07T11:17:18Z</time>
      </trkpt>
      <trkpt lat="49.30502" lon="3.8967">
        <ele>194</ele>
        <time>2019-05-07T11:17:21Z</time>
      </trkpt>
      <trkpt lat="49.30476" lon="3.89662">
        <ele>192</ele>
        <time>2019-05-07T11:17:24Z</time>
      </trkpt>
      <trkpt lat="49.30453" lon="3.89645">
        <ele>191</ele>
        <time>2019-05-07T11:17:27Z</time>
      </trkpt>
      <trkpt lat="49.30429" lon="3.89628">
        <ele>191</ele>
        <time>2019-05-07T11:17:30Z</time>
      </trkpt>
      <trkpt lat="49.30406" lon="3.8961">
        <ele>189</ele>
        <time>2019-05-07T11:17:33Z</time>
      </trkpt>
      <trkpt lat="49.30383" lon="3.89592">
        <ele>189</ele>
        <time>2019-05-07T11:17:36Z</time>
      </trkpt>
      <trkpt lat="49.30362" lon="3.89568">
        <ele>187</ele>
        <time>2019-05-07T11:17:39Z</time>
      </trkpt>
      <trkpt lat="49.30342" lon="3.89547">
        <ele>185</ele>
        <time>2019-05-07T11:17:42Z</time>
      </trkpt>
      <trkpt lat="49.30323" lon="3.8953">
        <ele>184</ele>
        <time>2019-05-07T11:17:45Z</time>
      </trkpt>
      <trkpt lat="49.30304" lon="3.89516">
        <ele>182</ele>
        <time>2019-05-07T11:17:48Z</time>
      </trkpt>
      <trkpt lat="49.30285" lon="3.89519">
        <ele>180</ele>
        <time>2019-05-07T11:17:51Z</time>
      </trkpt>
      <trkpt lat="49.30267" lon="3.89544">
        <ele>179</ele>
        <time>2019-05-07T11:17:57Z</time>
      </trkpt>
      <trkpt lat="49.3027" lon="3.89577">
        <ele>178</ele>
        <time>2019-05-07T11:18:00Z</time>
      </trkpt>
      <trkpt lat="49.30272" lon="3.89606">
        <ele>176</ele>
        <time>2019-05-07T11:18:03Z</time>
      </trkpt>
      <trkpt lat="49.30272" lon="3.89634">
        <ele>175</ele>
        <time>2019-05-07T11:18:06Z</time>
      </trkpt>
      <trkpt lat="49.30264" lon="3.89665">
        <ele>172</ele>
        <time>2019-05-07T11:18:09Z</time>
      </trkpt>
      <trkpt lat="49.30254" lon="3.89696">
        <ele>170</ele>
        <time>2019-05-07T11:18:12Z</time>
      </trkpt>
      <trkpt lat="49.30247" lon="3.89729">
        <ele>169</ele>
        <time>2019-05-07T11:18:15Z</time>
      </trkpt>
      <trkpt lat="49.30248" lon="3.89761">
        <ele>166</ele>
        <time>2019-05-07T11:18:18Z</time>
      </trkpt>
      <trkpt lat="49.30248" lon="3.89796">
        <ele>164</ele>
        <time>2019-05-07T11:18:21Z</time>
      </trkpt>
      <trkpt lat="49.30248" lon="3.89836">
        <ele>162</ele>
        <time>2019-05-07T11:18:24Z</time>
      </trkpt>
      <trkpt lat="49.30249" lon="3.89877">
        <ele>160</ele>
        <time>2019-05-07T11:18:27Z</time>
      </trkpt>
      <trkpt lat="49.30249" lon="3.89919">
        <ele>158</ele>
        <time>2019-05-07T11:18:30Z</time>
      </trkpt>
      <trkpt lat="49.30249" lon="3.89962">
        <ele>158</ele>
        <time>2019-05-07T11:18:33Z</time>
      </trkpt>
      <trkpt lat="49.30249" lon="3.90003">
        <ele>157</ele>
        <time>2019-05-07T11:18:36Z</time>
      </trkpt>
      <trkpt lat="49.30248" lon="3.90043">
        <ele>156</ele>
        <time>2019-05-07T11:18:39Z</time>
      </trkpt>
      <trkpt lat="49.30248" lon="3.90082">
        <ele>155</ele>
        <time>2019-05-07T11:18:42Z</time>
      </trkpt>
      <trkpt lat="49.30248" lon="3.9012">
        <ele>154</ele>
        <time>2019-05-07T11:18:45Z</time>
      </trkpt>
      <trkpt lat="49.30248" lon="3.90158">
        <ele>154</ele>
        <time>2019-05-07T11:18:48Z</time>
      </trkpt>
      <trkpt lat="49.30248" lon="3.90195">
        <ele>153</ele>
        <time>2019-05-07T11:18:51Z</time>
      </trkpt>
      <trkpt lat="49.30248" lon="3.9023">
        <ele>153</ele>
        <time>2019-05-07T11:18:54Z</time>
      </trkpt>
      <trkpt lat="49.30247" lon="3.90264">
        <ele>153</ele>
        <time>2019-05-07T11:18:57Z</time>
      </trkpt>
      <trkpt lat="49.30247" lon="3.90298">
        <ele>153</ele>
        <time>2019-05-07T11:19:00Z</time>
      </trkpt>
      <trkpt lat="49.30246" lon="3.90343">
        <ele>153</ele>
        <time>2019-05-07T11:19:04Z</time>
      </trkpt>
      <trkpt lat="49.30242" lon="3.90373">
        <ele>153</ele>
        <time>2019-05-07T11:19:07Z</time>
      </trkpt>
      <trkpt lat="49.30229" lon="3.904">
        <ele>153</ele>
        <time>2019-05-07T11:19:10Z</time>
      </trkpt>
      <trkpt lat="49.30213" lon="3.9042">
        <ele>154</ele>
        <time>2019-05-07T11:19:13Z</time>
      </trkpt>
      <trkpt lat="49.30195" lon="3.90436">
        <ele>154</ele>
        <time>2019-05-07T11:19:16Z</time>
      </trkpt>
      <trkpt lat="49.30164" lon="3.90458">
        <ele>154</ele>
        <time>2019-05-07T11:19:22Z</time>
      </trkpt>
      <trkpt lat="49.30139" lon="3.9048">
        <ele>156</ele>
        <time>2019-05-07T11:19:28Z</time>
      </trkpt>
      <trkpt lat="49.30111" lon="3.90496">
        <ele>156</ele>
        <time>2019-05-07T11:19:34Z</time>
      </trkpt>
      <trkpt lat="49.30085" lon="3.90518">
        <ele>158</ele>
        <time>2019-05-07T11:19:40Z</time>
      </trkpt>
      <trkpt lat="49.30069" lon="3.90534">
        <ele>158</ele>
        <time>2019-05-07T11:19:43Z</time>
      </trkpt>
      <trkpt lat="49.30051" lon="3.90555">
        <ele>159</ele>
        <time>2019-05-07T11:19:46Z</time>
      </trkpt>
      <trkpt lat="49.30033" lon="3.90579">
        <ele>158</ele>
        <time>2019-05-07T11:19:49Z</time>
      </trkpt>
      <trkpt lat="49.30015" lon="3.9061">
        <ele>158</ele>
        <time>2019-05-07T11:19:52Z</time>
      </trkpt>
      <trkpt lat="49.29994" lon="3.9064">
        <ele>156</ele>
        <time>2019-05-07T11:19:55Z</time>
      </trkpt>
      <trkpt lat="49.29973" lon="3.90671">
        <ele>153</ele>
        <time>2019-05-07T11:19:58Z</time>
      </trkpt>
      <trkpt lat="49.29953" lon="3.90704">
        <ele>150</ele>
        <time>2019-05-07T11:20:01Z</time>
      </trkpt>
      <trkpt lat="49.29931" lon="3.90738">
        <ele>147</ele>
        <time>2019-05-07T11:20:04Z</time>
      </trkpt>
      <trkpt lat="49.29909" lon="3.90772">
        <ele>146</ele>
        <time>2019-05-07T11:20:07Z</time>
      </trkpt>
      <trkpt lat="49.29885" lon="3.90803">
        <ele>145</ele>
        <time>2019-05-07T11:20:10Z</time>
      </trkpt>
      <trkpt lat="49.2986" lon="3.90832">
        <ele>144</ele>
        <time>2019-05-07T11:20:13Z</time>
      </trkpt>
      <trkpt lat="49.29831" lon="3.90853">
        <ele>143</ele>
        <time>2019-05-07T11:20:16Z</time>
      </trkpt>
      <trkpt lat="49.29803" lon="3.90871">
        <ele>142</ele>
        <time>2019-05-07T11:20:19Z</time>
      </trkpt>
      <trkpt lat="49.29776" lon="3.90889">
        <ele>141</ele>
        <time>2019-05-07T11:20:22Z</time>
      </trkpt>
      <trkpt lat="49.29751" lon="3.90905">
        <ele>139</ele>
        <time>2019-05-07T11:20:25Z</time>
      </trkpt>
      <trkpt lat="49.29726" lon="3.90921">
        <ele>137</ele>
        <time>2019-05-07T11:20:28Z</time>
      </trkpt>
      <trkpt lat="49.297" lon="3.90937">
        <ele>135</ele>
        <time>2019-05-07T11:20:31Z</time>
      </trkpt>
      <trkpt lat="49.29674" lon="3.90953">
        <ele>134</ele>
        <time>2019-05-07T11:20:34Z</time>
      </trkpt>
      <trkpt lat="49.29648" lon="3.90969">
        <ele>132</ele>
        <time>2019-05-07T11:20:37Z</time>
      </trkpt>
      <trkpt lat="49.29622" lon="3.90986">
        <ele>132</ele>
        <time>2019-05-07T11:20:40Z</time>
      </trkpt>
      <trkpt lat="49.29596" lon="3.91002">
        <ele>131</ele>
        <time>2019-05-07T11:20:43Z</time>
      </trkpt>
      <trkpt lat="49.29571" lon="3.91018">
        <ele>131</ele>
        <time>2019-05-07T11:20:46Z</time>
      </trkpt>
      <trkpt lat="49.29546" lon="3.91034">
        <ele>131</ele>
        <time>2019-05-07T11:20:49Z</time>
      </trkpt>
      <trkpt lat="49.29523" lon="3.91048">
        <ele>132</ele>
        <time>2019-05-07T11:20:52Z</time>
      </trkpt>
      <trkpt lat="49.29503" lon="3.91061">
        <ele>132</ele>
        <time>2019-05-07T11:20:55Z</time>
      </trkpt>
      <trkpt lat="49.29484" lon="3.91073">
        <ele>132</ele>
        <time>2019-05-07T11:20:58Z</time>
      </trkpt>
      <trkpt lat="49.29451" lon="3.91093">
        <ele>132</ele>
        <time>2019-05-07T11:21:04Z</time>
      </trkpt>
      <trkpt lat="49.29419" lon="3.91113">
        <ele>132</ele>
        <time>2019-05-07T11:21:10Z</time>
      </trkpt>
      <trkpt lat="49.29401" lon="3.91124">
        <ele>132</ele>
        <time>2019-05-07T11:21:13Z</time>
      </trkpt>
      <trkpt lat="49.29381" lon="3.91137">
        <ele>131</ele>
        <time>2019-05-07T11:21:16Z</time>
      </trkpt>
      <trkpt lat="49.29361" lon="3.91151">
        <ele>131</ele>
        <time>2019-05-07T11:21:19Z</time>
      </trkpt>
      <trkpt lat="49.29339" lon="3.91165">
        <ele>131</ele>
        <time>2019-05-07T11:21:22Z</time>
      </trkpt>
      <trkpt lat="49.2932" lon="3.91178">
        <ele>132</ele>
        <time>2019-05-07T11:21:25Z</time>
      </trkpt>
      <trkpt lat="49.29303" lon="3.91192">
        <ele>132</ele>
        <time>2019-05-07T11:21:28Z</time>
      </trkpt>
      <trkpt lat="49.29287" lon="3.91208">
        <ele>133</ele>
        <time>2019-05-07T11:21:31Z</time>
      </trkpt>
      <trkpt lat="49.29264" lon="3.91237">
        <ele>134</ele>
        <time>2019-05-07T11:21:37Z</time>
      </trkpt>
      <trkpt lat="49.29246" lon="3.91262">
        <ele>135</ele>
        <time>2019-05-07T11:21:43Z</time>
      </trkpt>
      <trkpt lat="49.29232" lon="3.91287">
        <ele>135</ele>
        <time>2019-05-07T11:21:49Z</time>
      </trkpt>
      <trkpt lat="49.29219" lon="3.91308">
        <ele>135</ele>
        <time>2019-05-07T11:21:55Z</time>
      </trkpt>
      <trkpt lat="49.29206" lon="3.91328">
        <ele>136</ele>
        <time>2019-05-07T11:22:01Z</time>
      </trkpt>
      <trkpt lat="49.29187" lon="3.91356">
        <ele>137</ele>
        <time>2019-05-07T11:22:10Z</time>
      </trkpt>
      <trkpt lat="49.29172" lon="3.91373">
        <ele>138</ele>
        <time>2019-05-07T11:22:17Z</time>
      </trkpt>
      <trkpt lat="49.29153" lon="3.91393">
        <ele>139</ele>
        <time>2019-05-07T11:22:26Z</time>
      </trkpt>
      <trkpt lat="49.29129" lon="3.91411">
        <ele>139</ele>
        <time>2019-05-07T11:22:35Z</time>
      </trkpt>
      <trkpt lat="49.29111" lon="3.91426">
        <ele>140</ele>
        <time>2019-05-07T11:22:41Z</time>
      </trkpt>
      <trkpt lat="49.2909" lon="3.9144">
        <ele>140</ele>
        <time>2019-05-07T11:22:47Z</time>
      </trkpt>
      <trkpt lat="49.29069" lon="3.91456">
        <ele>141</ele>
        <time>2019-05-07T11:22:53Z</time>
      </trkpt>
      <trkpt lat="49.29047" lon="3.91471">
        <ele>141</ele>
        <time>2019-05-07T11:22:59Z</time>
      </trkpt>
      <trkpt lat="49.29025" lon="3.91486">
        <ele>141</ele>
        <time>2019-05-07T11:23:05Z</time>
      </trkpt>
      <trkpt lat="49.29003" lon="3.91503">
        <ele>142</ele>
        <time>2019-05-07T11:23:11Z</time>
      </trkpt>
      <trkpt lat="49.2898" lon="3.9152">
        <ele>142</ele>
        <time>2019-05-07T11:23:17Z</time>
      </trkpt>
      <trkpt lat="49.28959" lon="3.91535">
        <ele>142</ele>
        <time>2019-05-07T11:23:23Z</time>
      </trkpt>
      <trkpt lat="49.2894" lon="3.9155">
        <ele>142</ele>
        <time>2019-05-07T11:23:29Z</time>
      </trkpt>
      <trkpt lat="49.28921" lon="3.91573">
        <ele>141</ele>
        <time>2019-05-07T11:23:35Z</time>
      </trkpt>
      <trkpt lat="49.28916" lon="3.91611">
        <ele>141</ele>
        <time>2019-05-07T11:23:41Z</time>
      </trkpt>
      <trkpt lat="49.28915" lon="3.91657">
        <ele>140</ele>
        <time>2019-05-07T11:23:47Z</time>
      </trkpt>
      <trkpt lat="49.28914" lon="3.91704">
        <ele>140</ele>
        <time>2019-05-07T11:23:53Z</time>
      </trkpt>
      <trkpt lat="49.2891" lon="3.91747">
        <ele>141</ele>
        <time>2019-05-07T11:23:59Z</time>
      </trkpt>
      <trkpt lat="49.28894" lon="3.91781">
        <ele>141</ele>
        <time>2019-05-07T11:24:05Z</time>
      </trkpt>
      <trkpt lat="49.28873" lon="3.918">
        <ele>141</ele>
        <time>2019-05-07T11:24:11Z</time>
      </trkpt>
      <trkpt lat="49.28854" lon="3.91818">
        <ele>142</ele>
        <time>2019-05-07T11:24:17Z</time>
      </trkpt>
      <trkpt lat="49.28836" lon="3.91835">
        <ele>142</ele>
        <time>2019-05-07T11:24:23Z</time>
      </trkpt>
      <trkpt lat="49.28819" lon="3.91857">
        <ele>143</ele>
        <time>2019-05-07T11:24:29Z</time>
      </trkpt>
      <trkpt lat="49.28801" lon="3.91883">
        <ele>144</ele>
        <time>2019-05-07T11:24:35Z</time>
      </trkpt>
      <trkpt lat="49.28787" lon="3.91906">
        <ele>146</ele>
        <time>2019-05-07T11:24:41Z</time>
      </trkpt>
      <trkpt lat="49.28774" lon="3.91929">
        <ele>147</ele>
        <time>2019-05-07T11:24:47Z</time>
      </trkpt>
      <trkpt lat="49.28761" lon="3.91961">
        <ele>147</ele>
        <time>2019-05-07T11:24:53Z</time>
      </trkpt>
      <trkpt lat="49.28752" lon="3.91985">
        <ele>147</ele>
        <time>2019-05-07T11:24:57Z</time>
      </trkpt>
      <trkpt lat="49.28738" lon="3.92027">
        <ele>146</ele>
        <time>2019-05-07T11:25:03Z</time>
      </trkpt>
      <trkpt lat="49.28725" lon="3.92066">
        <ele>146</ele>
        <time>2019-05-07T11:25:09Z</time>
      </trkpt>
      <trkpt lat="49.28711" lon="3.92105">
        <ele>146</ele>
        <time>2019-05-07T11:25:15Z</time>
      </trkpt>
      <trkpt lat="49.28698" lon="3.92146">
        <ele>146</ele>
        <time>2019-05-07T11:25:21Z</time>
      </trkpt>
      <trkpt lat="49.28685" lon="3.92186">
        <ele>145</ele>
        <time>2019-05-07T11:25:27Z</time>
      </trkpt>
      <trkpt lat="49.28671" lon="3.92224">
        <ele>145</ele>
        <time>2019-05-07T11:25:33Z</time>
      </trkpt>
      <trkpt lat="49.28658" lon="3.9226">
        <ele>145</ele>
        <time>2019-05-07T11:25:39Z</time>
      </trkpt>
      <trkpt lat="49.28643" lon="3.92297">
        <ele>145</ele>
        <time>2019-05-07T11:25:45Z</time>
      </trkpt>
      <trkpt lat="49.28628" lon="3.92336">
        <ele>145</ele>
        <time>2019-05-07T11:25:51Z</time>
      </trkpt>
      <trkpt lat="49.28612" lon="3.92379">
        <ele>145</ele>
        <time>2019-05-07T11:25:57Z</time>
      </trkpt>
      <trkpt lat="49.28595" lon="3.92423">
        <ele>145</ele>
        <time>2019-05-07T11:26:03Z</time>
      </trkpt>
      <trkpt lat="49.28578" lon="3.9247">
        <ele>145</ele>
        <time>2019-05-07T11:26:09Z</time>
      </trkpt>
      <trkpt lat="49.28565" lon="3.92512">
        <ele>146</ele>
        <time>2019-05-07T11:26:15Z</time>
      </trkpt>
      <trkpt lat="49.28555" lon="3.92554">
        <ele>147</ele>
        <time>2019-05-07T11:26:21Z</time>
      </trkpt>
      <trkpt lat="49.28548" lon="3.92598">
        <ele>147</ele>
        <time>2019-05-07T11:26:27Z</time>
      </trkpt>
      <trkpt lat="49.28543" lon="3.92639">
        <ele>148</ele>
        <time>2019-05-07T11:26:33Z</time>
      </trkpt>
      <trkpt lat="49.28539" lon="3.9268">
        <ele>148</ele>
        <time>2019-05-07T11:26:39Z</time>
      </trkpt>
      <trkpt lat="49.28534" lon="3.9272">
        <ele>149</ele>
        <time>2019-05-07T11:26:45Z</time>
      </trkpt>
      <trkpt lat="49.2853" lon="3.92762">
        <ele>150</ele>
        <time>2019-05-07T11:26:51Z</time>
      </trkpt>
      <trkpt lat="49.28528" lon="3.92801">
        <ele>150</ele>
        <time>2019-05-07T11:26:57Z</time>
      </trkpt>
      <trkpt lat="49.28524" lon="3.92841">
        <ele>151</ele>
        <time>2019-05-07T11:27:03Z</time>
      </trkpt>
      <trkpt lat="49.28519" lon="3.92878">
        <ele>153</ele>
        <time>2019-05-07T11:27:09Z</time>
      </trkpt>
      <trkpt lat="49.28517" lon="3.9291">
        <ele>154</ele>
        <time>2019-05-07T11:27:15Z</time>
      </trkpt>
      <trkpt lat="49.28511" lon="3.92945">
        <ele>155</ele>
        <time>2019-05-07T11:27:21Z</time>
      </trkpt>
      <trkpt lat="49.28508" lon="3.92983">
        <ele>156</ele>
        <time>2019-05-07T11:27:27Z</time>
      </trkpt>
      <trkpt lat="49.28505" lon="3.93022">
        <ele>156</ele>
        <time>2019-05-07T11:27:33Z</time>
      </trkpt>
      <trkpt lat="49.28499" lon="3.93069">
        <ele>155</ele>
        <time>2019-05-07T11:27:39Z</time>
      </trkpt>
      <trkpt lat="49.28496" lon="3.93097">
        <ele>155</ele>
        <time>2019-05-07T11:27:42Z</time>
      </trkpt>
      <trkpt lat="49.28493" lon="3.9313">
        <ele>154</ele>
        <time>2019-05-07T11:27:45Z</time>
      </trkpt>
      <trkpt lat="49.28489" lon="3.93166">
        <ele>153</ele>
        <time>2019-05-07T11:27:48Z</time>
      </trkpt>
      <trkpt lat="49.28483" lon="3.93208">
        <ele>150</ele>
        <time>2019-05-07T11:27:51Z</time>
      </trkpt>
      <trkpt lat="49.28477" lon="3.93253">
        <ele>148</ele>
        <time>2019-05-07T11:27:54Z</time>
      </trkpt>
      <trkpt lat="49.2847" lon="3.93302">
        <ele>145</ele>
        <time>2019-05-07T11:27:57Z</time>
      </trkpt>
      <trkpt lat="49.28462" lon="3.9335">
        <ele>143</ele>
        <time>2019-05-07T11:28:00Z</time>
      </trkpt>
      <trkpt lat="49.28454" lon="3.93401">
        <ele>141</ele>
        <time>2019-05-07T11:28:03Z</time>
      </trkpt>
      <trkpt lat="49.28447" lon="3.93452">
        <ele>139</ele>
        <time>2019-05-07T11:28:06Z</time>
      </trkpt>
      <trkpt lat="49.28439" lon="3.93503">
        <ele>137</ele>
        <time>2019-05-07T11:28:09Z</time>
      </trkpt>
      <trkpt lat="49.28431" lon="3.93551">
        <ele>136</ele>
        <time>2019-05-07T11:28:12Z</time>
      </trkpt>
      <trkpt lat="49.28424" lon="3.93597">
        <ele>135</ele>
        <time>2019-05-07T11:28:15Z</time>
      </trkpt>
      <trkpt lat="49.28418" lon="3.9364">
        <ele>134</ele>
        <time>2019-05-07T11:28:18Z</time>
      </trkpt>
      <trkpt lat="49.28412" lon="3.93682">
        <ele>134</ele>
        <time>2019-05-07T11:28:21Z</time>
      </trkpt>
      <trkpt lat="49.28407" lon="3.93725">
        <ele>133</ele>
        <time>2019-05-07T11:28:24Z</time>
      </trkpt>
      <trkpt lat="49.28402" lon="3.93767">
        <ele>133</ele>
        <time>2019-05-07T11:28:27Z</time>
      </trkpt>
      <trkpt lat="49.28396" lon="3.93808">
        <ele>134</ele>
        <time>2019-05-07T11:28:30Z</time>
      </trkpt>
      <trkpt lat="49.2839" lon="3.93847">
        <ele>134</ele>
        <time>2019-05-07T11:28:33Z</time>
      </trkpt>
      <trkpt lat="49.28385" lon="3.93882">
        <ele>134</ele>
        <time>2019-05-07T11:28:36Z</time>
      </trkpt>
      <trkpt lat="49.28381" lon="3.93912">
        <ele>134</ele>
        <time>2019-05-07T11:28:39Z</time>
      </trkpt>
      <trkpt lat="49.28372" lon="3.93961">
        <ele>134</ele>
        <time>2019-05-07T11:28:45Z</time>
      </trkpt>
      <trkpt lat="49.28363" lon="3.94005">
        <ele>135</ele>
        <time>2019-05-07T11:28:51Z</time>
      </trkpt>
      <trkpt lat="49.28355" lon="3.94046">
        <ele>134</ele>
        <time>2019-05-07T11:28:57Z</time>
      </trkpt>
      <trkpt lat="49.28345" lon="3.94092">
        <ele>134</ele>
        <time>2019-05-07T11:29:03Z</time>
      </trkpt>
      <trkpt lat="49.28336" lon="3.9414">
        <ele>133</ele>
        <time>2019-05-07T11:29:09Z</time>
      </trkpt>
      <trkpt lat="49.28325" lon="3.94191">
        <ele>132</ele>
        <time>2019-05-07T11:29:15Z</time>
      </trkpt>
      <trkpt lat="49.28319" lon="3.94218">
        <ele>131</ele>
        <time>2019-05-07T11:29:18Z</time>
      </trkpt>
      <trkpt lat="49.28314" lon="3.94245">
        <ele>131</ele>
        <time>2019-05-07T11:29:21Z</time>
      </trkpt>
      <trkpt lat="49.28308" lon="3.94272">
        <ele>131</ele>
        <time>2019-05-07T11:29:24Z</time>
      </trkpt>
      <trkpt lat="49.28302" lon="3.94301">
        <ele>130</ele>
        <time>2019-05-07T11:29:27Z</time>
      </trkpt>
      <trkpt lat="49.28296" lon="3.9433">
        <ele>130</ele>
        <time>2019-05-07T11:29:30Z</time>
      </trkpt>
      <trkpt lat="49.28291" lon="3.94358">
        <ele>129</ele>
        <time>2019-05-07T11:29:33Z</time>
      </trkpt>
      <trkpt lat="49.28281" lon="3.94404">
        <ele>129</ele>
        <time>2019-05-07T11:29:39Z</time>
      </trkpt>
      <trkpt lat="49.28249" lon="3.94404">
        <ele>128</ele>
        <time>2019-05-07T11:29:45Z</time>
      </trkpt>
      <trkpt lat="49.28229" lon="3.944">
        <ele>127</ele>
        <time>2019-05-07T11:29:48Z</time>
      </trkpt>
      <trkpt lat="49.28209" lon="3.94396">
        <ele>126</ele>
        <time>2019-05-07T11:29:51Z</time>
      </trkpt>
      <trkpt lat="49.28189" lon="3.94395">
        <ele>125</ele>
        <time>2019-05-07T11:29:54Z</time>
      </trkpt>
      <trkpt lat="49.28169" lon="3.94395">
        <ele>124</ele>
        <time>2019-05-07T11:29:57Z</time>
      </trkpt>
      <trkpt lat="49.2815" lon="3.94397">
        <ele>123</ele>
        <time>2019-05-07T11:30:00Z</time>
      </trkpt>
      <trkpt lat="49.28129" lon="3.94399">
        <ele>123</ele>
        <time>2019-05-07T11:30:03Z</time>
      </trkpt>
      <trkpt lat="49.28109" lon="3.944">
        <ele>122</ele>
        <time>2019-05-07T11:30:06Z</time>
      </trkpt>
      <trkpt lat="49.28088" lon="3.94401">
        <ele>121</ele>
        <time>2019-05-07T11:30:09Z</time>
      </trkpt>
      <trkpt lat="49.28067" lon="3.94403">
        <ele>120</ele>
        <time>2019-05-07T11:30:12Z</time>
      </trkpt>
      <trkpt lat="49.28046" lon="3.94405">
        <ele>120</ele>
        <time>2019-05-07T11:30:15Z</time>
      </trkpt>
      <trkpt lat="49.28027" lon="3.94407">
        <ele>120</ele>
        <time>2019-05-07T11:30:18Z</time>
      </trkpt>
      <trkpt lat="49.28007" lon="3.94408">
        <ele>120</ele>
        <time>2019-05-07T11:30:21Z</time>
      </trkpt>
      <trkpt lat="49.27988" lon="3.9441">
        <ele>119</ele>
        <time>2019-05-07T11:30:24Z</time>
      </trkpt>
      <trkpt lat="49.27969" lon="3.9441">
        <ele>119</ele>
        <time>2019-05-07T11:30:27Z</time>
      </trkpt>
      <trkpt lat="49.27951" lon="3.94404">
        <ele>119</ele>
        <time>2019-05-07T11:30:30Z</time>
      </trkpt>
      <trkpt lat="49.27933" lon="3.94394">
        <ele>119</ele>
        <time>2019-05-07T11:30:33Z</time>
      </trkpt>
      <trkpt lat="49.27916" lon="3.94384">
        <ele>119</ele>
        <time>2019-05-07T11:30:36Z</time>
      </trkpt>
      <trkpt lat="49.27884" lon="3.94366">
        <ele>119</ele>
        <time>2019-05-07T11:30:42Z</time>
      </trkpt>
      <trkpt lat="49.27849" lon="3.94356">
        <ele>119</ele>
        <time>2019-05-07T11:30:48Z</time>
      </trkpt>
      <trkpt lat="49.27831" lon="3.94357">
        <ele>118</ele>
        <time>2019-05-07T11:30:51Z</time>
      </trkpt>
      <trkpt lat="49.27812" lon="3.94362">
        <ele>118</ele>
        <time>2019-05-07T11:30:54Z</time>
      </trkpt>
      <trkpt lat="49.27793" lon="3.94366">
        <ele>117</ele>
        <time>2019-05-07T11:30:57Z</time>
      </trkpt>
      <trkpt lat="49.27774" lon="3.94371">
        <ele>117</ele>
        <time>2019-05-07T11:31:00Z</time>
      </trkpt>
      <trkpt lat="49.27734" lon="3.94381">
        <ele>117</ele>
        <time>2019-05-07T11:31:07Z</time>
      </trkpt>
      <trkpt lat="49.27694" lon="3.9439">
        <ele>117</ele>
        <time>2019-05-07T11:31:14Z</time>
      </trkpt>
      <trkpt lat="49.27676" lon="3.94394">
        <ele>117</ele>
        <time>2019-05-07T11:31:17Z</time>
      </trkpt>
      <trkpt lat="49.27643" lon="3.944">
        <ele>117</ele>
        <time>2019-05-07T11:31:23Z</time>
      </trkpt>
      <trkpt lat="49.27613" lon="3.94407">
        <ele>117</ele>
        <time>2019-05-07T11:31:29Z</time>
      </trkpt>
      <trkpt lat="49.27583" lon="3.94414">
        <ele>117</ele>
        <time>2019-05-07T11:31:35Z</time>
      </trkpt>
      <trkpt lat="49.27553" lon="3.94421">
        <ele>118</ele>
        <time>2019-05-07T11:31:41Z</time>
      </trkpt>
      <trkpt lat="49.27525" lon="3.94428">
        <ele>117</ele>
        <time>2019-05-07T11:31:47Z</time>
      </trkpt>
      <trkpt lat="49.275" lon="3.94433">
        <ele>118</ele>
        <time>2019-05-07T11:31:53Z</time>
      </trkpt>
      <trkpt lat="49.27474" lon="3.94438">
        <ele>117</ele>
        <time>2019-05-07T11:31:59Z</time>
      </trkpt>
      <trkpt lat="49.27452" lon="3.94441">
        <ele>118</ele>
        <time>2019-05-07T11:32:05Z</time>
      </trkpt>
      <trkpt lat="49.27428" lon="3.94447">
        <ele>118</ele>
        <time>2019-05-07T11:32:11Z</time>
      </trkpt>
      <trkpt lat="49.27405" lon="3.94456">
        <ele>118</ele>
        <time>2019-05-07T11:32:17Z</time>
      </trkpt>
      <trkpt lat="49.27384" lon="3.94462">
        <ele>119</ele>
        <time>2019-05-07T11:32:23Z</time>
      </trkpt>
      <trkpt lat="49.27362" lon="3.94479">
        <ele>119</ele>
        <time>2019-05-07T11:32:29Z</time>
      </trkpt>
      <trkpt lat="49.27353" lon="3.94517">
        <ele>119</ele>
        <time>2019-05-07T11:32:35Z</time>
      </trkpt>
      <trkpt lat="49.27352" lon="3.94558">
        <ele>119</ele>
        <time>2019-05-07T11:32:41Z</time>
      </trkpt>
      <trkpt lat="49.27352" lon="3.94602">
        <ele>119</ele>
        <time>2019-05-07T11:32:47Z</time>
      </trkpt>
      <trkpt lat="49.27351" lon="3.94647">
        <ele>120</ele>
        <time>2019-05-07T11:32:53Z</time>
      </trkpt>
      <trkpt lat="49.2735" lon="3.94694">
        <ele>120</ele>
        <time>2019-05-07T11:32:59Z</time>
      </trkpt>
      <trkpt lat="49.2735" lon="3.94738">
        <ele>120</ele>
        <time>2019-05-07T11:33:05Z</time>
      </trkpt>
      <trkpt lat="49.2735" lon="3.94785">
        <ele>120</ele>
        <time>2019-05-07T11:33:11Z</time>
      </trkpt>
      <trkpt lat="49.2735" lon="3.94833">
        <ele>120</ele>
        <time>2019-05-07T11:33:17Z</time>
      </trkpt>
      <trkpt lat="49.27349" lon="3.94879">
        <ele>120</ele>
        <time>2019-05-07T11:33:23Z</time>
      </trkpt>
      <trkpt lat="49.27348" lon="3.94925">
        <ele>120</ele>
        <time>2019-05-07T11:33:29Z</time>
      </trkpt>
      <trkpt lat="49.27348" lon="3.94973">
        <ele>120</ele>
        <time>2019-05-07T11:33:35Z</time>
      </trkpt>
      <trkpt lat="49.27348" lon="3.95022">
        <ele>120</ele>
        <time>2019-05-07T11:33:41Z</time>
      </trkpt>
      <trkpt lat="49.27347" lon="3.95067">
        <ele>120</ele>
        <time>2019-05-07T11:33:47Z</time>
      </trkpt>
      <trkpt lat="49.27345" lon="3.95107">
        <ele>121</ele>
        <time>2019-05-07T11:33:53Z</time>
      </trkpt>
      <trkpt lat="49.27342" lon="3.95146">
        <ele>122</ele>
        <time>2019-05-07T11:33:59Z</time>
      </trkpt>
      <trkpt lat="49.27339" lon="3.95183">
        <ele>123</ele>
        <time>2019-05-07T11:34:05Z</time>
      </trkpt>
      <trkpt lat="49.27336" lon="3.9522">
        <ele>124</ele>
        <time>2019-05-07T11:34:11Z</time>
      </trkpt>
      <trkpt lat="49.27332" lon="3.95256">
        <ele>125</ele>
        <time>2019-05-07T11:34:17Z</time>
      </trkpt>
      <trkpt lat="49.27327" lon="3.95289">
        <ele>125</ele>
        <time>2019-05-07T11:34:23Z</time>
      </trkpt>
      <trkpt lat="49.27322" lon="3.9532">
        <ele>127</ele>
        <time>2019-05-07T11:34:29Z</time>
      </trkpt>
      <trkpt lat="49.27317" lon="3.95351">
        <ele>128</ele>
        <time>2019-05-07T11:34:35Z</time>
      </trkpt>
      <trkpt lat="49.27312" lon="3.95383">
        <ele>129</ele>
        <time>2019-05-07T11:34:41Z</time>
      </trkpt>
      <trkpt lat="49.27305" lon="3.95416">
        <ele>129</ele>
        <time>2019-05-07T11:34:47Z</time>
      </trkpt>
      <trkpt lat="49.27298" lon="3.95448">
        <ele>129</ele>
        <time>2019-05-07T11:34:53Z</time>
      </trkpt>
      <trkpt lat="49.27291" lon="3.9548">
        <ele>130</ele>
        <time>2019-05-07T11:34:59Z</time>
      </trkpt>
      <trkpt lat="49.27283" lon="3.95511">
        <ele>130</ele>
        <time>2019-05-07T11:35:05Z</time>
      </trkpt>
      <trkpt lat="49.27275" lon="3.95542">
        <ele>131</ele>
        <time>2019-05-07T11:35:11Z</time>
      </trkpt>
      <trkpt lat="49.27265" lon="3.95575">
        <ele>130</ele>
        <time>2019-05-07T11:35:17Z</time>
      </trkpt>
      <trkpt lat="49.27254" lon="3.9561">
        <ele>131</ele>
        <time>2019-05-07T11:35:23Z</time>
      </trkpt>
      <trkpt lat="49.27244" lon="3.95644">
        <ele>132</ele>
        <time>2019-05-07T11:35:29Z</time>
      </trkpt>
      <trkpt lat="49.27234" lon="3.95677">
        <ele>132</ele>
        <time>2019-05-07T11:35:35Z</time>
      </trkpt>
      <trkpt lat="49.27221" lon="3.95716">
        <ele>132</ele>
        <time>2019-05-07T11:35:41Z</time>
      </trkpt>
      <trkpt lat="49.27209" lon="3.95757">
        <ele>132</ele>
        <time>2019-05-07T11:35:47Z</time>
      </trkpt>
      <trkpt lat="49.27195" lon="3.95799">
        <ele>133</ele>
        <time>2019-05-07T11:35:53Z</time>
      </trkpt>
      <trkpt lat="49.27181" lon="3.95849">
        <ele>133</ele>
        <time>2019-05-07T11:35:59Z</time>
      </trkpt>
      <trkpt lat="49.27166" lon="3.95897">
        <ele>132</ele>
        <time>2019-05-07T11:36:05Z</time>
      </trkpt>
      <trkpt lat="49.27158" lon="3.95923">
        <ele>132</ele>
        <time>2019-05-07T11:36:08Z</time>
      </trkpt>
      <trkpt lat="49.27151" lon="3.95949">
        <ele>131</ele>
        <time>2019-05-07T11:36:11Z</time>
      </trkpt>
      <trkpt lat="49.27136" lon="3.95996">
        <ele>130</ele>
        <time>2019-05-07T11:36:17Z</time>
      </trkpt>
      <trkpt lat="49.27124" lon="3.9604">
        <ele>130</ele>
        <time>2019-05-07T11:36:23Z</time>
      </trkpt>
      <trkpt lat="49.27113" lon="3.96082">
        <ele>130</ele>
        <time>2019-05-07T11:36:29Z</time>
      </trkpt>
      <trkpt lat="49.271" lon="3.96136">
        <ele>131</ele>
        <time>2019-05-07T11:36:35Z</time>
      </trkpt>
      <trkpt lat="49.27094" lon="3.96162">
        <ele>130</ele>
        <time>2019-05-07T11:36:38Z</time>
      </trkpt>
      <trkpt lat="49.27088" lon="3.9619">
        <ele>130</ele>
        <time>2019-05-07T11:36:41Z</time>
      </trkpt>
      <trkpt lat="49.27083" lon="3.96216">
        <ele>128</ele>
        <time>2019-05-07T11:36:44Z</time>
      </trkpt>
      <trkpt lat="49.27078" lon="3.96243">
        <ele>128</ele>
        <time>2019-05-07T11:36:47Z</time>
      </trkpt>
      <trkpt lat="49.27072" lon="3.96269">
        <ele>127</ele>
        <time>2019-05-07T11:36:50Z</time>
      </trkpt>
      <trkpt lat="49.27066" lon="3.96296">
        <ele>127</ele>
        <time>2019-05-07T11:36:53Z</time>
      </trkpt>
      <trkpt lat="49.27055" lon="3.96344">
        <ele>127</ele>
        <time>2019-05-07T11:36:59Z</time>
      </trkpt>
      <trkpt lat="49.27043" lon="3.9639">
        <ele>126</ele>
        <time>2019-05-07T11:37:05Z</time>
      </trkpt>
      <trkpt lat="49.27034" lon="3.96427">
        <ele>127</ele>
        <time>2019-05-07T11:37:11Z</time>
      </trkpt>
      <trkpt lat="49.27025" lon="3.9647">
        <ele>127</ele>
        <time>2019-05-07T11:37:17Z</time>
      </trkpt>
      <trkpt lat="49.27014" lon="3.96517">
        <ele>129</ele>
        <time>2019-05-07T11:37:23Z</time>
      </trkpt>
      <trkpt lat="49.27003" lon="3.96565">
        <ele>128</ele>
        <time>2019-05-07T11:37:29Z</time>
      </trkpt>
      <trkpt lat="49.26992" lon="3.96616">
        <ele>128</ele>
        <time>2019-05-07T11:37:35Z</time>
      </trkpt>
      <trkpt lat="49.26982" lon="3.96665">
        <ele>127</ele>
        <time>2019-05-07T11:37:41Z</time>
      </trkpt>
      <trkpt lat="49.26969" lon="3.96712">
        <ele>127</ele>
        <time>2019-05-07T11:37:47Z</time>
      </trkpt>
      <trkpt lat="49.26957" lon="3.96754">
        <ele>128</ele>
        <time>2019-05-07T11:37:53Z</time>
      </trkpt>
      <trkpt lat="49.26946" lon="3.96795">
        <ele>129</ele>
        <time>2019-05-07T11:37:59Z</time>
      </trkpt>
      <trkpt lat="49.26933" lon="3.96838">
        <ele>129</ele>
        <time>2019-05-07T11:38:05Z</time>
      </trkpt>
      <trkpt lat="49.2692" lon="3.96885">
        <ele>129</ele>
        <time>2019-05-07T11:38:11Z</time>
      </trkpt>
      <trkpt lat="49.26912" lon="3.96912">
        <ele>129</ele>
        <time>2019-05-07T11:38:14Z</time>
      </trkpt>
      <trkpt lat="49.26903" lon="3.96941">
        <ele>128</ele>
        <time>2019-05-07T11:38:17Z</time>
      </trkpt>
      <trkpt lat="49.26895" lon="3.96968">
        <ele>128</ele>
        <time>2019-05-07T11:38:20Z</time>
      </trkpt>
      <trkpt lat="49.26886" lon="3.96997">
        <ele>128</ele>
        <time>2019-05-07T11:38:23Z</time>
      </trkpt>
      <trkpt lat="49.26879" lon="3.97028">
        <ele>127</ele>
        <time>2019-05-07T11:38:26Z</time>
      </trkpt>
      <trkpt lat="49.26875" lon="3.97057">
        <ele>126</ele>
        <time>2019-05-07T11:38:29Z</time>
      </trkpt>
      <trkpt lat="49.26871" lon="3.97109">
        <ele>124</ele>
        <time>2019-05-07T11:38:35Z</time>
      </trkpt>
      <trkpt lat="49.26871" lon="3.97138">
        <ele>124</ele>
        <time>2019-05-07T11:38:38Z</time>
      </trkpt>
      <trkpt lat="49.26869" lon="3.97165">
        <ele>125</ele>
        <time>2019-05-07T11:38:41Z</time>
      </trkpt>
      <trkpt lat="49.26867" lon="3.97194">
        <ele>124</ele>
        <time>2019-05-07T11:38:44Z</time>
      </trkpt>
      <trkpt lat="49.26865" lon="3.97224">
        <ele>123</ele>
        <time>2019-05-07T11:38:47Z</time>
      </trkpt>
      <trkpt lat="49.26858" lon="3.97253">
        <ele>122</ele>
        <time>2019-05-07T11:38:50Z</time>
      </trkpt>
      <trkpt lat="49.26843" lon="3.97271">
        <ele>122</ele>
        <time>2019-05-07T11:38:53Z</time>
      </trkpt>
      <trkpt lat="49.26824" lon="3.97279">
        <ele>121</ele>
        <time>2019-05-07T11:38:56Z</time>
      </trkpt>
      <trkpt lat="49.26804" lon="3.97286">
        <ele>121</ele>
        <time>2019-05-07T11:38:59Z</time>
      </trkpt>
      <trkpt lat="49.26786" lon="3.97293">
        <ele>120</ele>
        <time>2019-05-07T11:39:02Z</time>
      </trkpt>
      <trkpt lat="49.26768" lon="3.97301">
        <ele>120</ele>
        <time>2019-05-07T11:39:05Z</time>
      </trkpt>
      <trkpt lat="49.26735" lon="3.9732">
        <ele>120</ele>
        <time>2019-05-07T11:39:11Z</time>
      </trkpt>
      <trkpt lat="49.26702" lon="3.97337">
        <ele>121</ele>
        <time>2019-05-07T11:39:17Z</time>
      </trkpt>
      <trkpt lat="49.26672" lon="3.97358">
        <ele>121</ele>
        <time>2019-05-07T11:39:23Z</time>
      </trkpt>
      <trkpt lat="49.26642" lon="3.9738">
        <ele>122</ele>
        <time>2019-05-07T11:39:29Z</time>
      </trkpt>
      <trkpt lat="49.26617" lon="3.974">
        <ele>122</ele>
        <time>2019-05-07T11:39:35Z</time>
      </trkpt>
      <trkpt lat="49.26593" lon="3.97417">
        <ele>123</ele>
        <time>2019-05-07T11:39:41Z</time>
      </trkpt>
      <trkpt lat="49.26571" lon="3.97437">
        <ele>123</ele>
        <time>2019-05-07T11:39:47Z</time>
      </trkpt>
      <trkpt lat="49.26547" lon="3.97463">
        <ele>122</ele>
        <time>2019-05-07T11:39:53Z</time>
      </trkpt>
      <trkpt lat="49.26527" lon="3.97496">
        <ele>122</ele>
        <time>2019-05-07T11:39:59Z</time>
      </trkpt>
      <trkpt lat="49.26507" lon="3.97531">
        <ele>122</ele>
        <time>2019-05-07T11:40:05Z</time>
      </trkpt>
      <trkpt lat="49.26485" lon="3.97566">
        <ele>121</ele>
        <time>2019-05-07T11:40:11Z</time>
      </trkpt>
      <trkpt lat="49.26456" lon="3.97595">
        <ele>121</ele>
        <time>2019-05-07T11:40:17Z</time>
      </trkpt>
      <trkpt lat="49.26423" lon="3.97615">
        <ele>121</ele>
        <time>2019-05-07T11:40:23Z</time>
      </trkpt>
      <trkpt lat="49.26392" lon="3.97633">
        <ele>121</ele>
        <time>2019-05-07T11:40:29Z</time>
      </trkpt>
      <trkpt lat="49.2636" lon="3.97653">
        <ele>121</ele>
        <time>2019-05-07T11:40:35Z</time>
      </trkpt>
      <trkpt lat="49.26329" lon="3.97678">
        <ele>121</ele>
        <time>2019-05-07T11:40:41Z</time>
      </trkpt>
      <trkpt lat="49.26316" lon="3.97697">
        <ele>121</ele>
        <time>2019-05-07T11:40:44Z</time>
      </trkpt>
      <trkpt lat="49.26304" lon="3.97723">
        <ele>121</ele>
        <time>2019-05-07T11:40:47Z</time>
      </trkpt>
      <trkpt lat="49.26295" lon="3.9775">
        <ele>121</ele>
        <time>2019-05-07T11:40:50Z</time>
      </trkpt>
      <trkpt lat="49.26288" lon="3.9778">
        <ele>121</ele>
        <time>2019-05-07T11:40:53Z</time>
      </trkpt>
      <trkpt lat="49.2628" lon="3.9781">
        <ele>122</ele>
        <time>2019-05-07T11:40:56Z</time>
      </trkpt>
      <trkpt lat="49.26273" lon="3.97839">
        <ele>122</ele>
        <time>2019-05-07T11:40:59Z</time>
      </trkpt>
      <trkpt lat="49.26267" lon="3.97868">
        <ele>122</ele>
        <time>2019-05-07T11:41:02Z</time>
      </trkpt>
      <trkpt lat="49.26261" lon="3.97899">
        <ele>122</ele>
        <time>2019-05-07T11:41:05Z</time>
      </trkpt>
      <trkpt lat="49.26255" lon="3.97928">
        <ele>122</ele>
        <time>2019-05-07T11:41:08Z</time>
      </trkpt>
      <trkpt lat="49.26251" lon="3.97958">
        <ele>122</ele>
        <time>2019-05-07T11:41:11Z</time>
      </trkpt>
      <trkpt lat="49.26246" lon="3.97986">
        <ele>122</ele>
        <time>2019-05-07T11:41:14Z</time>
      </trkpt>
      <trkpt lat="49.26236" lon="3.98038">
        <ele>123</ele>
        <time>2019-05-07T11:41:20Z</time>
      </trkpt>
      <trkpt lat="49.26226" lon="3.98087">
        <ele>126</ele>
        <time>2019-05-07T11:41:26Z</time>
      </trkpt>
      <trkpt lat="49.26203" lon="3.981">
        <ele>125</ele>
        <time>2019-05-07T11:41:32Z</time>
      </trkpt>
      <trkpt lat="49.26187" lon="3.98087">
        <ele>124</ele>
        <time>2019-05-07T11:41:35Z</time>
      </trkpt>
      <trkpt lat="49.26171" lon="3.98071">
        <ele>123</ele>
        <time>2019-05-07T11:41:38Z</time>
      </trkpt>
      <trkpt lat="49.26154" lon="3.98058">
        <ele>122</ele>
        <time>2019-05-07T11:41:41Z</time>
      </trkpt>
      <trkpt lat="49.26138" lon="3.98043">
        <ele>122</ele>
        <time>2019-05-07T11:41:44Z</time>
      </trkpt>
      <trkpt lat="49.26122" lon="3.9803">
        <ele>123</ele>
        <time>2019-05-07T11:41:47Z</time>
      </trkpt>
      <trkpt lat="49.26106" lon="3.98017">
        <ele>123</ele>
        <time>2019-05-07T11:41:50Z</time>
      </trkpt>
      <trkpt lat="49.26077" lon="3.97989">
        <ele>124</ele>
        <time>2019-05-07T11:41:56Z</time>
      </trkpt>
      <trkpt lat="49.26045" lon="3.97963">
        <ele>125</ele>
        <time>2019-05-07T11:42:02Z</time>
      </trkpt>
      <trkpt lat="49.26029" lon="3.97948">
        <ele>124</ele>
        <time>2019-05-07T11:42:05Z</time>
      </trkpt>
      <trkpt lat="49.26013" lon="3.97935">
        <ele>124</ele>
        <time>2019-05-07T11:42:08Z</time>
      </trkpt>
      <trkpt lat="49.25996" lon="3.97922">
        <ele>124</ele>
        <time>2019-05-07T11:42:11Z</time>
      </trkpt>
      <trkpt lat="49.25977" lon="3.97918">
        <ele>124</ele>
        <time>2019-05-07T11:42:14Z</time>
      </trkpt>
      <trkpt lat="49.25941" lon="3.97915">
        <ele>124</ele>
        <time>2019-05-07T11:42:20Z</time>
      </trkpt>
      <trkpt lat="49.25908" lon="3.97913">
        <ele>124</ele>
        <time>2019-05-07T11:42:26Z</time>
      </trkpt>
      <trkpt lat="49.25876" lon="3.97916">
        <ele>123</ele>
        <time>2019-05-07T11:42:32Z</time>
      </trkpt>
      <trkpt lat="49.25844" lon="3.97934">
        <ele>124</ele>
        <time>2019-05-07T11:42:38Z</time>
      </trkpt>
      <trkpt lat="49.25814" lon="3.97958">
        <ele>125</ele>
        <time>2019-05-07T11:42:44Z</time>
      </trkpt>
      <trkpt lat="49.25781" lon="3.97982">
        <ele>129</ele>
        <time>2019-05-07T11:42:50Z</time>
      </trkpt>
      <trkpt lat="49.25754" lon="3.98007">
        <ele>129</ele>
        <time>2019-05-07T11:42:56Z</time>
      </trkpt>
      <trkpt lat="49.25727" lon="3.98032">
        <ele>128</ele>
        <time>2019-05-07T11:43:02Z</time>
      </trkpt>
      <trkpt lat="49.25706" lon="3.98065">
        <ele>128</ele>
        <time>2019-05-07T11:43:08Z</time>
      </trkpt>
      <trkpt lat="49.25683" lon="3.98086">
        <ele>131</ele>
        <time>2019-05-07T11:43:14Z</time>
      </trkpt>
      <trkpt lat="49.25667" lon="3.98108">
        <ele>132</ele>
        <time>2019-05-07T11:43:20Z</time>
      </trkpt>
      <trkpt lat="49.25652" lon="3.9813">
        <ele>131</ele>
        <time>2019-05-07T11:43:26Z</time>
      </trkpt>
      <trkpt lat="49.25637" lon="3.98151">
        <ele>131</ele>
        <time>2019-05-07T11:43:32Z</time>
      </trkpt>
      <trkpt lat="49.25622" lon="3.98173">
        <ele>131</ele>
        <time>2019-05-07T11:43:38Z</time>
      </trkpt>
      <trkpt lat="49.25605" lon="3.98197">
        <ele>130</ele>
        <time>2019-05-07T11:43:44Z</time>
      </trkpt>
      <trkpt lat="49.25587" lon="3.98222">
        <ele>128</ele>
        <time>2019-05-07T11:43:50Z</time>
      </trkpt>
      <trkpt lat="49.25562" lon="3.98255">
        <ele>127</ele>
        <time>2019-05-07T11:43:56Z</time>
      </trkpt>
      <trkpt lat="49.25547" lon="3.98278">
        <ele>127</ele>
        <time>2019-05-07T11:43:59Z</time>
      </trkpt>
      <trkpt lat="49.25531" lon="3.98303">
        <ele>126</ele>
        <time>2019-05-07T11:44:02Z</time>
      </trkpt>
      <trkpt lat="49.25514" lon="3.98334">
        <ele>125</ele>
        <time>2019-05-07T11:44:05Z</time>
      </trkpt>
      <trkpt lat="49.25499" lon="3.98366">
        <ele>124</ele>
        <time>2019-05-07T11:44:08Z</time>
      </trkpt>
      <trkpt lat="49.25487" lon="3.98399">
        <ele>123</ele>
        <time>2019-05-07T11:44:11Z</time>
      </trkpt>
      <trkpt lat="49.25474" lon="3.98429">
        <ele>122</ele>
        <time>2019-05-07T11:44:14Z</time>
      </trkpt>
      <trkpt lat="49.25462" lon="3.98459">
        <ele>122</ele>
        <time>2019-05-07T11:44:17Z</time>
      </trkpt>
      <trkpt lat="49.2545" lon="3.98488">
        <ele>122</ele>
        <time>2019-05-07T11:44:20Z</time>
      </trkpt>
      <trkpt lat="49.25439" lon="3.98515">
        <ele>122</ele>
        <time>2019-05-07T11:44:23Z</time>
      </trkpt>
      <trkpt lat="49.25429" lon="3.9854">
        <ele>123</ele>
        <time>2019-05-07T11:44:26Z</time>
      </trkpt>
      <trkpt lat="49.25419" lon="3.98564">
        <ele>123</ele>
        <time>2019-05-07T11:44:29Z</time>
      </trkpt>
      <trkpt lat="49.2541" lon="3.98588">
        <ele>123</ele>
        <time>2019-05-07T11:44:32Z</time>
      </trkpt>
      <trkpt lat="49.25391" lon="3.98634">
        <ele>123</ele>
        <time>2019-05-07T11:44:38Z</time>
      </trkpt>
      <trkpt lat="49.2537" lon="3.98665">
        <ele>124</ele>
        <time>2019-05-07T11:44:44Z</time>
      </trkpt>
      <trkpt lat="49.25357" lon="3.98706">
        <ele>123</ele>
        <time>2019-05-07T11:44:50Z</time>
      </trkpt>
      <trkpt lat="49.25344" lon="3.9875">
        <ele>125</ele>
        <time>2019-05-07T11:44:56Z</time>
      </trkpt>
      <trkpt lat="49.25337" lon="3.98794">
        <ele>124</ele>
        <time>2019-05-07T11:45:02Z</time>
      </trkpt>
      <trkpt lat="49.25328" lon="3.98837">
        <ele>124</ele>
        <time>2019-05-07T11:45:08Z</time>
      </trkpt>
      <trkpt lat="49.25315" lon="3.98876">
        <ele>124</ele>
        <time>2019-05-07T11:45:14Z</time>
      </trkpt>
      <trkpt lat="49.25299" lon="3.98915">
        <ele>124</ele>
        <time>2019-05-07T11:45:20Z</time>
      </trkpt>
      <trkpt lat="49.25283" lon="3.98953">
        <ele>124</ele>
        <time>2019-05-07T11:45:26Z</time>
      </trkpt>
      <trkpt lat="49.25268" lon="3.98994">
        <ele>125</ele>
        <time>2019-05-07T11:45:32Z</time>
      </trkpt>
      <trkpt lat="49.25262" lon="3.99037">
        <ele>127</ele>
        <time>2019-05-07T11:45:38Z</time>
      </trkpt>
      <trkpt lat="49.25257" lon="3.99074">
        <ele>130</ele>
        <time>2019-05-07T11:45:44Z</time>
      </trkpt>
      <trkpt lat="49.25251" lon="3.9911">
        <ele>132</ele>
        <time>2019-05-07T11:45:50Z</time>
      </trkpt>
      <trkpt lat="49.25249" lon="3.99145">
        <ele>130</ele>
        <time>2019-05-07T11:45:56Z</time>
      </trkpt>
      <trkpt lat="49.25246" lon="3.99182">
        <ele>130</ele>
        <time>2019-05-07T11:46:02Z</time>
      </trkpt>
      <trkpt lat="49.2524" lon="3.9922">
        <ele>128</ele>
        <time>2019-05-07T11:46:08Z</time>
      </trkpt>
      <trkpt lat="49.25237" lon="3.9926">
        <ele>129</ele>
        <time>2019-05-07T11:46:14Z</time>
      </trkpt>
      <trkpt lat="49.25235" lon="3.99301">
        <ele>129</ele>
        <time>2019-05-07T11:46:20Z</time>
      </trkpt>
      <trkpt lat="49.25232" lon="3.99346">
        <ele>128</ele>
        <time>2019-05-07T11:46:26Z</time>
      </trkpt>
      <trkpt lat="49.25229" lon="3.99394">
        <ele>128</ele>
        <time>2019-05-07T11:46:32Z</time>
      </trkpt>
      <trkpt lat="49.25228" lon="3.99438">
        <ele>127</ele>
        <time>2019-05-07T11:46:38Z</time>
      </trkpt>
      <trkpt lat="49.25225" lon="3.99481">
        <ele>127</ele>
        <time>2019-05-07T11:46:44Z</time>
      </trkpt>
      <trkpt lat="49.25223" lon="3.99523">
        <ele>127</ele>
        <time>2019-05-07T11:46:50Z</time>
      </trkpt>
      <trkpt lat="49.25223" lon="3.99552">
        <ele>126</ele>
        <time>2019-05-07T11:46:56Z</time>
      </trkpt>
      <trkpt lat="49.25219" lon="3.99584">
        <ele>127</ele>
        <time>2019-05-07T11:47:02Z</time>
      </trkpt>
      <trkpt lat="49.25219" lon="3.99619">
        <ele>127</ele>
        <time>2019-05-07T11:47:08Z</time>
      </trkpt>
      <trkpt lat="49.25218" lon="3.99656">
        <ele>127</ele>
        <time>2019-05-07T11:47:14Z</time>
      </trkpt>
      <trkpt lat="49.25215" lon="3.99692">
        <ele>126</ele>
        <time>2019-05-07T11:47:20Z</time>
      </trkpt>
      <trkpt lat="49.25215" lon="3.99727">
        <ele>126</ele>
        <time>2019-05-07T11:47:26Z</time>
      </trkpt>
      <trkpt lat="49.25216" lon="3.99764">
        <ele>126</ele>
        <time>2019-05-07T11:47:32Z</time>
      </trkpt>
      <trkpt lat="49.25213" lon="3.99792">
        <ele>126</ele>
        <time>2019-05-07T11:47:35Z</time>
      </trkpt>
      <trkpt lat="49.25209" lon="3.99847">
        <ele>124</ele>
        <time>2019-05-07T11:47:41Z</time>
      </trkpt>
      <trkpt lat="49.25208" lon="3.99874">
        <ele>124</ele>
        <time>2019-05-07T11:47:44Z</time>
      </trkpt>
      <trkpt lat="49.25208" lon="3.99902">
        <ele>124</ele>
        <time>2019-05-07T11:47:47Z</time>
      </trkpt>
      <trkpt lat="49.25207" lon="3.9993">
        <ele>124</ele>
        <time>2019-05-07T11:47:50Z</time>
      </trkpt>
      <trkpt lat="49.25204" lon="3.99958">
        <ele>125</ele>
        <time>2019-05-07T11:47:53Z</time>
      </trkpt>
      <trkpt lat="49.25203" lon="3.99988">
        <ele>125</ele>
        <time>2019-05-07T11:47:56Z</time>
      </trkpt>
      <trkpt lat="49.25201" lon="4.00017">
        <ele>125</ele>
        <time>2019-05-07T11:47:59Z</time>
      </trkpt>
      <trkpt lat="49.252" lon="4.00048">
        <ele>124</ele>
        <time>2019-05-07T11:48:02Z</time>
      </trkpt>
      <trkpt lat="49.25197" lon="4.00076">
        <ele>124</ele>
        <time>2019-05-07T11:48:05Z</time>
      </trkpt>
      <trkpt lat="49.25196" lon="4.00104">
        <ele>124</ele>
        <time>2019-05-07T11:48:08Z</time>
      </trkpt>
      <trkpt lat="49.25192" lon="4.00158">
        <ele>124</ele>
        <time>2019-05-07T11:48:14Z</time>
      </trkpt>
      <trkpt lat="49.25187" lon="4.0021">
        <ele>123</ele>
        <time>2019-05-07T11:48:20Z</time>
      </trkpt>
      <trkpt lat="49.25182" lon="4.00258">
        <ele>124</ele>
        <time>2019-05-07T11:48:26Z</time>
      </trkpt>
      <trkpt lat="49.25176" lon="4.00298">
        <ele>125</ele>
        <time>2019-05-07T11:48:32Z</time>
      </trkpt>
      <trkpt lat="49.2517" lon="4.00337">
        <ele>125</ele>
        <time>2019-05-07T11:48:38Z</time>
      </trkpt>
      <trkpt lat="49.25165" lon="4.00375">
        <ele>124</ele>
        <time>2019-05-07T11:48:44Z</time>
      </trkpt>
      <trkpt lat="49.25157" lon="4.00412">
        <ele>125</ele>
        <time>2019-05-07T11:48:50Z</time>
      </trkpt>
      <trkpt lat="49.2515" lon="4.0045">
        <ele>125</ele>
        <time>2019-05-07T11:48:56Z</time>
      </trkpt>
      <trkpt lat="49.2514" lon="4.00485">
        <ele>126</ele>
        <time>2019-05-07T11:49:02Z</time>
      </trkpt>
      <trkpt lat="49.2513" lon="4.00517">
        <ele>125</ele>
        <time>2019-05-07T11:49:08Z</time>
      </trkpt>
      <trkpt lat="49.25117" lon="4.00548">
        <ele>125</ele>
        <time>2019-05-07T11:49:14Z</time>
      </trkpt>
      <trkpt lat="49.25113" lon="4.00596">
        <ele>126</ele>
        <time>2019-05-07T11:49:20Z</time>
      </trkpt>
      <trkpt lat="49.25097" lon="4.00642">
        <ele>126</ele>
        <time>2019-05-07T11:49:26Z</time>
      </trkpt>
      <trkpt lat="49.25086" lon="4.00688">
        <ele>127</ele>
        <time>2019-05-07T11:49:32Z</time>
      </trkpt>
      <trkpt lat="49.25073" lon="4.00733">
        <ele>126</ele>
        <time>2019-05-07T11:49:38Z</time>
      </trkpt>
      <trkpt lat="49.25061" lon="4.00776">
        <ele>126</ele>
        <time>2019-05-07T11:49:44Z</time>
      </trkpt>
      <trkpt lat="49.25049" lon="4.00817">
        <ele>127</ele>
        <time>2019-05-07T11:49:50Z</time>
      </trkpt>
      <trkpt lat="49.25037" lon="4.00855">
        <ele>127</ele>
        <time>2019-05-07T11:49:56Z</time>
      </trkpt>
      <trkpt lat="49.25024" lon="4.00891">
        <ele>129</ele>
        <time>2019-05-07T11:50:02Z</time>
      </trkpt>
      <trkpt lat="49.2501" lon="4.00931">
        <ele>128</ele>
        <time>2019-05-07T11:50:08Z</time>
      </trkpt>
      <trkpt lat="49.24992" lon="4.00983">
        <ele>128</ele>
        <time>2019-05-07T11:50:15Z</time>
      </trkpt>
      <trkpt lat="49.24977" lon="4.01027">
        <ele>128</ele>
        <time>2019-05-07T11:50:21Z</time>
      </trkpt>
      <trkpt lat="49.24961" lon="4.01074">
        <ele>127</ele>
        <time>2019-05-07T11:50:27Z</time>
      </trkpt>
      <trkpt lat="49.24945" lon="4.01119">
        <ele>126</ele>
        <time>2019-05-07T11:50:33Z</time>
      </trkpt>
      <trkpt lat="49.24931" lon="4.0116">
        <ele>125</ele>
        <time>2019-05-07T11:50:39Z</time>
      </trkpt>
      <trkpt lat="49.2492" lon="4.01184">
        <ele>127</ele>
        <time>2019-05-07T11:50:43Z</time>
      </trkpt>
      <trkpt lat="49.24908" lon="4.01217">
        <ele>127</ele>
        <time>2019-05-07T11:50:49Z</time>
      </trkpt>
      <trkpt lat="49.24901" lon="4.01239">
        <ele>127</ele>
        <time>2019-05-07T11:51:07Z</time>
      </trkpt>
      <trkpt lat="49.24901" lon="4.0124">
        <ele>127</ele>
        <time>2019-05-07T11:51:10Z</time>
      </trkpt>
      <trkpt lat="49.24901" lon="4.0124">
        <ele>127</ele>
        <time>2019-05-07T11:51:19Z</time>
      </trkpt>
      <trkpt lat="49.249" lon="4.01245">
        <ele>128</ele>
        <time>2019-05-07T11:51:22Z</time>
      </trkpt>
      <trkpt lat="49.24886" lon="4.0127">
        <ele>129</ele>
        <time>2019-05-07T11:51:31Z</time>
      </trkpt>
      <trkpt lat="49.24874" lon="4.01274">
        <ele>130</ele>
        <time>2019-05-07T11:51:40Z</time>
      </trkpt>
      <trkpt lat="49.24874" lon="4.01274">
        <ele>130</ele>
        <time>2019-05-07T11:51:43Z</time>
      </trkpt>
      <trkpt lat="49.24874" lon="4.01274">
        <ele>130</ele>
        <time>2019-05-07T11:52:01Z</time>
      </trkpt>
      <trkpt lat="49.24874" lon="4.01274">
        <ele>130</ele>
        <time>2019-05-07T11:52:04Z</time>
      </trkpt>
      <trkpt lat="49.24873" lon="4.01274">
        <ele>130</ele>
        <time>2019-05-07T11:52:07Z</time>
      </trkpt>
      <trkpt lat="49.24873" lon="4.01274">
        <ele>130</ele>
        <time>2019-05-07T11:52:37Z</time>
      </trkpt>
      <trkpt lat="49.24869" lon="4.01272">
        <ele>130</ele>
        <time>2019-05-07T11:52:40Z</time>
      </trkpt>
      <trkpt lat="49.24845" lon="4.01265">
        <ele>128</ele>
        <time>2019-05-07T11:52:46Z</time>
      </trkpt>
      <trkpt lat="49.24815" lon="4.01257">
        <ele>129</ele>
        <time>2019-05-07T11:52:52Z</time>
      </trkpt>
      <trkpt lat="49.24787" lon="4.01252">
        <ele>129</ele>
        <time>2019-05-07T11:52:58Z</time>
      </trkpt>
      <trkpt lat="49.24757" lon="4.01246">
        <ele>130</ele>
        <time>2019-05-07T11:53:04Z</time>
      </trkpt>
      <trkpt lat="49.24731" lon="4.01242">
        <ele>130</ele>
        <time>2019-05-07T11:53:10Z</time>
      </trkpt>
      <trkpt lat="49.24705" lon="4.01241">
        <ele>131</ele>
        <time>2019-05-07T11:53:16Z</time>
      </trkpt>
      <trkpt lat="49.24681" lon="4.01239">
        <ele>132</ele>
        <time>2019-05-07T11:53:22Z</time>
      </trkpt>
      <trkpt lat="49.24658" lon="4.01237">
        <ele>132</ele>
        <time>2019-05-07T11:53:28Z</time>
      </trkpt>
      <trkpt lat="49.24635" lon="4.01238">
        <ele>132</ele>
        <time>2019-05-07T11:53:34Z</time>
      </trkpt>
      <trkpt lat="49.24612" lon="4.01236">
        <ele>133</ele>
        <time>2019-05-07T11:53:40Z</time>
      </trkpt>
      <trkpt lat="49.24591" lon="4.01237">
        <ele>133</ele>
        <time>2019-05-07T11:53:46Z</time>
      </trkpt>
      <trkpt lat="49.24568" lon="4.0124">
        <ele>134</ele>
        <time>2019-05-07T11:53:52Z</time>
      </trkpt>
      <trkpt lat="49.24547" lon="4.01242">
        <ele>134</ele>
        <time>2019-05-07T11:53:58Z</time>
      </trkpt>
      <trkpt lat="49.24527" lon="4.01241">
        <ele>135</ele>
        <time>2019-05-07T11:54:04Z</time>
      </trkpt>
      <trkpt lat="49.24513" lon="4.01215">
        <ele>135</ele>
        <time>2019-05-07T11:54:13Z</time>
      </trkpt>
      <trkpt lat="49.24511" lon="4.01209">
        <ele>135</ele>
        <time>2019-05-07T11:54:19Z</time>
      </trkpt>
      <trkpt lat="49.24511" lon="4.01209">
        <ele>136</ele>
        <time>2019-05-07T11:54:22Z</time>
      </trkpt>
      <trkpt lat="49.24511" lon="4.01209">
        <ele>136</ele>
        <time>2019-05-07T11:54:31Z</time>
      </trkpt>
      <trkpt lat="49.24511" lon="4.01209">
        <ele>136</ele>
        <time>2019-05-07T11:54:34Z</time>
      </trkpt>
      <trkpt lat="49.24505" lon="4.01203">
        <ele>135</ele>
        <time>2019-05-07T11:54:46Z</time>
      </trkpt>
      <trkpt lat="49.24506" lon="4.01204">
        <ele>135</ele>
        <time>2019-05-07T11:54:49Z</time>
      </trkpt>
      <trkpt lat="49.24506" lon="4.01204">
        <ele>135</ele>
        <time>2019-05-07T11:55:10Z</time>
      </trkpt>
      <trkpt lat="49.24503" lon="4.0121">
        <ele>135</ele>
        <time>2019-05-07T11:55:13Z</time>
      </trkpt>
      <trkpt lat="49.24503" lon="4.0121">
        <ele>135</ele>
        <time>2019-05-07T11:55:16Z</time>
      </trkpt>
      <trkpt lat="49.24503" lon="4.0121">
        <ele>135</ele>
        <time>2019-05-07T11:55:22Z</time>
      </trkpt>
      <trkpt lat="49.24503" lon="4.01211">
        <ele>136</ele>
        <time>2019-05-07T11:55:25Z</time>
      </trkpt>
      <trkpt lat="49.24503" lon="4.0121">
        <ele>136</ele>
        <time>2019-05-07T11:55:28Z</time>
      </trkpt>
      <trkpt lat="49.24503" lon="4.01213">
        <ele>136</ele>
        <time>2019-05-07T11:55:31Z</time>
      </trkpt>
      <trkpt lat="49.24503" lon="4.01215">
        <ele>136</ele>
        <time>2019-05-07T11:55:34Z</time>
      </trkpt>
      <trkpt lat="49.24502" lon="4.01217">
        <ele>137</ele>
        <time>2019-05-07T11:55:37Z</time>
      </trkpt>
      <trkpt lat="49.24513" lon="4.01127">
        <ele>144</ele>
        <time>2019-05-07T11:56:12Z</time>
      </trkpt>
      <trkpt lat="49.24522" lon="4.01149">
        <ele>127</ele>
        <time>2019-05-07T11:56:18Z</time>
      </trkpt>
      <trkpt lat="49.24523" lon="4.01151">
        <ele>125</ele>
        <time>2019-05-07T11:56:21Z</time>
      </trkpt>
      <trkpt lat="49.24524" lon="4.0115">
        <ele>126</ele>
        <time>2019-05-07T11:56:25Z</time>
      </trkpt>
      <trkpt lat="49.24524" lon="4.01147">
        <ele>129</ele>
        <time>2019-05-07T11:56:28Z</time>
      </trkpt>
      <trkpt lat="49.24524" lon="4.01147">
        <ele>129</ele>
        <time>2019-05-07T11:56:31Z</time>
      </trkpt>
      <trkpt lat="49.24523" lon="4.0114">
        <ele>137</ele>
        <time>2019-05-07T11:56:34Z</time>
      </trkpt>
      <trkpt lat="49.24523" lon="4.0114">
        <ele>139</ele>
        <time>2019-05-07T11:56:37Z</time>
      </trkpt>
      <trkpt lat="49.24521" lon="4.01135">
        <ele>145</ele>
        <time>2019-05-07T11:56:40Z</time>
      </trkpt>
      <trkpt lat="49.24522" lon="4.01134">
        <ele>141</ele>
        <time>2019-05-07T11:56:43Z</time>
      </trkpt>
      <trkpt lat="49.24522" lon="4.01134">
        <ele>141</ele>
        <time>2019-05-07T11:56:46Z</time>
      </trkpt>
      <trkpt lat="49.24522" lon="4.01129">
        <ele>141</ele>
        <time>2019-05-07T11:56:49Z</time>
      </trkpt>
      <trkpt lat="49.24522" lon="4.01125">
        <ele>144</ele>
        <time>2019-05-07T11:56:52Z</time>
      </trkpt>
      <trkpt lat="49.24522" lon="4.01125">
        <ele>144</ele>
        <time>2019-05-07T11:56:55Z</time>
      </trkpt>
      <trkpt lat="49.2452" lon="4.01121">
        <ele>148</ele>
        <time>2019-05-07T11:56:58Z</time>
      </trkpt>
      <trkpt lat="49.2452" lon="4.01121">
        <ele>149</ele>
        <time>2019-05-07T11:57:01Z</time>
      </trkpt>
      <trkpt lat="49.2452" lon="4.01125">
        <ele>145</ele>
        <time>2019-05-07T11:57:17Z</time>
      </trkpt>
      <trkpt lat="49.2452" lon="4.01123">
        <ele>145</ele>
        <time>2019-05-07T11:57:20Z</time>
      </trkpt>
      <trkpt lat="49.2452" lon="4.01123">
        <ele>145</ele>
        <time>2019-05-07T11:57:23Z</time>
      </trkpt>
      <trkpt lat="49.2452" lon="4.01123">
        <ele>144</ele>
        <time>2019-05-07T11:57:26Z</time>
      </trkpt>
      <trkpt lat="49.2452" lon="4.01118">
        <ele>147</ele>
        <time>2019-05-07T11:57:29Z</time>
      </trkpt>
    </trkseg>
  </trk>
</gpx>